Darstellungsparameter: Aktuell verwendete Einstellungen:
Skalierung der Graphiken ... ?
xyx+y,   Skalierungsfaktor:      Skalierung: Modus: x, Faktor: 1
Darstellungszeitraum ... ?
Vom - - bis: - -   Zeitraum: 01.04.2019 - 30.06.2019
Min/Max/Avg-Anzeige ... ?
Zeige MMA aktuell
Zeige MMA Monat
Zeige MMA alles
Zeige --A aktuell
Zeige --A Monat
Zeige --A alles
Keine MMA-Anzeige
MMA:
Average (ber die Originaldaten)
MMA-Basis: 01.04.2019 - 30.06.2019
Quicknavigation für Darstellung... ?
Tage:      1T, 2T, 3T, 5T -1T -2T -3T -5T +1T +2T +3T +5T
Wochen: 1W, 2W, 3W -1W -2W -3W +1W +2W +3W
Monate: 1M, 3M, 6M -1M -3M -6M +1M +3M +6M
Jahre:    1J, 3J, 5J, 10J -1J -3J -5J -10J +1J +3J +5J +10J
Nutze für die Darstellung ... ?
Originaldaten oder ...
Mittelwerte Minima Maxima auf...
Stundenbasis Tagesbasis Wochenbasis
Monatsbasis Jahresbasis      Datenbasis: Mittelwerte auf Stundenbasis
Darstellen als:
Statistik (Auto) Statistik J:M      Darstellung:
Zur Graphik,    zurück zur Übersicht aller Sensoren.
 
Tabellarische Datenbersicht: ?
 
Sensor: Nr:Datum:Temp:Abs-Feuchte:Windchill:Wind:
Aussen-T/F 1 01-04-2019 00:00:00 6.36667 C 6.62 g/m*3 6.37 C 0 km/h
2 01-04-2019 01:00:00 5.74167 C 6.37 g/m*3 5.74 C 0.26667 km/h
3 01-04-2019 02:00:00 5.25 C 6.22 g/m*3 5.25 C 1.86667 km/h
4 01-04-2019 03:00:00 4.69167 C 6.04 g/m*3 4.69 C 2.8 km/h
5 01-04-2019 04:00:00 4.31667 C 5.9 g/m*3 4.32 C 1.73333 km/h
6 01-04-2019 05:00:00 3.975 C 5.78 g/m*3 3.98 C 0.8 km/h
7 01-04-2019 06:00:00 3.56667 C 5.67 g/m*3 3.57 C 0.4 km/h
8 01-04-2019 07:00:00 3.15 C 5.54 g/m*3 3.15 C 0.8 km/h
9 01-04-2019 08:00:00 3.16667 C 5.61 g/m*3 3.17 C 0 km/h
10 01-04-2019 09:00:00 4.29167 C 6.01 g/m*3 4.29 C 0.66667 km/h
11 01-04-2019 10:00:00 6.65 C 6.32 g/m*3 5.52 C 6.31667 km/h
12 01-04-2019 11:00:00 9.53333 C 6.5 g/m*3 8.18 C 9.40833 km/h
13 01-04-2019 12:00:00 11.28333 C 6.7 g/m*3 11.28 C 10.08333 km/h
14 01-04-2019 13:00:00 13.00833 C 6.96 g/m*3 13.01 C 9.15833 km/h
15 01-04-2019 14:00:00 14.91667 C 7.26 g/m*3 14.92 C 10.63333 km/h
16 01-04-2019 15:00:00 16.39167 C 7.5 g/m*3 16.39 C 8.73333 km/h
17 01-04-2019 16:00:00 17.5 C 7.53 g/m*3 17.5 C 6.15833 km/h
18 01-04-2019 17:00:00 18.275 C 7.44 g/m*3 18.27 C 8.46667 km/h
19 01-04-2019 18:00:00 17.875 C 7.22 g/m*3 17.88 C 7.65833 km/h
20 01-04-2019 19:00:00 16 C 7.62 g/m*3 16 C 4.01667 km/h
21 01-04-2019 20:00:00 11.775 C 7.41 g/m*3 11.78 C 5.2 km/h
22 01-04-2019 21:00:00 10.15833 C 7.18 g/m*3 10.16 C 4.66667 km/h
23 01-04-2019 22:00:00 9.35 C 6.95 g/m*3 9.35 C 2.26667 km/h
24 01-04-2019 23:00:00 8.79167 C 6.73 g/m*3 8.79 C 1.86667 km/h
25 02-04-2019 00:00:00 7.93333 C 6.63 g/m*3 7.93 C 0 km/h
Sensor: Nr:Datum:Temp:Abs-Feuchte:Windchill:Wind:
Aussen-T/F 26 02-04-2019 01:00:00 7.04167 C 6.46 g/m*3 7.04 C 0 km/h
27 02-04-2019 02:00:00 6.3 C 6.27 g/m*3 6.3 C 0 km/h
28 02-04-2019 03:00:00 5.09167 C 5.98 g/m*3 5.09 C 0 km/h
29 02-04-2019 04:00:00 4.39167 C 5.88 g/m*3 4.39 C 0 km/h
30 02-04-2019 05:00:00 3.96667 C 5.78 g/m*3 3.97 C 0 km/h
31 02-04-2019 06:00:00 3.88333 C 5.81 g/m*3 3.88 C 0 km/h
32 02-04-2019 07:00:00 4.00833 C 5.91 g/m*3 4.01 C 0 km/h
33 02-04-2019 08:00:00 4.98333 C 6.31 g/m*3 4.98 C 0 km/h
34 02-04-2019 09:00:00 6.53333 C 6.71 g/m*3 6.53 C 0 km/h
35 02-04-2019 10:00:00 8.71667 C 7.1 g/m*3 8.72 C 0 km/h
36 02-04-2019 11:00:00 11.95 C 7.96 g/m*3 11.95 C 2.8 km/h
37 02-04-2019 12:00:00 15.01667 C 8.57 g/m*3 15.02 C 4.01667 km/h
38 02-04-2019 13:00:00 16.80833 C 8.7 g/m*3 16.81 C 6.175 km/h
39 02-04-2019 14:00:00 17.975 C 8.91 g/m*3 17.98 C 9.55833 km/h
40 02-04-2019 15:00:00 16.725 C 9.1 g/m*3 16.73 C 12.625 km/h
41 02-04-2019 16:00:00 17.46667 C 8.58 g/m*3 17.47 C 16.36667 km/h
42 02-04-2019 17:00:00 16.00833 C 8.99 g/m*3 16.01 C 9.15 km/h
43 02-04-2019 18:00:00 16.08333 C 8.71 g/m*3 16.08 C 6.71667 km/h
44 02-04-2019 19:00:00 15.35833 C 8.65 g/m*3 15.36 C 4.00833 km/h
45 02-04-2019 20:00:00 14.03333 C 8.59 g/m*3 14.03 C 7.11667 km/h
46 02-04-2019 21:00:00 13.50833 C 8.12 g/m*3 13.51 C 8.325 km/h
47 02-04-2019 22:00:00 12.66667 C 7.79 g/m*3 12.67 C 6.84167 km/h
48 02-04-2019 23:00:00 11.4 C 7.6 g/m*3 11.4 C 0.66667 km/h
49 03-04-2019 00:00:00 10.50833 C 7.64 g/m*3 10.51 C 0.66667 km/h
50 03-04-2019 01:00:00 10.275 C 7.62 g/m*3 10.28 C 0 km/h
Sensor: Nr:Datum:Temp:Abs-Feuchte:Windchill:Wind:
Aussen-T/F 51 03-04-2019 02:00:00 9.90833 C 7.61 g/m*3 9.91 C 0 km/h
52 03-04-2019 03:00:00 8.91667 C 7.43 g/m*3 8.92 C 0 km/h
53 03-04-2019 04:00:00 8.875 C 7.54 g/m*3 8.88 C 0 km/h
54 03-04-2019 05:00:00 8.6 C 7.44 g/m*3 8.6 C 0 km/h
55 03-04-2019 06:00:00 8.075 C 7.3 g/m*3 8.07 C 0.53333 km/h
56 03-04-2019 07:00:00 8.64167 C 7.32 g/m*3 8.64 C 0.53333 km/h
57 03-04-2019 08:00:00 8.86667 C 7.52 g/m*3 8.87 C 3.35833 km/h
58 03-04-2019 09:00:00 7.66667 C 7.32 g/m*3 5.96 C 9.4 km/h
59 03-04-2019 10:00:00 7.025 C 7.11 g/m*3 7.03 C 2.80833 km/h
60 03-04-2019 11:00:00 7.44167 C 7.33 g/m*3 7.44 C 1.2 km/h
61 03-04-2019 12:00:00 8.33333 C 7.51 g/m*3 8.33 C 3.60833 km/h
62 03-04-2019 13:00:00 9.475 C 7.56 g/m*3 9.48 C 3.6 km/h
63 03-04-2019 14:00:00 9.43333 C 7.37 g/m*3 9.43 C 4.54167 km/h
64 03-04-2019 15:00:00 10.05 C 7.52 g/m*3 9.35 C 6.7 km/h
65 03-04-2019 16:00:00 10.2 C 7.47 g/m*3 10.2 C 4.675 km/h
66 03-04-2019 17:00:00 9.45833 C 7.47 g/m*3 9.46 C 2.93333 km/h
67 03-04-2019 18:00:00 7.93333 C 7.42 g/m*3 7.93 C 1.6 km/h
68 03-04-2019 19:00:00 7.025 C 7.2 g/m*3 7.03 C 0.26667 km/h
69 03-04-2019 20:00:00 6.45 C 7 g/m*3 6.45 C 0 km/h
70 03-04-2019 21:00:00 6.23333 C 6.98 g/m*3 6.23 C 0 km/h
71 03-04-2019 22:00:00 5.875 C 6.84 g/m*3 5.88 C 0.13333 km/h
72 03-04-2019 23:00:00 5.63333 C 6.73 g/m*3 5.63 C 0.13333 km/h
73 04-04-2019 00:00:00 5.65 C 6.77 g/m*3 5.65 C 0.4 km/h
74 04-04-2019 01:00:00 5.325 C 6.64 g/m*3 5.33 C 1.06667 km/h
75 04-04-2019 02:00:00 5.41667 C 6.71 g/m*3 5.42 C 2.13333 km/h
Sensor: Nr:Datum:Temp:Abs-Feuchte:Windchill:Wind:
Aussen-T/F 76 04-04-2019 03:00:00 5.6 C 6.79 g/m*3 5.6 C 0 km/h
77 04-04-2019 04:00:00 5.54167 C 6.76 g/m*3 5.54 C 0 km/h
78 04-04-2019 05:00:00 5.60833 C 6.79 g/m*3 5.61 C 0 km/h
79 04-04-2019 06:00:00 5.475 C 6.73 g/m*3 5.48 C 0 km/h
80 04-04-2019 07:00:00 5.34167 C 6.67 g/m*3 5.34 C 0 km/h
81 04-04-2019 08:00:00 5.61667 C 6.79 g/m*3 5.62 C 0 km/h
82 04-04-2019 09:00:00 5.93333 C 6.97 g/m*3 5.93 C 0.66667 km/h
83 04-04-2019 10:00:00 6.075 C 7 g/m*3 6.08 C 1.46667 km/h
84 04-04-2019 11:00:00 6.65833 C 7.07 g/m*3 6.66 C 2.26667 km/h
85 04-04-2019 12:00:00 6.95 C 6.91 g/m*3 6.17 C 5.375 km/h
86 04-04-2019 13:00:00 6.69167 C 6.96 g/m*3 6.69 C 2.80833 km/h
87 04-04-2019 14:00:00 6.4 C 6.84 g/m*3 6.4 C 4.14167 km/h
88 04-04-2019 15:00:00 6.85833 C 6.99 g/m*3 6.86 C 0.4 km/h
89 04-04-2019 16:00:00 7.08333 C 7.09 g/m*3 7.08 C 1.73333 km/h
90 04-04-2019 17:00:00 7.43333 C 7.03 g/m*3 7.43 C 4.55 km/h
91 04-04-2019 18:00:00 7.56667 C 6.85 g/m*3 7.57 C 3.475 km/h
92 04-04-2019 19:00:00 7.25833 C 6.86 g/m*3 7.26 C 1.33333 km/h
93 04-04-2019 20:00:00 5.95833 C 6.64 g/m*3 5.96 C 1.46667 km/h
94 04-04-2019 21:00:00 5.29167 C 6.48 g/m*3 5.29 C 1.33333 km/h
95 04-04-2019 22:00:00 5.08333 C 6.45 g/m*3 5.08 C 0.53333 km/h
96 04-04-2019 23:00:00 4.575 C 6.24 g/m*3 4.58 C 0 km/h
97 05-04-2019 00:00:00 4.10833 C 6.08 g/m*3 4.11 C 0 km/h
98 05-04-2019 01:00:00 3.525 C 5.87 g/m*3 3.53 C 0 km/h
99 05-04-2019 02:00:00 3.775 C 6.01 g/m*3 3.78 C 0 km/h
100 05-04-2019 03:00:00 3.85833 C 6.05 g/m*3 3.86 C 0 km/h
Sensor: Nr:Datum:Temp:Abs-Feuchte:Windchill:Wind:
Aussen-T/F 101 05-04-2019 04:00:00 4.06667 C 6.13 g/m*3 4.07 C 0 km/h
102 05-04-2019 05:00:00 3.93333 C 6.08 g/m*3 3.93 C 0 km/h
103 05-04-2019 06:00:00 3.9 C 6.06 g/m*3 3.9 C 0 km/h
104 05-04-2019 07:00:00 4.13333 C 6.2 g/m*3 4.13 C 0 km/h
105 05-04-2019 08:00:00 4.64167 C 6.44 g/m*3 4.64 C 0 km/h
106 05-04-2019 09:00:00 5.3 C 6.72 g/m*3 5.3 C 3.06667 km/h
107 05-04-2019 10:00:00 5.89167 C 6.89 g/m*3 5.89 C 1.2 km/h
108 05-04-2019 11:00:00 7.16667 C 7.06 g/m*3 6.34 C 5.60833 km/h
109 05-04-2019 12:00:00 8.025 C 7.1 g/m*3 6.87 C 7.23333 km/h
110 05-04-2019 13:00:00 8.19167 C 7.07 g/m*3 8.19 C 4.54167 km/h
111 05-04-2019 14:00:00 8.41667 C 7.1 g/m*3 8.42 C 3.46667 km/h
112 05-04-2019 15:00:00 8.55 C 7.21 g/m*3 8.55 C 4.40833 km/h
113 05-04-2019 16:00:00 8.58333 C 7.32 g/m*3 8.08 C 5.20833 km/h
114 05-04-2019 17:00:00 8.41667 C 7.4 g/m*3 8.42 C 4.14167 km/h
115 05-04-2019 18:00:00 8.3 C 7.49 g/m*3 8.3 C 2.94167 km/h
116 05-04-2019 19:00:00 8.19167 C 7.55 g/m*3 8.19 C 0 km/h
117 05-04-2019 20:00:00 7.925 C 7.55 g/m*3 7.93 C 0 km/h
118 05-04-2019 21:00:00 7.69167 C 7.54 g/m*3 7.69 C 0 km/h
119 05-04-2019 22:00:00 7.61667 C 7.58 g/m*3 7.62 C 0 km/h
120 05-04-2019 23:00:00 7.6 C 7.61 g/m*3 7.6 C 0 km/h
121 06-04-2019 00:00:00 7.45833 C 7.58 g/m*3 7.46 C 0 km/h
122 06-04-2019 01:00:00 7.40833 C 7.63 g/m*3 7.41 C 0 km/h
123 06-04-2019 02:00:00 7.225 C 7.54 g/m*3 7.23 C 0 km/h
124 06-04-2019 03:00:00 6.14167 C 6.97 g/m*3 6.14 C 2.93333 km/h
125 06-04-2019 04:00:00 5.15833 C 6.57 g/m*3 5.16 C 0.13333 km/h
Sensor: Nr:Datum:Temp:Abs-Feuchte:Windchill:Wind:
Aussen-T/F 126 06-04-2019 05:00:00 5.01667 C 6.53 g/m*3 5.02 C 0 km/h
127 06-04-2019 06:00:00 4.675 C 6.4 g/m*3 4.68 C 0 km/h
128 06-04-2019 07:00:00 5.13333 C 6.63 g/m*3 5.13 C 0 km/h
129 06-04-2019 08:00:00 5.71667 C 6.91 g/m*3 5.72 C 0.4 km/h
130 06-04-2019 09:00:00 6.025 C 7.05 g/m*3 6.03 C 0.53333 km/h
131 06-04-2019 10:00:00 7.325 C 7.69 g/m*3 7.33 C 0 km/h
132 06-04-2019 11:00:00 9.825 C 8.4 g/m*3 9.09 C 6.70833 km/h
133 06-04-2019 12:00:00 12.51667 C 8.42 g/m*3 12.52 C 5.89167 km/h
134 06-04-2019 13:00:00 14.375 C 8.5 g/m*3 14.38 C 8.325 km/h
135 06-04-2019 14:00:00 16.04167 C 8.47 g/m*3 16.04 C 8.85 km/h
136 06-04-2019 15:00:00 15.96667 C 8.24 g/m*3 15.97 C 9.40833 km/h
137 06-04-2019 16:00:00 15.81667 C 8.31 g/m*3 15.82 C 7.925 km/h
138 06-04-2019 17:00:00 16.30833 C 8.41 g/m*3 16.31 C 8.05833 km/h
139 06-04-2019 18:00:00 17.31667 C 8.61 g/m*3 17.32 C 6.175 km/h
140 06-04-2019 19:00:00 16.46667 C 9.06 g/m*3 16.47 C 0.53333 km/h
141 06-04-2019 20:00:00 12.50833 C 8.76 g/m*3 12.51 C 0 km/h
142 06-04-2019 21:00:00 11.1 C 8.53 g/m*3 11.1 C 0 km/h
143 06-04-2019 22:00:00 10.05 C 8.28 g/m*3 10.05 C 0 km/h
144 06-04-2019 23:00:00 9.3 C 8.04 g/m*3 9.3 C 0 km/h
145 07-04-2019 00:00:00 8.40833 C 7.77 g/m*3 8.41 C 0 km/h
146 07-04-2019 01:00:00 7.75833 C 7.54 g/m*3 7.76 C 0 km/h
147 07-04-2019 02:00:00 7.175 C 7.34 g/m*3 7.18 C 0 km/h
148 07-04-2019 03:00:00 6.775 C 7.23 g/m*3 6.78 C 0 km/h
149 07-04-2019 04:00:00 6.09167 C 6.91 g/m*3 6.09 C 0 km/h
150 07-04-2019 05:00:00 5.68333 C 6.75 g/m*3 5.68 C 0 km/h
Sensor: Nr:Datum:Temp:Abs-Feuchte:Windchill:Wind:
Aussen-T/F 151 07-04-2019 06:00:00 5.43333 C 6.71 g/m*3 5.43 C 0 km/h
152 07-04-2019 07:00:00 4.68333 C 6.37 g/m*3 4.68 C 0 km/h
153 07-04-2019 08:00:00 5.23333 C 6.64 g/m*3 5.23 C 0 km/h
154 07-04-2019 09:00:00 6.14167 C 7.11 g/m*3 6.14 C 0.4 km/h
155 07-04-2019 10:00:00 8.25 C 8.16 g/m*3 8.25 C 0.4 km/h
156 07-04-2019 11:00:00 12.725 C 8.8 g/m*3 12.73 C 10.08333 km/h
157 07-04-2019 12:00:00 15.79167 C 7.95 g/m*3 15.79 C 12.75833 km/h
158 07-04-2019 13:00:00 17.00833 C 7.47 g/m*3 17.01 C 11.15833 km/h
159 07-04-2019 14:00:00 18.25833 C 7.16 g/m*3 18.26 C 16.9 km/h
160 07-04-2019 15:00:00 19.13333 C 6.83 g/m*3 19.13 C 12.225 km/h
161 07-04-2019 16:00:00 20 C 6.81 g/m*3 20 C 11.68333 km/h
162 07-04-2019 17:00:00 20.88333 C 7.02 g/m*3 20.88 C 8.31667 km/h
163 07-04-2019 18:00:00 19.09167 C 7.91 g/m*3 19.09 C 5.775 km/h
164 07-04-2019 19:00:00 16.95 C 8.97 g/m*3 16.95 C 0.13333 km/h
165 07-04-2019 20:00:00 15.14167 C 8.86 g/m*3 15.14 C 2.8 km/h
166 07-04-2019 21:00:00 14.49167 C 8.9 g/m*3 14.49 C 0.8 km/h
167 07-04-2019 22:00:00 13.95 C 8.9 g/m*3 13.95 C 0 km/h
168 07-04-2019 23:00:00 13.44167 C 9.12 g/m*3 13.44 C 0 km/h
169 08-04-2019 00:00:00 12.95 C 9.18 g/m*3 12.95 C 0.13333 km/h
170 08-04-2019 01:00:00 12.53333 C 9.12 g/m*3 12.53 C 0.13333 km/h
171 08-04-2019 02:00:00 11.975 C 8.98 g/m*3 11.98 C 0.26667 km/h
172 08-04-2019 03:00:00 11.60833 C 8.9 g/m*3 11.61 C 0.8 km/h
173 08-04-2019 04:00:00 11.23333 C 8.83 g/m*3 11.23 C 0.13333 km/h
174 08-04-2019 05:00:00 11.06667 C 8.85 g/m*3 11.07 C 0.13333 km/h
175 08-04-2019 06:00:00 10.66667 C 8.69 g/m*3 10.67 C 0.13333 km/h
Sensor: Nr:Datum:Temp:Abs-Feuchte:Windchill:Wind:
Aussen-T/F 176 08-04-2019 07:00:00 10.025 C 8.5 g/m*3 10.03 C 0 km/h
177 08-04-2019 08:00:00 10.425 C 8.87 g/m*3 10.43 C 0 km/h
178 08-04-2019 09:00:00 11.5 C 9.16 g/m*3 11.5 C 1.46667 km/h
179 08-04-2019 10:00:00 12.45833 C 9.29 g/m*3 12.46 C 1.6 km/h
180 08-04-2019 11:00:00 13.16667 C 9.47 g/m*3 13.17 C 1.46667 km/h
181 08-04-2019 12:00:00 13.15 C 9.54 g/m*3 13.15 C 1.2 km/h
182 08-04-2019 13:00:00 13.48333 C 9.73 g/m*3 13.48 C 1.06667 km/h
183 08-04-2019 14:00:00 15.05 C 9.93 g/m*3 15.05 C 3.73333 km/h
184 08-04-2019 15:00:00 16.80833 C 9.88 g/m*3 16.81 C 6.55833 km/h
185 08-04-2019 16:00:00 17.05833 C 9.84 g/m*3 17.06 C 2.93333 km/h
186 08-04-2019 17:00:00 15.05 C 10.8 g/m*3 15.05 C 0.53333 km/h
187 08-04-2019 18:00:00 14.35833 C 10.75 g/m*3 14.36 C 0.93333 km/h
188 08-04-2019 19:00:00 13.84167 C 10.29 g/m*3 13.84 C 1.6 km/h
189 08-04-2019 20:00:00 12.875 C 10.06 g/m*3 12.88 C 0.4 km/h
190 08-04-2019 21:00:00 11.425 C 9.52 g/m*3 11.43 C 3.86667 km/h
191 08-04-2019 22:00:00 11.1 C 9.53 g/m*3 11.1 C 1.06667 km/h
192 08-04-2019 23:00:00 10.93333 C 9.45 g/m*3 10.93 C 0.53333 km/h
193 09-04-2019 00:00:00 10.20833 C 9.04 g/m*3 10.21 C 0.93333 km/h
194 09-04-2019 01:00:00 10.16667 C 9.08 g/m*3 10.17 C 0.26667 km/h
195 09-04-2019 02:00:00 10.44167 C 9.28 g/m*3 10.44 C 0 km/h
196 09-04-2019 03:00:00 10.15833 C 9.11 g/m*3 10.16 C 0 km/h
197 09-04-2019 04:00:00 9.73333 C 8.87 g/m*3 9.73 C 0 km/h
198 09-04-2019 05:00:00 9.025 C 8.48 g/m*3 9.03 C 0 km/h
199 09-04-2019 06:00:00 8.94167 C 8.47 g/m*3 8.94 C 0 km/h
200 09-04-2019 07:00:00 9.30833 C 8.72 g/m*3 9.31 C 0 km/h
Sensor: Nr:Datum:Temp:Abs-Feuchte:Windchill:Wind:
Aussen-T/F 201 09-04-2019 08:00:00 9.875 C 9.04 g/m*3 9.88 C 0 km/h
202 09-04-2019 09:00:00 10.50833 C 9.41 g/m*3 10.51 C 0.53333 km/h
203 09-04-2019 10:00:00 11.09167 C 9.65 g/m*3 11.09 C 1.2 km/h
204 09-04-2019 11:00:00 11.90833 C 10.03 g/m*3 11.91 C 2.13333 km/h
205 09-04-2019 12:00:00 12.83333 C 10.38 g/m*3 12.83 C 1.2 km/h
206 09-04-2019 13:00:00 14.475 C 10.69 g/m*3 14.48 C 3.2 km/h
207 09-04-2019 14:00:00 16.075 C 10.8 g/m*3 16.08 C 6.83333 km/h
208 09-04-2019 15:00:00 16.325 C 10.83 g/m*3 16.33 C 5.49167 km/h
209 09-04-2019 16:00:00 16.08333 C 10.79 g/m*3 16.08 C 5.475 km/h
210 09-04-2019 17:00:00 15.85 C 10.69 g/m*3 15.85 C 0.66667 km/h
211 09-04-2019 18:00:00 15.4 C 10.9 g/m*3 15.4 C 0.13333 km/h
212 09-04-2019 19:00:00 14.58333 C 10.17 g/m*3 14.58 C 2.80833 km/h
213 09-04-2019 20:00:00 13.625 C 9.69 g/m*3 13.63 C 0.93333 km/h
214 09-04-2019 21:00:00 12.48333 C 9.24 g/m*3 12.48 C 0.4 km/h
215 09-04-2019 22:00:00 12.36667 C 8.16 g/m*3 12.37 C 4.53333 km/h
216 09-04-2019 23:00:00 12.16667 C 7.6 g/m*3 12.17 C 7.38333 km/h
217 10-04-2019 00:00:00 10.925 C 7.85 g/m*3 10.93 C 2.94167 km/h
218 10-04-2019 01:00:00 10.36667 C 7.52 g/m*3 10.37 C 4.28333 km/h
219 10-04-2019 02:00:00 9.91667 C 7.56 g/m*3 9.92 C 1.6 km/h
220 10-04-2019 03:00:00 9.775 C 7.29 g/m*3 9.78 C 3.35 km/h
221 10-04-2019 04:00:00 8.79167 C 7.06 g/m*3 8.79 C 0.53333 km/h
222 10-04-2019 05:00:00 7.34167 C 6.71 g/m*3 7.34 C 0.53333 km/h
223 10-04-2019 06:00:00 6.50833 C 6.47 g/m*3 6.51 C 0.66667 km/h
224 10-04-2019 07:00:00 6.6 C 6.37 g/m*3 6.6 C 0.26667 km/h
225 10-04-2019 08:00:00 7.675 C 6.24 g/m*3 6.99 C 5.36667 km/h
Sensor: Nr:Datum:Temp:Abs-Feuchte:Windchill:Wind:
Aussen-T/F 226 10-04-2019 09:00:00 8.50833 C 6.14 g/m*3 6.74 C 10.625 km/h
227 10-04-2019 10:00:00 9.575 C 6.31 g/m*3 7.82 C 11.83333 km/h
228 10-04-2019 11:00:00 11.18333 C 6.41 g/m*3 11.18 C 12.9 km/h
229 10-04-2019 12:00:00 12.16667 C 6.12 g/m*3 12.17 C 11.01667 km/h
230 10-04-2019 13:00:00 13.425 C 6.32 g/m*3 13.43 C 9.94167 km/h
231 10-04-2019 14:00:00 14.24167 C 6.08 g/m*3 14.24 C 12.76667 km/h
232 10-04-2019 15:00:00 15.1 C 6.04 g/m*3 15.1 C 13.43333 km/h
233 10-04-2019 16:00:00 16.075 C 6.01 g/m*3 16.08 C 13.825 km/h
234 10-04-2019 17:00:00 16.6 C 5.79 g/m*3 16.6 C 12.35833 km/h
235 10-04-2019 18:00:00 15.94167 C 5.17 g/m*3 15.94 C 14.5 km/h
236 10-04-2019 19:00:00 14.4 C 5.28 g/m*3 14.4 C 14.9 km/h
237 10-04-2019 20:00:00 11.34167 C 5.8 g/m*3 11.34 C 3.20833 km/h
238 10-04-2019 21:00:00 8.9 C 5.88 g/m*3 8.9 C 2.13333 km/h
239 10-04-2019 22:00:00 7.38333 C 5.81 g/m*3 7.38 C 0.4 km/h
240 10-04-2019 23:00:00 6.46667 C 5.71 g/m*3 6.47 C 0.66667 km/h
241 11-04-2019 00:00:00 5.75 C 5.52 g/m*3 5.75 C 1.34167 km/h
242 11-04-2019 01:00:00 5.03333 C 5.31 g/m*3 5.03 C 0.53333 km/h
243 11-04-2019 02:00:00 4.4 C 5.15 g/m*3 4.4 C 1.2 km/h
244 11-04-2019 03:00:00 3.85833 C 4.98 g/m*3 3.86 C 0 km/h
245 11-04-2019 04:00:00 2.9 C 4.76 g/m*3 2.9 C 0 km/h
246 11-04-2019 05:00:00 2.30833 C 4.64 g/m*3 2.31 C 0.26667 km/h
247 11-04-2019 06:00:00 1.71667 C 4.54 g/m*3 1.72 C 0 km/h
248 11-04-2019 07:00:00 1.21667 C 4.49 g/m*3 1.22 C 0 km/h
249 11-04-2019 08:00:00 1.8 C 4.69 g/m*3 1.8 C 0 km/h
250 11-04-2019 09:00:00 3.9 C 4.89 g/m*3 3.9 C 4.69167 km/h
Sensor: Nr:Datum:Temp:Abs-Feuchte:Windchill:Wind:
Aussen-T/F 251 11-04-2019 10:00:00 6.76667 C 4.43 g/m*3 3.92 C 15.03333 km/h
252 11-04-2019 11:00:00 8.1 C 4.14 g/m*3 5.23 C 17.70833 km/h
253 11-04-2019 12:00:00 8.91667 C 4.03 g/m*3 6.41 C 16.36667 km/h
254 11-04-2019 13:00:00 9.875 C 4.05 g/m*3 7.86 C 14.23333 km/h
255 11-04-2019 14:00:00 11.01667 C 4.09 g/m*3 11.02 C 16.5 km/h
256 11-04-2019 15:00:00 12 C 4.13 g/m*3 12 C 17.175 km/h
257 11-04-2019 16:00:00 12.76667 C 4.04 g/m*3 12.77 C 16.36667 km/h
258 11-04-2019 17:00:00 13.31667 C 4.02 g/m*3 13.32 C 14.76667 km/h
259 11-04-2019 18:00:00 13.025 C 3.99 g/m*3 13.03 C 11.41667 km/h
260 11-04-2019 19:00:00 11.95833 C 4.06 g/m*3 11.96 C 7.65833 km/h
261 11-04-2019 20:00:00 8.95 C 4.36 g/m*3 8.95 C 2.4 km/h
262 11-04-2019 21:00:00 6.225 C 4.52 g/m*3 6.23 C 2.26667 km/h
263 11-04-2019 22:00:00 5.35 C 4.45 g/m*3 5.35 C 2.80833 km/h
264 11-04-2019 23:00:00 5.48333 C 4.26 g/m*3 5.48 C 3.75 km/h
265 12-04-2019 00:00:00 4.46667 C 4.12 g/m*3 3.34 C 5.35 km/h
266 12-04-2019 01:00:00 3.54167 C 4.03 g/m*3 3.54 C 3.34167 km/h
267 12-04-2019 02:00:00 2.15833 C 4.03 g/m*3 2.16 C 2.53333 km/h
268 12-04-2019 03:00:00 1.60833 C 3.98 g/m*3 1.61 C 3.06667 km/h
269 12-04-2019 04:00:00 2.15833 C 4.23 g/m*3 2.16 C 0.66667 km/h
270 12-04-2019 05:00:00 2.70833 C 4.27 g/m*3 2.71 C 0 km/h
271 12-04-2019 06:00:00 2.98333 C 4.21 g/m*3 2.98 C 0 km/h
272 12-04-2019 07:00:00 3.475 C 4.1 g/m*3 3.48 C 3.075 km/h
273 12-04-2019 08:00:00 4.63333 C 3.85 g/m*3 1.97 C 11.16667 km/h
274 12-04-2019 09:00:00 5.03333 C 3.82 g/m*3 2.3 C 11.95833 km/h
275 12-04-2019 10:00:00 5.49167 C 3.74 g/m*3 1.91 C 18.23333 km/h
Sensor: Nr:Datum:Temp:Abs-Feuchte:Windchill:Wind:
Aussen-T/F 276 12-04-2019 11:00:00 5.98333 C 3.76 g/m*3 2.37 C 19.43333 km/h
277 12-04-2019 12:00:00 6.78333 C 3.82 g/m*3 4.08 C 14.09167 km/h
278 12-04-2019 13:00:00 7.15833 C 3.74 g/m*3 4.9 C 11.825 km/h
279 12-04-2019 14:00:00 7.26667 C 3.69 g/m*3 4.83 C 13.03333 km/h
280 12-04-2019 15:00:00 7.56667 C 3.73 g/m*3 5.26 C 12.63333 km/h
281 12-04-2019 16:00:00 7.3 C 3.74 g/m*3 5.16 C 11.3 km/h
282 12-04-2019 17:00:00 7.1 C 3.64 g/m*3 5.46 C 8.61667 km/h
283 12-04-2019 18:00:00 6.83333 C 3.76 g/m*3 4.53 C 11.7 km/h
284 12-04-2019 19:00:00 6.525 C 3.91 g/m*3 4.41 C 10.35833 km/h
285 12-04-2019 20:00:00 6.06667 C 4 g/m*3 4.3 C 8.34167 km/h
286 12-04-2019 21:00:00 5.55 C 4.25 g/m*3 4.34 C 6.04167 km/h
287 12-04-2019 22:00:00 4.39167 C 4.34 g/m*3 4.39 C 0.26667 km/h
288 12-04-2019 23:00:00 3.58333 C 4.25 g/m*3 3.58 C 0.13333 km/h
289 13-04-2019 00:00:00 2.95 C 4.3 g/m*3 2.95 C 0.66667 km/h
290 13-04-2019 01:00:00 2.875 C 4.31 g/m*3 2.88 C 2.13333 km/h
291 13-04-2019 02:00:00 2.61667 C 4.39 g/m*3 2.62 C 1.6 km/h
292 13-04-2019 03:00:00 2.30833 C 4.42 g/m*3 2.31 C 0.26667 km/h
293 13-04-2019 04:00:00 2.6 C 4.48 g/m*3 2.6 C 2.275 km/h
294 13-04-2019 05:00:00 2.54167 C 4.5 g/m*3 2.54 C 0.4 km/h
295 13-04-2019 06:00:00 2.28333 C 4.56 g/m*3 2.28 C 0.93333 km/h
296 13-04-2019 07:00:00 2.5 C 4.6 g/m*3 2.5 C 2 km/h
297 13-04-2019 08:00:00 3.125 C 4.63 g/m*3 1.24 C 6.975 km/h
298 13-04-2019 09:00:00 3.60833 C 4.54 g/m*3 1.68 C 7.375 km/h
299 13-04-2019 10:00:00 4.75833 C 4.42 g/m*3 2.83 C 8.075 km/h
300 13-04-2019 11:00:00 5.36667 C 4.25 g/m*3 3.66 C 7.65 km/h
Sensor: Nr:Datum:Temp:Abs-Feuchte:Windchill:Wind:
Aussen-T/F 301 13-04-2019 12:00:00 5.96667 C 4.15 g/m*3 3.58 C 11.15 km/h
302 13-04-2019 13:00:00 5.75833 C 4.51 g/m*3 3.55 C 10.075 km/h
303 13-04-2019 14:00:00 4.69167 C 5.15 g/m*3 2.3 C 9.93333 km/h
304 13-04-2019 15:00:00 5.61667 C 5.3 g/m*3 3.85 C 8.05 km/h
305 13-04-2019 16:00:00 6.21667 C 5.06 g/m*3 3.51 C 13.29167 km/h
306 13-04-2019 17:00:00 4.55 C 5.59 g/m*3 3.33 C 5.63333 km/h
307 13-04-2019 18:00:00 6.29167 C 5.7 g/m*3 6.29 C 4.28333 km/h
308 13-04-2019 19:00:00 5.59167 C 5.48 g/m*3 5.59 C 1.73333 km/h
309 13-04-2019 20:00:00 4.63333 C 5.35 g/m*3 4.63 C 2.54167 km/h
310 13-04-2019 21:00:00 3.075 C 5 g/m*3 3.08 C 0 km/h
311 13-04-2019 22:00:00 1.56667 C 4.72 g/m*3 1.57 C 0 km/h
312 13-04-2019 23:00:00 1.04167 C 4.68 g/m*3 1.04 C 0 km/h
313 14-04-2019 00:00:00 0.475 C 4.56 g/m*3 0.48 C 0 km/h
314 14-04-2019 01:00:00 0.45 C 4.63 g/m*3 0.45 C 0 km/h
315 14-04-2019 02:00:00 1.23333 C 4.92 g/m*3 1.23 C 0.13333 km/h
316 14-04-2019 03:00:00 1.575 C 5.02 g/m*3 1.58 C 0.53333 km/h
317 14-04-2019 04:00:00 1.63333 C 5.04 g/m*3 1.63 C 0.26667 km/h
318 14-04-2019 05:00:00 1.56667 C 5.05 g/m*3 1.57 C 0.66667 km/h
319 14-04-2019 06:00:00 1.25833 C 4.97 g/m*3 1.26 C 0 km/h
320 14-04-2019 07:00:00 1.225 C 5.01 g/m*3 1.23 C 0 km/h
321 14-04-2019 08:00:00 1.5 C 5.11 g/m*3 1.5 C 0 km/h
322 14-04-2019 09:00:00 2.66667 C 5.57 g/m*3 2.67 C 0.13333 km/h
323 14-04-2019 10:00:00 4.15 C 6.06 g/m*3 4.15 C 4.69167 km/h
324 14-04-2019 11:00:00 6.00833 C 6.14 g/m*3 4.71 C 6.575 km/h
325 14-04-2019 12:00:00 7.71667 C 5.62 g/m*3 5.62 C 11.55833 km/h
Sensor: Nr:Datum:Temp:Abs-Feuchte:Windchill:Wind:
Aussen-T/F 326 14-04-2019 13:00:00 8.99167 C 5.14 g/m*3 7.21 C 11.275 km/h
327 14-04-2019 14:00:00 10.43333 C 5.05 g/m*3 8.63 C 13.56667 km/h
328 14-04-2019 15:00:00 11.46667 C 4.99 g/m*3 11.47 C 12.89167 km/h
329 14-04-2019 16:00:00 12.08333 C 4.9 g/m*3 12.08 C 12.63333 km/h
330 14-04-2019 17:00:00 12.50833 C 4.81 g/m*3 12.51 C 13.69167 km/h
331 14-04-2019 18:00:00 12.06667 C 4.87 g/m*3 12.07 C 12.625 km/h
332 14-04-2019 19:00:00 10.99167 C 5.18 g/m*3 9.87 C 9.66667 km/h
333 14-04-2019 20:00:00 8.25 C 5.41 g/m*3 8.25 C 2.40833 km/h
334 14-04-2019 21:00:00 5.925 C 5.5 g/m*3 5.93 C 2.14167 km/h
335 14-04-2019 22:00:00 4.61667 C 5.42 g/m*3 4.62 C 1.86667 km/h
336 14-04-2019 23:00:00 4.06667 C 5.39 g/m*3 4.07 C 1.6 km/h
337 15-04-2019 00:00:00 4.11667 C 5.51 g/m*3 4.12 C 0.93333 km/h
338 15-04-2019 01:00:00 5.075 C 5.83 g/m*3 5.08 C 0.53333 km/h
339 15-04-2019 02:00:00 5.64167 C 5.91 g/m*3 5.64 C 0.26667 km/h
340 15-04-2019 03:00:00 4.81667 C 5.71 g/m*3 4.82 C 0.66667 km/h
341 15-04-2019 04:00:00 4.78333 C 5.81 g/m*3 4.78 C 0 km/h
342 15-04-2019 05:00:00 4.26667 C 5.68 g/m*3 4.27 C 0.4 km/h
343 15-04-2019 06:00:00 4.48333 C 5.87 g/m*3 4.48 C 0 km/h
344 15-04-2019 07:00:00 5.1 C 6.13 g/m*3 5.1 C 0 km/h
345 15-04-2019 08:00:00 5.98333 C 6.38 g/m*3 5.98 C 2.14167 km/h
346 15-04-2019 09:00:00 7.175 C 6.61 g/m*3 5.98 C 6.84167 km/h
347 15-04-2019 10:00:00 8.34167 C 6.78 g/m*3 6.68 C 9.83333 km/h
348 15-04-2019 11:00:00 10.15833 C 7.1 g/m*3 9.48 C 6.70833 km/h
349 15-04-2019 12:00:00 12.475 C 7.23 g/m*3 12.48 C 13.025 km/h
350 15-04-2019 13:00:00 14.29167 C 7.15 g/m*3 14.29 C 15.16667 km/h
Sensor: Nr:Datum:Temp:Abs-Feuchte:Windchill:Wind:
Aussen-T/F 351 15-04-2019 14:00:00 16.025 C 7.25 g/m*3 16.02 C 14.23333 km/h
352 15-04-2019 15:00:00 17.53333 C 6.95 g/m*3 17.53 C 16.63333 km/h
353 15-04-2019 16:00:00 18.31667 C 7 g/m*3 18.32 C 14.75833 km/h
354 15-04-2019 17:00:00 18.95833 C 6.68 g/m*3 18.96 C 11.7 km/h
355 15-04-2019 18:00:00 19.13333 C 6.32 g/m*3 19.13 C 11.95833 km/h
356 15-04-2019 19:00:00 18.19167 C 6.42 g/m*3 18.19 C 5.89167 km/h
357 15-04-2019 20:00:00 14.2 C 6.99 g/m*3 14.2 C 3.6 km/h
358 15-04-2019 21:00:00 11.575 C 6.81 g/m*3 11.58 C 3.6 km/h
359 15-04-2019 22:00:00 10.24167 C 6.5 g/m*3 10.24 C 0.53333 km/h
360 15-04-2019 23:00:00 9.24167 C 6.19 g/m*3 9.24 C 3.6 km/h
361 16-04-2019 00:00:00 8.16667 C 5.98 g/m*3 8.17 C 4.66667 km/h
362 16-04-2019 01:00:00 7.25833 C 5.82 g/m*3 7.26 C 2.93333 km/h
363 16-04-2019 02:00:00 6.48333 C 5.69 g/m*3 6.48 C 2.53333 km/h
364 16-04-2019 03:00:00 6.06667 C 5.55 g/m*3 6.07 C 2 km/h
365 16-04-2019 04:00:00 5.83333 C 5.4 g/m*3 5.83 C 2.66667 km/h
366 16-04-2019 05:00:00 5.50833 C 5.35 g/m*3 5.51 C 2.93333 km/h
367 16-04-2019 06:00:00 4.99167 C 5.27 g/m*3 4.99 C 1.46667 km/h
368 16-04-2019 07:00:00 3.91667 C 5.23 g/m*3 3.92 C 0 km/h
369 16-04-2019 08:00:00 4.51667 C 5.48 g/m*3 4.52 C 0.4 km/h
370 16-04-2019 09:00:00 6.2 C 5.94 g/m*3 6.2 C 0.66667 km/h
371 16-04-2019 10:00:00 10.39167 C 6.13 g/m*3 10.39 C 3.875 km/h
372 16-04-2019 11:00:00 13.69167 C 6.06 g/m*3 13.69 C 6.85833 km/h
373 16-04-2019 12:00:00 15.59167 C 6.26 g/m*3 15.59 C 9.28333 km/h
374 16-04-2019 13:00:00 17.025 C 6.68 g/m*3 17.02 C 9.41667 km/h
375 16-04-2019 14:00:00 18.3 C 7.24 g/m*3 18.3 C 9.14167 km/h
Sensor: Nr:Datum:Temp:Abs-Feuchte:Windchill:Wind:
Aussen-T/F 376 16-04-2019 15:00:00 19.025 C 7.4 g/m*3 19.02 C 8.45833 km/h
377 16-04-2019 16:00:00 18.85833 C 7.5 g/m*3 18.86 C 7.24167 km/h
378 16-04-2019 17:00:00 18.09167 C 8.11 g/m*3 18.09 C 16.36667 km/h
379 16-04-2019 18:00:00 15.5 C 8.21 g/m*3 15.5 C 12.1 km/h
380 16-04-2019 19:00:00 14.63333 C 8.39 g/m*3 14.63 C 2.55 km/h
381 16-04-2019 20:00:00 13.25833 C 8.37 g/m*3 13.26 C 0.13333 km/h
382 16-04-2019 21:00:00 12.29167 C 8.25 g/m*3 12.29 C 0.8 km/h
383 16-04-2019 22:00:00 11.825 C 8.35 g/m*3 11.83 C 0.66667 km/h
384 16-04-2019 23:00:00 11.475 C 8.29 g/m*3 11.48 C 0 km/h
385 17-04-2019 00:00:00 11.01667 C 8.31 g/m*3 11.02 C 0 km/h
386 17-04-2019 01:00:00 10.725 C 8.68 g/m*3 10.73 C 1.86667 km/h
387 17-04-2019 02:00:00 10.25833 C 8.74 g/m*3 10.26 C 0.26667 km/h
388 17-04-2019 03:00:00 9.91667 C 8.72 g/m*3 9.92 C 0 km/h
389 17-04-2019 04:00:00 9.73333 C 8.71 g/m*3 9.73 C 0 km/h
390 17-04-2019 05:00:00 9.60833 C 8.71 g/m*3 9.61 C 0 km/h
391 17-04-2019 06:00:00 9.66667 C 8.77 g/m*3 9.67 C 0 km/h
392 17-04-2019 07:00:00 10 C 9.02 g/m*3 10 C 0.4 km/h
393 17-04-2019 08:00:00 10.64167 C 9.39 g/m*3 10.64 C 2.275 km/h
394 17-04-2019 09:00:00 11.36667 C 9.81 g/m*3 11.37 C 3.2 km/h
395 17-04-2019 10:00:00 12.30833 C 10.16 g/m*3 12.31 C 2.675 km/h
396 17-04-2019 11:00:00 13.04167 C 10.32 g/m*3 13.04 C 4.80833 km/h
397 17-04-2019 12:00:00 13.675 C 10.3 g/m*3 13.68 C 5.23333 km/h
398 17-04-2019 13:00:00 14.88333 C 10.47 g/m*3 14.88 C 6.98333 km/h
399 17-04-2019 14:00:00 16.18333 C 10.25 g/m*3 16.18 C 7.24167 km/h
400 17-04-2019 15:00:00 17.19167 C 10.21 g/m*3 17.19 C 7.9 km/h
Sensor: Nr:Datum:Temp:Abs-Feuchte:Windchill:Wind:
Aussen-T/F 401 17-04-2019 16:00:00 18.00833 C 9.67 g/m*3 18.01 C 13.01667 km/h
402 17-04-2019 17:00:00 18.225 C 9.74 g/m*3 18.23 C 7.91667 km/h
403 17-04-2019 18:00:00 18.16667 C 9.51 g/m*3 18.17 C 5.24167 km/h
404 17-04-2019 19:00:00 16.38333 C 10.26 g/m*3 16.38 C 0 km/h
405 17-04-2019 20:00:00 13.575 C 9.15 g/m*3 13.58 C 2.13333 km/h
406 17-04-2019 21:00:00 11.65 C 8.36 g/m*3 11.65 C 3.2 km/h
407 17-04-2019 22:00:00 10.36667 C 8 g/m*3 10.37 C 0 km/h
408 17-04-2019 23:00:00 9.375 C 7.68 g/m*3 9.38 C 0 km/h
409 18-04-2019 00:00:00 8.70833 C 7.58 g/m*3 8.71 C 0 km/h
410 18-04-2019 01:00:00 8.75833 C 7.65 g/m*3 8.76 C 0 km/h
411 18-04-2019 02:00:00 8.55 C 7.51 g/m*3 8.55 C 0 km/h
412 18-04-2019 03:00:00 8.01667 C 7.15 g/m*3 8.02 C 0 km/h
413 18-04-2019 04:00:00 7.16667 C 6.89 g/m*3 7.17 C 0 km/h
414 18-04-2019 05:00:00 6.875 C 6.9 g/m*3 6.88 C 0 km/h
415 18-04-2019 06:00:00 6.76667 C 6.9 g/m*3 6.77 C 0 km/h
416 18-04-2019 07:00:00 7.44167 C 7.08 g/m*3 7.44 C 0 km/h
417 18-04-2019 08:00:00 8.475 C 7.49 g/m*3 8.48 C 0 km/h
418 18-04-2019 09:00:00 9.88333 C 7.78 g/m*3 9.88 C 2 km/h
419 18-04-2019 10:00:00 12.95 C 8.06 g/m*3 12.95 C 7.38333 km/h
420 18-04-2019 11:00:00 16.38333 C 7.92 g/m*3 16.38 C 10.60833 km/h
421 18-04-2019 12:00:00 17.65833 C 7.83 g/m*3 17.66 C 12.20833 km/h
422 18-04-2019 13:00:00 18.76667 C 7.61 g/m*3 18.77 C 12.76667 km/h
423 18-04-2019 14:00:00 19.91667 C 7.29 g/m*3 19.92 C 15.03333 km/h
424 18-04-2019 15:00:00 21.35 C 7.23 g/m*3 21.35 C 14.63333 km/h
425 18-04-2019 16:00:00 22.525 C 6.83 g/m*3 22.53 C 13.7 km/h
Sensor: Nr:Datum:Temp:Abs-Feuchte:Windchill:Wind:
Aussen-T/F 426 18-04-2019 17:00:00 23.375 C 6.88 g/m*3 23.38 C 12.35833 km/h
427 18-04-2019 18:00:00 23.40833 C 6.89 g/m*3 23.41 C 10.48333 km/h
428 18-04-2019 19:00:00 22.28333 C 7.18 g/m*3 22.28 C 6.04167 km/h
429 18-04-2019 20:00:00 18.05833 C 8.09 g/m*3 18.06 C 4 km/h
430 18-04-2019 21:00:00 15.33333 C 7.77 g/m*3 15.33 C 4.8 km/h
431 18-04-2019 22:00:00 14.23333 C 7.54 g/m*3 14.23 C 4.8 km/h
432 18-04-2019 23:00:00 13.08333 C 7.44 g/m*3 13.08 C 2.4 km/h
433 19-04-2019 00:00:00 11.55833 C 7.45 g/m*3 11.56 C 0 km/h
434 19-04-2019 01:00:00 10.70833 C 7.37 g/m*3 10.71 C 0.26667 km/h
435 19-04-2019 02:00:00 11.01667 C 7.17 g/m*3 11.02 C 3.33333 km/h
436 19-04-2019 03:00:00 10.29167 C 7.05 g/m*3 10.29 C 1.86667 km/h
437 19-04-2019 04:00:00 9.61667 C 6.99 g/m*3 9.62 C 0.13333 km/h
438 19-04-2019 05:00:00 8.24167 C 6.84 g/m*3 8.24 C 0 km/h
439 19-04-2019 06:00:00 7.04167 C 6.51 g/m*3 7.04 C 0 km/h
440 19-04-2019 07:00:00 6.65 C 6.58 g/m*3 6.65 C 0 km/h
441 19-04-2019 08:00:00 6.85 C 6.8 g/m*3 6.85 C 0 km/h
442 19-04-2019 09:00:00 8.975 C 7.61 g/m*3 8.98 C 0.66667 km/h
443 19-04-2019 10:00:00 13.525 C 7.82 g/m*3 13.53 C 7.66667 km/h
444 19-04-2019 11:00:00 17.95833 C 7.47 g/m*3 17.96 C 14.1 km/h
445 19-04-2019 12:00:00 19.9 C 7.13 g/m*3 19.9 C 13.7 km/h
446 19-04-2019 13:00:00 21.36667 C 6.41 g/m*3 21.37 C 12.35 km/h
447 19-04-2019 14:00:00 22.44167 C 6.24 g/m*3 22.44 C 15.43333 km/h
448 19-04-2019 15:00:00 23.675 C 5.75 g/m*3 23.68 C 14.63333 km/h
449 19-04-2019 16:00:00 24.89167 C 5.51 g/m*3 24.89 C 13.825 km/h
450 19-04-2019 17:00:00 25.28333 C 5.26 g/m*3 25.28 C 12.76667 km/h
Sensor: Nr:Datum:Temp:Abs-Feuchte:Windchill:Wind:
Aussen-T/F 451 19-04-2019 18:00:00 25.50833 C 5.29 g/m*3 25.51 C 9.83333 km/h
452 19-04-2019 19:00:00 24.25 C 5.77 g/m*3 24.25 C 4.95833 km/h
453 19-04-2019 20:00:00 19.21667 C 6.74 g/m*3 19.22 C 4.66667 km/h
454 19-04-2019 21:00:00 15.875 C 6.68 g/m*3 15.88 C 2.93333 km/h
455 19-04-2019 22:00:00 13.33333 C 6.74 g/m*3 13.33 C 0.8 km/h
456 19-04-2019 23:00:00 11.73333 C 6.73 g/m*3 11.73 C 1.2 km/h
457 20-04-2019 00:00:00 10.40833 C 6.81 g/m*3 10.41 C 0.4 km/h
458 20-04-2019 01:00:00 9.45833 C 6.91 g/m*3 9.46 C 0 km/h
459 20-04-2019 02:00:00 8.55833 C 6.93 g/m*3 8.56 C 0 km/h
460 20-04-2019 03:00:00 7.64167 C 6.79 g/m*3 7.64 C 0 km/h
461 20-04-2019 04:00:00 6.85 C 6.68 g/m*3 6.85 C 0 km/h
462 20-04-2019 05:00:00 6.23333 C 6.58 g/m*3 6.23 C 0 km/h
463 20-04-2019 06:00:00 5.775 C 6.48 g/m*3 5.78 C 0 km/h
464 20-04-2019 07:00:00 5.85833 C 6.61 g/m*3 5.86 C 0.13333 km/h
465 20-04-2019 08:00:00 6.48333 C 6.92 g/m*3 6.48 C 0 km/h
466 20-04-2019 09:00:00 8.16667 C 7.71 g/m*3 8.17 C 0 km/h
467 20-04-2019 10:00:00 11.68333 C 8.74 g/m*3 11.68 C 1.33333 km/h
468 20-04-2019 11:00:00 16.725 C 9.1 g/m*3 16.73 C 3.46667 km/h
469 20-04-2019 12:00:00 20.225 C 8.22 g/m*3 20.23 C 6.7 km/h
470 20-04-2019 13:00:00 22.05 C 7.07 g/m*3 22.05 C 10.61667 km/h
471 20-04-2019 14:00:00 23.275 C 6.04 g/m*3 23.28 C 11.95 km/h
472 20-04-2019 15:00:00 24.25833 C 6.13 g/m*3 24.26 C 11.96667 km/h
473 20-04-2019 16:00:00 25.21667 C 6.21 g/m*3 25.22 C 12.36667 km/h
474 20-04-2019 17:00:00 25.30833 C 5.89 g/m*3 25.31 C 14.1 km/h
475 20-04-2019 18:00:00 25.39167 C 5.55 g/m*3 25.39 C 10.89167 km/h
Sensor: Nr:Datum:Temp:Abs-Feuchte:Windchill:Wind:
Aussen-T/F 476 20-04-2019 19:00:00 24.575 C 6.03 g/m*3 24.58 C 5.5 km/h
477 20-04-2019 20:00:00 19.875 C 7.41 g/m*3 19.88 C 3.6 km/h
478 20-04-2019 21:00:00 16.175 C 7.52 g/m*3 16.18 C 0.66667 km/h
479 20-04-2019 22:00:00 13.81667 C 7.54 g/m*3 13.82 C 0 km/h
480 20-04-2019 23:00:00 12.90833 C 7.4 g/m*3 12.91 C 0 km/h
481 21-04-2019 00:00:00 12.84167 C 7.27 g/m*3 12.84 C 0 km/h
482 21-04-2019 01:00:00 12.48333 C 7.18 g/m*3 12.48 C 0 km/h
483 21-04-2019 02:00:00 11.36667 C 7.19 g/m*3 11.37 C 0 km/h
484 21-04-2019 03:00:00 10.81667 C 7.23 g/m*3 10.82 C 0 km/h
485 21-04-2019 04:00:00 9.23333 C 7.01 g/m*3 9.23 C 0 km/h
486 21-04-2019 05:00:00 7.375 C 6.74 g/m*3 7.38 C 0 km/h
487 21-04-2019 06:00:00 6.45 C 6.56 g/m*3 6.45 C 0 km/h
488 21-04-2019 07:00:00 6.68333 C 6.77 g/m*3 6.68 C 0 km/h
489 21-04-2019 08:00:00 7.16667 C 7.04 g/m*3 7.17 C 0 km/h
490 21-04-2019 09:00:00 8.675 C 7.73 g/m*3 8.68 C 0 km/h
491 21-04-2019 10:00:00 11.98333 C 8.67 g/m*3 11.98 C 0 km/h
492 21-04-2019 11:00:00 16.48333 C 8.88 g/m*3 16.48 C 1.2 km/h
493 21-04-2019 12:00:00 19.65833 C 7.65 g/m*3 19.66 C 5.08333 km/h
494 21-04-2019 13:00:00 21.525 C 6.63 g/m*3 21.53 C 7.65833 km/h
495 21-04-2019 14:00:00 22.98333 C 6.16 g/m*3 22.98 C 8.2 km/h
496 21-04-2019 15:00:00 24.46667 C 6.78 g/m*3 24.47 C 9.81667 km/h
497 21-04-2019 16:00:00 25.73333 C 6.32 g/m*3 25.73 C 11.41667 km/h
498 21-04-2019 17:00:00 25.94167 C 5.95 g/m*3 25.94 C 11.825 km/h
499 21-04-2019 18:00:00 26.13333 C 5.97 g/m*3 26.13 C 7.50833 km/h
500 21-04-2019 19:00:00 24.58333 C 6.37 g/m*3 24.58 C 4.95 km/h
Sensor: Nr:Datum:Temp:Abs-Feuchte:Windchill:Wind:
Aussen-T/F 501 21-04-2019 20:00:00 19.69167 C 6.89 g/m*3 19.69 C 3.6 km/h
502 21-04-2019 21:00:00 16.725 C 7.21 g/m*3 16.73 C 2.26667 km/h
503 21-04-2019 22:00:00 13.85833 C 7.54 g/m*3 13.86 C 0 km/h
504 21-04-2019 23:00:00 12.21667 C 7.25 g/m*3 12.22 C 0 km/h
505 22-04-2019 00:00:00 10.54167 C 7.03 g/m*3 10.54 C 0 km/h
506 22-04-2019 01:00:00 9.24167 C 6.98 g/m*3 9.24 C 0 km/h
507 22-04-2019 02:00:00 8.2 C 6.91 g/m*3 8.2 C 0.13333 km/h
508 22-04-2019 03:00:00 7.56667 C 6.83 g/m*3 7.57 C 0.13333 km/h
509 22-04-2019 04:00:00 6.64167 C 6.65 g/m*3 6.64 C 0 km/h
510 22-04-2019 05:00:00 5.89167 C 6.51 g/m*3 5.89 C 0 km/h
511 22-04-2019 06:00:00 5.475 C 6.43 g/m*3 5.48 C 0 km/h
512 22-04-2019 07:00:00 5.74167 C 6.63 g/m*3 5.74 C 0 km/h
513 22-04-2019 08:00:00 6.54167 C 6.99 g/m*3 6.54 C 0 km/h
514 22-04-2019 09:00:00 8.40833 C 7.81 g/m*3 8.41 C 0.8 km/h
515 22-04-2019 10:00:00 12.55 C 8.39 g/m*3 12.55 C 3.075 km/h
516 22-04-2019 11:00:00 17.96667 C 7.52 g/m*3 17.97 C 11.825 km/h
517 22-04-2019 12:00:00 20.89167 C 6.96 g/m*3 20.89 C 12.76667 km/h
518 22-04-2019 13:00:00 22.65 C 5.99 g/m*3 22.65 C 14.36667 km/h
519 22-04-2019 14:00:00 23.45 C 6.13 g/m*3 23.45 C 15.3 km/h
520 22-04-2019 15:00:00 24.375 C 6.32 g/m*3 24.38 C 15.03333 km/h
521 22-04-2019 16:00:00 25.49167 C 6.11 g/m*3 25.49 C 15.83333 km/h
522 22-04-2019 17:00:00 25.70833 C 5.93 g/m*3 25.71 C 12.9 km/h
523 22-04-2019 18:00:00 24.4 C 6.25 g/m*3 24.4 C 4.55833 km/h
524 22-04-2019 19:00:00 21.4 C 7.8 g/m*3 21.4 C 2 km/h
525 22-04-2019 20:00:00 19.55 C 7.24 g/m*3 19.55 C 5.50833 km/h
Sensor: Nr:Datum:Temp:Abs-Feuchte:Windchill:Wind:
Aussen-T/F 526 22-04-2019 21:00:00 16.975 C 7.06 g/m*3 16.98 C 3.46667 km/h
527 22-04-2019 22:00:00 15.15 C 6.63 g/m*3 15.15 C 3.74167 km/h
528 22-04-2019 23:00:00 15.04167 C 6.34 g/m*3 15.04 C 5.36667 km/h
529 23-04-2019 00:00:00 13.175 C 6.4 g/m*3 13.18 C 2.13333 km/h
530 23-04-2019 01:00:00 11.55 C 6.45 g/m*3 11.55 C 0.53333 km/h
531 23-04-2019 02:00:00 10.31667 C 6.42 g/m*3 10.32 C 0.66667 km/h
532 23-04-2019 03:00:00 9.7 C 6.31 g/m*3 9.7 C 0 km/h
533 23-04-2019 04:00:00 9.15833 C 6.39 g/m*3 9.16 C 0 km/h
534 23-04-2019 05:00:00 8.83333 C 6.38 g/m*3 8.83 C 0 km/h
535 23-04-2019 06:00:00 8.31667 C 6.41 g/m*3 8.32 C 0 km/h
536 23-04-2019 07:00:00 8.99167 C 6.81 g/m*3 8.99 C 0 km/h
537 23-04-2019 08:00:00 10.325 C 7.31 g/m*3 10.33 C 0 km/h
538 23-04-2019 09:00:00 12.53333 C 7.04 g/m*3 12.53 C 7.94167 km/h
539 23-04-2019 10:00:00 14.025 C 7.28 g/m*3 14.03 C 9.95833 km/h
540 23-04-2019 11:00:00 15.475 C 7.58 g/m*3 15.48 C 12.76667 km/h
541 23-04-2019 12:00:00 17.04167 C 8.01 g/m*3 17.04 C 11.56667 km/h
542 23-04-2019 13:00:00 18.89167 C 8.29 g/m*3 18.89 C 14.36667 km/h
543 23-04-2019 14:00:00 20.44167 C 8.5 g/m*3 20.44 C 13.16667 km/h
544 23-04-2019 15:00:00 21.76667 C 8.55 g/m*3 21.77 C 14.76667 km/h
545 23-04-2019 16:00:00 23.1 C 8.79 g/m*3 23.1 C 10.875 km/h
546 23-04-2019 17:00:00 23.4 C 8.97 g/m*3 23.4 C 8.475 km/h
547 23-04-2019 18:00:00 21.775 C 8.86 g/m*3 21.78 C 7.91667 km/h
548 23-04-2019 19:00:00 20.31667 C 9.21 g/m*3 20.32 C 2.93333 km/h
549 23-04-2019 20:00:00 17.975 C 9.41 g/m*3 17.98 C 0.53333 km/h
550 23-04-2019 21:00:00 16.08333 C 9.45 g/m*3 16.08 C 0.13333 km/h
Sensor: Nr:Datum:Temp:Abs-Feuchte:Windchill:Wind:
Aussen-T/F 551 23-04-2019 22:00:00 15.54167 C 9.44 g/m*3 15.54 C 0 km/h
552 23-04-2019 23:00:00 15.08333 C 9.3 g/m*3 15.08 C 0 km/h
553 24-04-2019 00:00:00 14.425 C 9.31 g/m*3 14.43 C 0 km/h
554 24-04-2019 01:00:00 12.65833 C 8.71 g/m*3 12.66 C 0 km/h
555 24-04-2019 02:00:00 11.325 C 8.48 g/m*3 11.33 C 0 km/h
556 24-04-2019 03:00:00 10.39167 C 8.33 g/m*3 10.39 C 0 km/h
557 24-04-2019 04:00:00 9.89167 C 8.28 g/m*3 9.89 C 0 km/h
558 24-04-2019 05:00:00 9.35 C 8.12 g/m*3 9.35 C 0 km/h
559 24-04-2019 06:00:00 9.1 C 8.13 g/m*3 9.1 C 0.26667 km/h
560 24-04-2019 07:00:00 9.66667 C 8.51 g/m*3 9.67 C 0 km/h
561 24-04-2019 08:00:00 11.55833 C 9.01 g/m*3 11.56 C 0 km/h
562 24-04-2019 09:00:00 13.39167 C 9.57 g/m*3 13.39 C 0 km/h
563 24-04-2019 10:00:00 16.14167 C 10.2 g/m*3 16.14 C 0 km/h
564 24-04-2019 11:00:00 18.73333 C 10.71 g/m*3 18.73 C 1.74167 km/h
565 24-04-2019 12:00:00 21.425 C 9.5 g/m*3 21.43 C 9.14167 km/h
566 24-04-2019 13:00:00 22.38333 C 9.03 g/m*3 22.38 C 9.14167 km/h
567 24-04-2019 14:00:00 23.45 C 9.01 g/m*3 23.45 C 6.05 km/h
568 24-04-2019 15:00:00 24.80833 C 8.88 g/m*3 24.81 C 6.56667 km/h
569 24-04-2019 16:00:00 25.20833 C 9.14 g/m*3 25.21 C 6.15833 km/h
570 24-04-2019 17:00:00 25.675 C 9.78 g/m*3 25.68 C 6.16667 km/h
571 24-04-2019 18:00:00 19.91667 C 9.77 g/m*3 19.92 C 24.66667 km/h
572 24-04-2019 19:00:00 13.875 C 9.24 g/m*3 13.88 C 28.94167 km/h
573 24-04-2019 20:00:00 11.34167 C 8.8 g/m*3 11.34 C 16.225 km/h
574 24-04-2019 21:00:00 9.85 C 8.55 g/m*3 9.85 C 1.86667 km/h
575 24-04-2019 22:00:00 9.16667 C 8.33 g/m*3 9.17 C 0 km/h
Sensor: Nr:Datum:Temp:Abs-Feuchte:Windchill:Wind:
Aussen-T/F 576 24-04-2019 23:00:00 9.00833 C 8.37 g/m*3 9.01 C 0 km/h
577 25-04-2019 00:00:00 8.85833 C 8.3 g/m*3 8.86 C 0.4 km/h
578 25-04-2019 01:00:00 8.125 C 7.92 g/m*3 8.13 C 0.66667 km/h
579 25-04-2019 02:00:00 7.45 C 7.6 g/m*3 7.45 C 0 km/h
580 25-04-2019 03:00:00 7.2 C 7.54 g/m*3 7.2 C 0 km/h
581 25-04-2019 04:00:00 7.05833 C 7.47 g/m*3 7.06 C 0 km/h
582 25-04-2019 05:00:00 7.10833 C 7.49 g/m*3 7.11 C 0 km/h
583 25-04-2019 06:00:00 7.05833 C 7.53 g/m*3 7.06 C 0.4 km/h
584 25-04-2019 07:00:00 7.85833 C 7.95 g/m*3 7.86 C 0.53333 km/h
585 25-04-2019 08:00:00 9.16667 C 8.64 g/m*3 9.17 C 3.06667 km/h
586 25-04-2019 09:00:00 10.63333 C 9.49 g/m*3 10.63 C 0.13333 km/h
587 25-04-2019 10:00:00 11.54167 C 9.93 g/m*3 11.54 C 1.75 km/h
588 25-04-2019 11:00:00 14.14167 C 9.69 g/m*3 14.14 C 8.06667 km/h
589 25-04-2019 12:00:00 16.96667 C 9.24 g/m*3 16.97 C 8.60833 km/h
590 25-04-2019 13:00:00 18.6 C 9.35 g/m*3 18.6 C 8.61667 km/h
591 25-04-2019 14:00:00 20.25833 C 9.3 g/m*3 20.26 C 7.39167 km/h
592 25-04-2019 15:00:00 21.525 C 9.32 g/m*3 21.53 C 8.19167 km/h
593 25-04-2019 16:00:00 22.125 C 10.75 g/m*3 22.13 C 3.21667 km/h
594 25-04-2019 17:00:00 21.35 C 11.08 g/m*3 21.35 C 6.725 km/h
595 25-04-2019 18:00:00 20.55833 C 9.8 g/m*3 20.56 C 13.95833 km/h
596 25-04-2019 19:00:00 16.88333 C 8.82 g/m*3 16.88 C 17.45 km/h
597 25-04-2019 20:00:00 15.125 C 8.62 g/m*3 15.13 C 12.61667 km/h
598 25-04-2019 21:00:00 13.85 C 8.64 g/m*3 13.85 C 7.125 km/h
599 25-04-2019 22:00:00 13.04167 C 8.49 g/m*3 13.04 C 2.4 km/h
600 25-04-2019 23:00:00 12.425 C 8.57 g/m*3 12.43 C 0 km/h
Sensor: Nr:Datum:Temp:Abs-Feuchte:Windchill:Wind:
Aussen-T/F 601 26-04-2019 00:00:00 11.39167 C 8.43 g/m*3 11.39 C 0 km/h
602 26-04-2019 01:00:00 10.93333 C 8.5 g/m*3 10.93 C 0 km/h
603 26-04-2019 02:00:00 11.00833 C 8.44 g/m*3 11.01 C 0 km/h
604 26-04-2019 03:00:00 10.98333 C 8.31 g/m*3 10.98 C 0 km/h
605 26-04-2019 04:00:00 10.8 C 8.27 g/m*3 10.8 C 2.80833 km/h
606 26-04-2019 05:00:00 10.4 C 8.38 g/m*3 10.4 C 2.80833 km/h
607 26-04-2019 06:00:00 9.625 C 8.44 g/m*3 9.63 C 0.93333 km/h
608 26-04-2019 07:00:00 9.5 C 8.55 g/m*3 9.5 C 0.93333 km/h
609 26-04-2019 08:00:00 9.50833 C 8.62 g/m*3 9.51 C 0.8 km/h
610 26-04-2019 09:00:00 9.99167 C 8.92 g/m*3 9.99 C 3.08333 km/h
611 26-04-2019 10:00:00 10.275 C 9.08 g/m*3 10.28 C 3.48333 km/h
612 26-04-2019 11:00:00 10.88333 C 9.29 g/m*3 10.88 C 4.55833 km/h
613 26-04-2019 12:00:00 11.95833 C 9.42 g/m*3 11.96 C 8.73333 km/h
614 26-04-2019 13:00:00 13.00833 C 9.36 g/m*3 13.01 C 9.68333 km/h
615 26-04-2019 14:00:00 13.53333 C 9.16 g/m*3 13.53 C 10.9 km/h
616 26-04-2019 15:00:00 13.525 C 8.98 g/m*3 13.53 C 9 km/h
617 26-04-2019 16:00:00 15.06667 C 9.1 g/m*3 15.07 C 8.74167 km/h
618 26-04-2019 17:00:00 15.74167 C 8.85 g/m*3 15.74 C 6.025 km/h
619 26-04-2019 18:00:00 16.925 C 8.93 g/m*3 16.93 C 3.60833 km/h
620 26-04-2019 19:00:00 15.84167 C 9.71 g/m*3 15.84 C 0 km/h
621 26-04-2019 20:00:00 12.575 C 8.92 g/m*3 12.58 C 7.89167 km/h
622 26-04-2019 21:00:00 10.89167 C 8.66 g/m*3 10.89 C 2.13333 km/h
623 26-04-2019 22:00:00 10.45833 C 8.59 g/m*3 10.46 C 0 km/h
624 26-04-2019 23:00:00 10.00833 C 8.49 g/m*3 10.01 C 0 km/h
625 27-04-2019 00:00:00 9.20833 C 8.21 g/m*3 9.21 C 0 km/h
Sensor: Nr:Datum:Temp:Abs-Feuchte:Windchill:Wind:
Aussen-T/F 626 27-04-2019 01:00:00 9.14167 C 8.27 g/m*3 9.14 C 0 km/h
627 27-04-2019 02:00:00 8.575 C 7.99 g/m*3 8.57 C 0.26667 km/h
628 27-04-2019 03:00:00 7.875 C 7.71 g/m*3 7.88 C 0 km/h
629 27-04-2019 04:00:00 7.18333 C 7.39 g/m*3 7.18 C 0 km/h
630 27-04-2019 05:00:00 6.64167 C 7.18 g/m*3 6.64 C 0 km/h
631 27-04-2019 06:00:00 6.425 C 7.12 g/m*3 6.43 C 0 km/h
632 27-04-2019 07:00:00 7.15 C 7.51 g/m*3 7.15 C 0 km/h
633 27-04-2019 08:00:00 8.66667 C 8.36 g/m*3 8.67 C 0 km/h
634 27-04-2019 09:00:00 10.16667 C 9.01 g/m*3 10.17 C 1.33333 km/h
635 27-04-2019 10:00:00 11.30833 C 8.95 g/m*3 11.31 C 3.075 km/h
636 27-04-2019 11:00:00 12.64167 C 8.49 g/m*3 12.64 C 11.14167 km/h
637 27-04-2019 12:00:00 12.69167 C 9.08 g/m*3 12.69 C 9.29167 km/h
638 27-04-2019 13:00:00 13.025 C 8.85 g/m*3 13.03 C 14.90833 km/h
639 27-04-2019 14:00:00 9.525 C 8.21 g/m*3 8.62 C 7.24167 km/h
640 27-04-2019 15:00:00 10.46667 C 8.71 g/m*3 10.47 C 3.475 km/h
641 27-04-2019 16:00:00 11.75 C 8.58 g/m*3 11.75 C 6.85 km/h
642 27-04-2019 17:00:00 12.35 C 8.56 g/m*3 12.35 C 6.84167 km/h
643 27-04-2019 18:00:00 11.34167 C 8.22 g/m*3 11.34 C 5.89167 km/h
644 27-04-2019 19:00:00 9.55833 C 8.23 g/m*3 8.92 C 6.16667 km/h
645 27-04-2019 20:00:00 7.725 C 7.49 g/m*3 7.73 C 3.33333 km/h
646 27-04-2019 21:00:00 7.3 C 7.41 g/m*3 7.3 C 0.8 km/h
647 27-04-2019 22:00:00 6.76667 C 7.22 g/m*3 6.77 C 1.33333 km/h
648 27-04-2019 23:00:00 6.84167 C 7.28 g/m*3 6.84 C 4.55833 km/h
649 28-04-2019 00:00:00 6.86667 C 7.2 g/m*3 6.87 C 4.15 km/h
650 28-04-2019 01:00:00 6.875 C 7.09 g/m*3 5.87 C 6.025 km/h
Sensor: Nr:Datum:Temp:Abs-Feuchte:Windchill:Wind:
Aussen-T/F 651 28-04-2019 02:00:00 6.43333 C 6.8 g/m*3 5.45 C 5.76667 km/h
652 28-04-2019 03:00:00 6.19167 C 6.63 g/m*3 5 C 6.30833 km/h
653 28-04-2019 04:00:00 6.41667 C 6.58 g/m*3 4.26 C 10.475 km/h
654 28-04-2019 05:00:00 6.26667 C 6.55 g/m*3 4.13 C 10.20833 km/h
655 28-04-2019 06:00:00 6.2 C 6.53 g/m*3 4.7 C 7.39167 km/h
656 28-04-2019 07:00:00 6.80833 C 6.75 g/m*3 5.45 C 7.25833 km/h
657 28-04-2019 08:00:00 7.575 C 6.92 g/m*3 6.24 C 7.65833 km/h
658 28-04-2019 09:00:00 7.93333 C 7.13 g/m*3 7.93 C 4.28333 km/h
659 28-04-2019 10:00:00 8.90833 C 7.27 g/m*3 8.18 C 6.15 km/h
660 28-04-2019 11:00:00 10 C 6.98 g/m*3 8.42 C 11.3 km/h
661 28-04-2019 12:00:00 10.325 C 6.77 g/m*3 9.12 C 9.39167 km/h
662 28-04-2019 13:00:00 11.3 C 6.83 g/m*3 11.3 C 8.61667 km/h
663 28-04-2019 14:00:00 12.35 C 7.24 g/m*3 12.35 C 7.125 km/h
664 28-04-2019 15:00:00 11.50833 C 7.58 g/m*3 11.51 C 6.56667 km/h
665 28-04-2019 16:00:00 10.375 C 8.07 g/m*3 10.11 C 5.23333 km/h
666 28-04-2019 17:00:00 11.44167 C 8.14 g/m*3 11.44 C 2.54167 km/h
667 28-04-2019 18:00:00 11.48333 C 7.7 g/m*3 11.48 C 6.73333 km/h
668 28-04-2019 19:00:00 10.86667 C 7.54 g/m*3 10.24 C 6.975 km/h
669 28-04-2019 20:00:00 9.65 C 7.37 g/m*3 9.65 C 1.475 km/h
670 28-04-2019 21:00:00 7.30833 C 6.87 g/m*3 7.31 C 0 km/h
671 28-04-2019 22:00:00 5.96667 C 6.55 g/m*3 5.97 C 0 km/h
672 28-04-2019 23:00:00 5 C 6.27 g/m*3 5 C 0 km/h
673 29-04-2019 00:00:00 4.41667 C 6.12 g/m*3 4.42 C 0 km/h
674 29-04-2019 01:00:00 4.03333 C 5.99 g/m*3 4.03 C 0 km/h
675 29-04-2019 02:00:00 3.425 C 5.8 g/m*3 3.43 C 0 km/h
Sensor: Nr:Datum:Temp:Abs-Feuchte:Windchill:Wind:
Aussen-T/F 676 29-04-2019 03:00:00 3.675 C 5.91 g/m*3 3.68 C 0 km/h
677 29-04-2019 04:00:00 3.54167 C 5.89 g/m*3 3.54 C 0 km/h
678 29-04-2019 05:00:00 3.35833 C 5.85 g/m*3 3.36 C 4.26667 km/h
679 29-04-2019 06:00:00 3.15 C 5.77 g/m*3 3.15 C 1.46667 km/h
680 29-04-2019 07:00:00 3.225 C 5.79 g/m*3 3.23 C 1.73333 km/h
681 29-04-2019 08:00:00 3.85833 C 6.07 g/m*3 3.86 C 4.26667 km/h
682 29-04-2019 09:00:00 4.99167 C 6.59 g/m*3 4.99 C 4.13333 km/h
683 29-04-2019 10:00:00 6.51667 C 7.15 g/m*3 6.52 C 2.4 km/h
684 29-04-2019 11:00:00 8.7 C 7.85 g/m*3 8.7 C 2.4 km/h
685 29-04-2019 12:00:00 11.925 C 8.18 g/m*3 11.93 C 5.48333 km/h
686 29-04-2019 13:00:00 13.975 C 7.63 g/m*3 13.98 C 9.025 km/h
687 29-04-2019 14:00:00 14.83333 C 7.25 g/m*3 14.83 C 9.69167 km/h
688 29-04-2019 15:00:00 15.29167 C 7.35 g/m*3 15.29 C 9.68333 km/h
689 29-04-2019 16:00:00 15.31667 C 7.23 g/m*3 15.32 C 11.43333 km/h
690 29-04-2019 17:00:00 15.31667 C 7.29 g/m*3 15.32 C 11.7 km/h
691 29-04-2019 18:00:00 13.69167 C 8.13 g/m*3 13.69 C 7.26667 km/h
692 29-04-2019 19:00:00 11.075 C 8.86 g/m*3 11.08 C 1.2 km/h
693 29-04-2019 20:00:00 10.25 C 8.74 g/m*3 10.25 C 0 km/h
694 29-04-2019 21:00:00 10.13333 C 8.75 g/m*3 10.13 C 0.4 km/h
695 29-04-2019 22:00:00 10.25833 C 8.76 g/m*3 10.26 C 2.675 km/h
696 29-04-2019 23:00:00 10.65833 C 8.78 g/m*3 10.66 C 1.73333 km/h
697 30-04-2019 00:00:00 10.98333 C 8.73 g/m*3 10.98 C 3.48333 km/h
698 30-04-2019 01:00:00 11.16667 C 8.72 g/m*3 11.17 C 5.09167 km/h
699 30-04-2019 02:00:00 10.85 C 8.73 g/m*3 10.85 C 4.01667 km/h
700 30-04-2019 03:00:00 10.59167 C 8.68 g/m*3 10.59 C 2.94167 km/h
Sensor: Nr:Datum:Temp:Abs-Feuchte:Windchill:Wind:
Aussen-T/F 701 30-04-2019 04:00:00 10.30833 C 8.52 g/m*3 10.31 C 2.275 km/h
702 30-04-2019 05:00:00 10.18333 C 8.37 g/m*3 9.9 C 5.225 km/h
703 30-04-2019 06:00:00 10.05833 C 8.38 g/m*3 10.06 C 3.89167 km/h
704 30-04-2019 07:00:00 10.075 C 8.38 g/m*3 9.62 C 5.775 km/h
705 30-04-2019 08:00:00 10.725 C 8.26 g/m*3 9.87 C 7.925 km/h
706 30-04-2019 09:00:00 11.51667 C 7.94 g/m*3 11.52 C 10.225 km/h
707 30-04-2019 10:00:00 12.61667 C 7.76 g/m*3 12.62 C 10.76667 km/h
708 30-04-2019 11:00:00 13.60833 C 7.39 g/m*3 13.61 C 10.34167 km/h
709 30-04-2019 12:00:00 14.5 C 7.26 g/m*3 14.5 C 12.225 km/h
710 30-04-2019 13:00:00 15.65833 C 7.11 g/m*3 15.66 C 11.29167 km/h
711 30-04-2019 14:00:00 16.86667 C 6.96 g/m*3 16.87 C 10.35 km/h
712 30-04-2019 15:00:00 18.59167 C 7.21 g/m*3 18.59 C 12.9 km/h
713 30-04-2019 16:00:00 20.025 C 7.07 g/m*3 20.02 C 12.23333 km/h
714 30-04-2019 17:00:00 20.46667 C 7.37 g/m*3 20.47 C 11.425 km/h
715 30-04-2019 18:00:00 20.24167 C 7.51 g/m*3 20.24 C 10.075 km/h
716 30-04-2019 19:00:00 18.90833 C 7.92 g/m*3 18.91 C 10.09167 km/h
717 30-04-2019 20:00:00 16.95833 C 8.22 g/m*3 16.96 C 6.96667 km/h
718 30-04-2019 21:00:00 15.48333 C 8.56 g/m*3 15.48 C 5.625 km/h
719 30-04-2019 22:00:00 14.225 C 8.66 g/m*3 14.23 C 7.925 km/h
720 30-04-2019 23:00:00 12.65833 C 8.65 g/m*3 12.66 C 2.81667 km/h
721 01-05-2019 00:00:00 11.25833 C 8.45 g/m*3 11.26 C 0.8 km/h
722 01-05-2019 01:00:00 10.36667 C 8.22 g/m*3 10.37 C 0.66667 km/h
723 01-05-2019 02:00:00 9.26667 C 7.91 g/m*3 9.27 C 0 km/h
724 01-05-2019 03:00:00 8.45833 C 7.73 g/m*3 8.46 C 0.13333 km/h
725 01-05-2019 04:00:00 8.075 C 7.62 g/m*3 8.07 C 0.4 km/h
Sensor: Nr:Datum:Temp:Abs-Feuchte:Windchill:Wind:
Aussen-T/F 726 01-05-2019 05:00:00 6.95833 C 7.13 g/m*3 6.96 C 0 km/h
727 01-05-2019 06:00:00 6.275 C 6.92 g/m*3 6.28 C 0.13333 km/h
728 01-05-2019 07:00:00 6.79167 C 7.26 g/m*3 6.79 C 0.53333 km/h
729 01-05-2019 08:00:00 7.9 C 7.79 g/m*3 7.9 C 0.8 km/h
730 01-05-2019 09:00:00 8.89167 C 8.14 g/m*3 8.89 C 1.46667 km/h
731 01-05-2019 10:00:00 10.11667 C 8.5 g/m*3 10.12 C 3.06667 km/h
732 01-05-2019 11:00:00 11.40833 C 8.86 g/m*3 11.41 C 3.06667 km/h
733 01-05-2019 12:00:00 13.80833 C 9.43 g/m*3 13.81 C 4.40833 km/h
734 01-05-2019 13:00:00 16.03333 C 9.07 g/m*3 16.03 C 7.54167 km/h
735 01-05-2019 14:00:00 17.69167 C 8.31 g/m*3 17.69 C 9.15833 km/h
736 01-05-2019 15:00:00 19.35 C 8.11 g/m*3 19.35 C 9.40833 km/h
737 01-05-2019 16:00:00 21.31667 C 8.18 g/m*3 21.32 C 7.40833 km/h
738 01-05-2019 17:00:00 21.48333 C 8.34 g/m*3 21.48 C 8.05833 km/h
739 01-05-2019 18:00:00 20.325 C 9.25 g/m*3 20.33 C 10.225 km/h
740 01-05-2019 19:00:00 18.21667 C 9.06 g/m*3 18.22 C 7.65833 km/h
741 01-05-2019 20:00:00 15.65833 C 8.45 g/m*3 15.66 C 3.475 km/h
742 01-05-2019 21:00:00 13.53333 C 8.59 g/m*3 13.53 C 5.90833 km/h
743 01-05-2019 22:00:00 12.76667 C 8.71 g/m*3 12.77 C 2.81667 km/h
744 01-05-2019 23:00:00 10.80833 C 8.45 g/m*3 10.81 C 0 km/h
745 02-05-2019 00:00:00 9.98333 C 8.29 g/m*3 9.98 C 0 km/h
746 02-05-2019 01:00:00 8.96667 C 7.95 g/m*3 8.97 C 0 km/h
747 02-05-2019 02:00:00 8.23333 C 7.78 g/m*3 8.23 C 0 km/h
748 02-05-2019 03:00:00 7.73333 C 7.6 g/m*3 7.73 C 0 km/h
749 02-05-2019 04:00:00 7.025 C 7.3 g/m*3 7.03 C 0 km/h
750 02-05-2019 05:00:00 6.325 C 6.99 g/m*3 6.33 C 0 km/h
Sensor: Nr:Datum:Temp:Abs-Feuchte:Windchill:Wind:
Aussen-T/F 751 02-05-2019 06:00:00 5.89167 C 6.85 g/m*3 5.89 C 0 km/h
752 02-05-2019 07:00:00 6.84167 C 7.36 g/m*3 6.84 C 0.8 km/h
753 02-05-2019 08:00:00 8.325 C 8.08 g/m*3 8.32 C 2.13333 km/h
754 02-05-2019 09:00:00 9.075 C 8.18 g/m*3 9.07 C 1.73333 km/h
755 02-05-2019 10:00:00 10.725 C 8.12 g/m*3 10.73 C 3.2 km/h
756 02-05-2019 11:00:00 12.15833 C 8.24 g/m*3 12.16 C 5.21667 km/h
757 02-05-2019 12:00:00 12.925 C 8.35 g/m*3 12.93 C 6.98333 km/h
758 02-05-2019 13:00:00 14.15 C 8.46 g/m*3 14.15 C 7.25833 km/h
759 02-05-2019 14:00:00 15.85 C 8.81 g/m*3 15.85 C 6.96667 km/h
760 02-05-2019 15:00:00 16.58333 C 8.62 g/m*3 16.58 C 9.69167 km/h
761 02-05-2019 16:00:00 17.225 C 8.51 g/m*3 17.23 C 8.86667 km/h
762 02-05-2019 17:00:00 17.75 C 7.79 g/m*3 17.75 C 9.28333 km/h
763 02-05-2019 18:00:00 17.96667 C 7.18 g/m*3 17.97 C 9.425 km/h
764 02-05-2019 19:00:00 15.54167 C 7.98 g/m*3 15.54 C 12.9 km/h
765 02-05-2019 20:00:00 12.78333 C 8.61 g/m*3 12.78 C 8.175 km/h
766 02-05-2019 21:00:00 11.44167 C 9.11 g/m*3 11.44 C 0.4 km/h
767 02-05-2019 22:00:00 10.75833 C 8.96 g/m*3 10.76 C 2.93333 km/h
768 02-05-2019 23:00:00 10.7 C 9.01 g/m*3 10.7 C 0.53333 km/h
769 03-05-2019 00:00:00 10.6 C 9.01 g/m*3 10.6 C 2.93333 km/h
770 03-05-2019 01:00:00 10.51667 C 8.41 g/m*3 9.44 C 8.88333 km/h
771 03-05-2019 02:00:00 9.85 C 7.83 g/m*3 9.32 C 5.91667 km/h
772 03-05-2019 03:00:00 9.375 C 7.74 g/m*3 9.38 C 2.675 km/h
773 03-05-2019 04:00:00 9.16667 C 7.81 g/m*3 9.17 C 0.53333 km/h
774 03-05-2019 05:00:00 9.28333 C 7.9 g/m*3 9.28 C 3.46667 km/h
775 03-05-2019 06:00:00 9.25 C 7.86 g/m*3 9.25 C 3.475 km/h
Sensor: Nr:Datum:Temp:Abs-Feuchte:Windchill:Wind:
Aussen-T/F 776 03-05-2019 07:00:00 9.25 C 7.67 g/m*3 8.71 C 5.63333 km/h
777 03-05-2019 08:00:00 9.65833 C 7.68 g/m*3 9.14 C 5.76667 km/h
778 03-05-2019 09:00:00 10.10833 C 7.52 g/m*3 8.86 C 9.425 km/h
779 03-05-2019 10:00:00 10.78333 C 7.28 g/m*3 9.39 C 11.15833 km/h
780 03-05-2019 11:00:00 11.16667 C 6.99 g/m*3 11.17 C 10.625 km/h
781 03-05-2019 12:00:00 11.34167 C 7.05 g/m*3 11.34 C 8.61667 km/h
782 03-05-2019 13:00:00 12.075 C 7.02 g/m*3 12.08 C 9.95 km/h
783 03-05-2019 14:00:00 12.98333 C 6.74 g/m*3 12.98 C 14.9 km/h
784 03-05-2019 15:00:00 14.38333 C 6.53 g/m*3 14.38 C 15.03333 km/h
785 03-05-2019 16:00:00 15 C 6.54 g/m*3 15 C 13.16667 km/h
786 03-05-2019 17:00:00 14.125 C 6.55 g/m*3 14.13 C 13.56667 km/h
787 03-05-2019 18:00:00 13.64167 C 6.65 g/m*3 13.64 C 10.225 km/h
788 03-05-2019 19:00:00 12.4 C 6.56 g/m*3 12.4 C 8.06667 km/h
789 03-05-2019 20:00:00 11.18333 C 6.51 g/m*3 11.18 C 7.25 km/h
790 03-05-2019 21:00:00 9.875 C 6.54 g/m*3 9.88 C 4.81667 km/h
791 03-05-2019 22:00:00 9.375 C 6.71 g/m*3 9.38 C 3.075 km/h
792 03-05-2019 23:00:00 8.65833 C 6.78 g/m*3 8.66 C 0.8 km/h
793 04-05-2019 00:00:00 8.05833 C 6.78 g/m*3 8.06 C 0 km/h
794 04-05-2019 01:00:00 7.625 C 6.71 g/m*3 7.63 C 0 km/h
795 04-05-2019 02:00:00 7.575 C 6.82 g/m*3 7.58 C 0 km/h
796 04-05-2019 03:00:00 7.43333 C 6.91 g/m*3 7.43 C 0 km/h
797 04-05-2019 04:00:00 7.4 C 7.16 g/m*3 6.28 C 6.7 km/h
798 04-05-2019 05:00:00 5.025 C 6.22 g/m*3 2.08 C 13.16667 km/h
799 04-05-2019 06:00:00 3.74167 C 5.77 g/m*3 1.07 C 10.36667 km/h
800 04-05-2019 07:00:00 3.23333 C 5.62 g/m*3 1.54 C 6.425 km/h
Sensor: Nr:Datum:Temp:Abs-Feuchte:Windchill:Wind:
Aussen-T/F 801 04-05-2019 08:00:00 3.26667 C 5.68 g/m*3 2.08 C 5.08333 km/h
802 04-05-2019 09:00:00 3.99167 C 5.97 g/m*3 3.99 C 3.74167 km/h
803 04-05-2019 10:00:00 4.64167 C 6.04 g/m*3 2.92 C 7.25 km/h
804 04-05-2019 11:00:00 5.00833 C 6.06 g/m*3 3.16 C 7.93333 km/h
805 04-05-2019 12:00:00 5.93333 C 6.19 g/m*3 4.05 C 8.75 km/h
806 04-05-2019 13:00:00 7.25833 C 6.17 g/m*3 5.59 C 8.88333 km/h
807 04-05-2019 14:00:00 7.44167 C 6.19 g/m*3 4.75 C 15.04167 km/h
808 04-05-2019 15:00:00 4.74167 C 5.96 g/m*3 3.2 C 6.70833 km/h
809 04-05-2019 16:00:00 7.80833 C 6.95 g/m*3 6.87 C 6.3 km/h
810 04-05-2019 17:00:00 10.13333 C 7.32 g/m*3 9.42 C 6.85 km/h
811 04-05-2019 18:00:00 10.36667 C 5.83 g/m*3 8.33 C 15.3 km/h
812 04-05-2019 19:00:00 9.3 C 6.04 g/m*3 7.26 C 13.43333 km/h
813 04-05-2019 20:00:00 7.475 C 5.99 g/m*3 6.81 C 5.23333 km/h
814 04-05-2019 21:00:00 6.49167 C 5.93 g/m*3 5.52 C 5.75833 km/h
815 04-05-2019 22:00:00 5.00833 C 5.78 g/m*3 5.01 C 3.48333 km/h
816 04-05-2019 23:00:00 3.8 C 5.63 g/m*3 3.8 C 2.94167 km/h
817 05-05-2019 00:00:00 3.71667 C 5.72 g/m*3 3.72 C 2.14167 km/h
818 05-05-2019 01:00:00 3.80833 C 5.82 g/m*3 3.81 C 0.53333 km/h
819 05-05-2019 02:00:00 3.45833 C 5.68 g/m*3 3.46 C 0.8 km/h
820 05-05-2019 03:00:00 3.68333 C 5.84 g/m*3 3.68 C 1.06667 km/h
821 05-05-2019 04:00:00 3.69167 C 5.78 g/m*3 3.69 C 2.8 km/h
822 05-05-2019 05:00:00 3.33333 C 5.59 g/m*3 3.33 C 3.625 km/h
823 05-05-2019 06:00:00 2.73333 C 5.38 g/m*3 2.73 C 0.4 km/h
824 05-05-2019 07:00:00 2.46667 C 5.35 g/m*3 2.47 C 0.26667 km/h
825 05-05-2019 08:00:00 3.35833 C 5.73 g/m*3 2.03 C 5.475 km/h
Sensor: Nr:Datum:Temp:Abs-Feuchte:Windchill:Wind:
Aussen-T/F 826 05-05-2019 09:00:00 4.73333 C 6.07 g/m*3 4.73 C 4.28333 km/h
827 05-05-2019 10:00:00 5.84167 C 6.21 g/m*3 4.64 C 6.175 km/h
828 05-05-2019 11:00:00 6.98333 C 6.46 g/m*3 5.66 C 7.23333 km/h
829 05-05-2019 12:00:00 7.63333 C 6.51 g/m*3 6.25 C 7.90833 km/h
830 05-05-2019 13:00:00 8.91667 C 6.42 g/m*3 7.45 C 9.4 km/h
831 05-05-2019 14:00:00 9.29167 C 6.35 g/m*3 7.42 C 12.23333 km/h
832 05-05-2019 15:00:00 9.86667 C 6.42 g/m*3 9.2 C 6.44167 km/h
833 05-05-2019 16:00:00 12.39167 C 6.29 g/m*3 12.39 C 12.5 km/h
834 05-05-2019 17:00:00 12.55833 C 6.48 g/m*3 12.56 C 11.83333 km/h
835 05-05-2019 18:00:00 11.3 C 6.59 g/m*3 11.3 C 10.75 km/h
836 05-05-2019 19:00:00 9.66667 C 6.45 g/m*3 8.75 C 7.39167 km/h
837 05-05-2019 20:00:00 9.19167 C 6.42 g/m*3 8.08 C 7.90833 km/h
838 05-05-2019 21:00:00 8.26667 C 6.4 g/m*3 7.76 C 5.075 km/h
839 05-05-2019 22:00:00 7.15 C 6.27 g/m*3 7.15 C 2.54167 km/h
840 05-05-2019 23:00:00 6.25 C 6.3 g/m*3 6.25 C 0.4 km/h
841 06-05-2019 00:00:00 6.11667 C 6.33 g/m*3 6.12 C 0.26667 km/h
842 06-05-2019 01:00:00 5.90833 C 6.32 g/m*3 5.91 C 2 km/h
843 06-05-2019 02:00:00 5.1 C 6.01 g/m*3 5.1 C 1.6 km/h
844 06-05-2019 03:00:00 4.25833 C 5.85 g/m*3 4.26 C 0.26667 km/h
845 06-05-2019 04:00:00 3.59167 C 5.65 g/m*3 3.59 C 0 km/h
846 06-05-2019 05:00:00 3.01667 C 5.5 g/m*3 3.02 C 0.4 km/h
847 06-05-2019 06:00:00 3.14167 C 5.63 g/m*3 3.14 C 2 km/h
848 06-05-2019 07:00:00 3.70833 C 5.86 g/m*3 3.71 C 4.81667 km/h
849 06-05-2019 08:00:00 4.56667 C 6.1 g/m*3 4.57 C 4 km/h
850 06-05-2019 09:00:00 6.31667 C 6.24 g/m*3 6.32 C 4.275 km/h
Sensor: Nr:Datum:Temp:Abs-Feuchte:Windchill:Wind:
Aussen-T/F 851 06-05-2019 10:00:00 8.01667 C 6.11 g/m*3 7.18 C 6.04167 km/h
852 06-05-2019 11:00:00 9.33333 C 6.01 g/m*3 9.33 C 4.275 km/h
853 06-05-2019 12:00:00 10.05 C 5.61 g/m*3 9.29 C 6.975 km/h
854 06-05-2019 13:00:00 10.95 C 5.6 g/m*3 9.96 C 8.86667 km/h
855 06-05-2019 14:00:00 11.24167 C 5.59 g/m*3 11.24 C 9.26667 km/h
856 06-05-2019 15:00:00 11.29167 C 5.83 g/m*3 11.29 C 9.15833 km/h
857 06-05-2019 16:00:00 11.01667 C 6.05 g/m*3 11.02 C 9.14167 km/h
858 06-05-2019 17:00:00 10.675 C 6 g/m*3 10.35 C 5.61667 km/h
859 06-05-2019 18:00:00 11.425 C 6.3 g/m*3 11.43 C 4.275 km/h
860 06-05-2019 19:00:00 10.75833 C 6.73 g/m*3 10.76 C 1.60833 km/h
861 06-05-2019 20:00:00 9.18333 C 6.73 g/m*3 9.18 C 3.48333 km/h
862 06-05-2019 21:00:00 8.26667 C 6.9 g/m*3 8.27 C 0.13333 km/h
863 06-05-2019 22:00:00 7.75 C 6.96 g/m*3 7.75 C 0.26667 km/h
864 06-05-2019 23:00:00 7.30833 C 6.86 g/m*3 7.31 C 0 km/h
865 07-05-2019 00:00:00 7.29167 C 6.99 g/m*3 7.29 C 0.26667 km/h
866 07-05-2019 01:00:00 7.04167 C 6.93 g/m*3 7.04 C 0 km/h
867 07-05-2019 02:00:00 6.7 C 6.84 g/m*3 6.7 C 0 km/h
868 07-05-2019 03:00:00 6.64167 C 6.81 g/m*3 6.64 C 0 km/h
869 07-05-2019 04:00:00 6.35 C 6.7 g/m*3 6.35 C 0 km/h
870 07-05-2019 05:00:00 6.16667 C 6.68 g/m*3 6.17 C 0 km/h
871 07-05-2019 06:00:00 5.85833 C 6.57 g/m*3 5.86 C 0 km/h
872 07-05-2019 07:00:00 6.38333 C 6.85 g/m*3 6.38 C 0 km/h
873 07-05-2019 08:00:00 7.30833 C 7.06 g/m*3 7.31 C 0.26667 km/h
874 07-05-2019 09:00:00 8.475 C 7.31 g/m*3 8.48 C 1.6 km/h
875 07-05-2019 10:00:00 9.60833 C 7.32 g/m*3 9.13 C 5.6 km/h
Sensor: Nr:Datum:Temp:Abs-Feuchte:Windchill:Wind:
Aussen-T/F 876 07-05-2019 11:00:00 10.575 C 6.99 g/m*3 10.58 C 4.53333 km/h
877 07-05-2019 12:00:00 11.88333 C 6.4 g/m*3 11.88 C 7.11667 km/h
878 07-05-2019 13:00:00 11.86667 C 6.2 g/m*3 11.87 C 6.14167 km/h
879 07-05-2019 14:00:00 12.76667 C 6.17 g/m*3 12.77 C 6.83333 km/h
880 07-05-2019 15:00:00 13.05833 C 5.99 g/m*3 13.06 C 9.81667 km/h
881 07-05-2019 16:00:00 14.13333 C 6.16 g/m*3 14.13 C 6.71667 km/h
882 07-05-2019 17:00:00 14.9 C 6.04 g/m*3 14.9 C 5.49167 km/h
883 07-05-2019 18:00:00 14.94167 C 5.88 g/m*3 14.94 C 5.75 km/h
884 07-05-2019 19:00:00 13.4 C 7.19 g/m*3 13.4 C 0.13333 km/h
885 07-05-2019 20:00:00 11.275 C 6.41 g/m*3 11.28 C 0.8 km/h
886 07-05-2019 21:00:00 9.01667 C 6.03 g/m*3 9.02 C 0 km/h
887 07-05-2019 22:00:00 7.98333 C 6.27 g/m*3 7.98 C 0 km/h
888 07-05-2019 23:00:00 6.93333 C 6.23 g/m*3 6.93 C 0 km/h
889 08-05-2019 00:00:00 6.325 C 6.15 g/m*3 6.33 C 0 km/h
890 08-05-2019 01:00:00 5.75 C 6.03 g/m*3 5.75 C 0 km/h
891 08-05-2019 02:00:00 5.15 C 5.97 g/m*3 5.15 C 0 km/h
892 08-05-2019 03:00:00 4.7 C 5.96 g/m*3 4.7 C 0 km/h
893 08-05-2019 04:00:00 4.95 C 6.16 g/m*3 4.95 C 0 km/h
894 08-05-2019 05:00:00 5.25 C 6.29 g/m*3 5.25 C 0 km/h
895 08-05-2019 06:00:00 5.49167 C 6.41 g/m*3 5.49 C 0 km/h
896 08-05-2019 07:00:00 6.21667 C 6.66 g/m*3 6.22 C 0.53333 km/h
897 08-05-2019 08:00:00 7.49167 C 7.03 g/m*3 7.49 C 2 km/h
898 08-05-2019 09:00:00 8.85 C 7.21 g/m*3 8.85 C 3.48333 km/h
899 08-05-2019 10:00:00 9.025 C 7.7 g/m*3 9.03 C 1.46667 km/h
900 08-05-2019 11:00:00 9.69167 C 8.24 g/m*3 9.69 C 0.8 km/h
Sensor: Nr:Datum:Temp:Abs-Feuchte:Windchill:Wind:
Aussen-T/F 901 08-05-2019 12:00:00 11.325 C 9.05 g/m*3 11.33 C 4.41667 km/h
902 08-05-2019 13:00:00 13.61667 C 9.77 g/m*3 13.62 C 5.89167 km/h
903 08-05-2019 14:00:00 14.7 C 9.91 g/m*3 14.7 C 5.875 km/h
904 08-05-2019 15:00:00 14.56667 C 9.86 g/m*3 14.57 C 5.35 km/h
905 08-05-2019 16:00:00 13.39167 C 10.08 g/m*3 13.39 C 5.35 km/h
906 08-05-2019 17:00:00 12.51667 C 10.05 g/m*3 12.52 C 3.06667 km/h
907 08-05-2019 18:00:00 12.5 C 10.22 g/m*3 12.5 C 2 km/h
908 08-05-2019 19:00:00 12.25833 C 10.13 g/m*3 12.26 C 0.13333 km/h
909 08-05-2019 20:00:00 11.71667 C 9.84 g/m*3 11.72 C 0.4 km/h
910 08-05-2019 21:00:00 10.95833 C 9.43 g/m*3 10.96 C 0.13333 km/h
911 08-05-2019 22:00:00 10.14167 C 9 g/m*3 10.14 C 1.6 km/h
912 08-05-2019 23:00:00 9.41667 C 8.56 g/m*3 9.42 C 2.53333 km/h
913 09-05-2019 00:00:00 8.78333 C 8.22 g/m*3 8.78 C 3.48333 km/h
914 09-05-2019 01:00:00 8.31667 C 7.99 g/m*3 8.32 C 1.6 km/h
915 09-05-2019 02:00:00 7.425 C 7.55 g/m*3 7.43 C 0.13333 km/h
916 09-05-2019 03:00:00 7.31667 C 7.57 g/m*3 7.32 C 0.26667 km/h
917 09-05-2019 04:00:00 7.75833 C 7.81 g/m*3 7.76 C 1.475 km/h
918 09-05-2019 05:00:00 7.80833 C 7.84 g/m*3 7.81 C 0 km/h
919 09-05-2019 06:00:00 7.46667 C 7.63 g/m*3 7.47 C 0 km/h
920 09-05-2019 07:00:00 8.7 C 8.33 g/m*3 8.7 C 0.13333 km/h
921 09-05-2019 08:00:00 9.9 C 8.72 g/m*3 9.9 C 2.4 km/h
922 09-05-2019 09:00:00 11.4 C 8.97 g/m*3 11.4 C 2.8 km/h
923 09-05-2019 10:00:00 11.6 C 9.17 g/m*3 11.6 C 5.475 km/h
924 09-05-2019 11:00:00 12.78333 C 9.4 g/m*3 12.78 C 6.56667 km/h
925 09-05-2019 12:00:00 13.21667 C 9.7 g/m*3 13.22 C 6.43333 km/h
Sensor: Nr:Datum:Temp:Abs-Feuchte:Windchill:Wind:
Aussen-T/F 926 09-05-2019 13:00:00 13.26667 C 9.67 g/m*3 13.27 C 8.60833 km/h
927 09-05-2019 14:00:00 13.60833 C 9.43 g/m*3 13.61 C 5.35 km/h
928 09-05-2019 15:00:00 13.43333 C 9.64 g/m*3 13.43 C 4.80833 km/h
929 09-05-2019 16:00:00 13.80833 C 9.68 g/m*3 13.81 C 4.4 km/h
930 09-05-2019 17:00:00 14.375 C 10.05 g/m*3 14.38 C 2.66667 km/h
931 09-05-2019 18:00:00 15.625 C 10.57 g/m*3 15.63 C 5.76667 km/h
932 09-05-2019 19:00:00 15.4 C 10.41 g/m*3 15.4 C 3.89167 km/h
933 09-05-2019 20:00:00 13.70833 C 10.14 g/m*3 13.71 C 0.93333 km/h
934 09-05-2019 21:00:00 11.66667 C 9.47 g/m*3 11.67 C 7.09167 km/h
935 09-05-2019 22:00:00 10.89167 C 9.36 g/m*3 10.89 C 1.86667 km/h
936 09-05-2019 23:00:00 10.76667 C 9.37 g/m*3 10.77 C 3.88333 km/h
937 10-05-2019 00:00:00 10.525 C 9.23 g/m*3 10.53 C 1.2 km/h
938 10-05-2019 01:00:00 9.51667 C 8.66 g/m*3 9.52 C 0.26667 km/h
939 10-05-2019 02:00:00 8.85833 C 8.34 g/m*3 8.86 C 0.13333 km/h
940 10-05-2019 03:00:00 8.16667 C 7.97 g/m*3 8.17 C 0 km/h
941 10-05-2019 04:00:00 8.56667 C 8.25 g/m*3 8.57 C 0 km/h
942 10-05-2019 05:00:00 8.28333 C 8.08 g/m*3 7.49 C 6.03333 km/h
943 10-05-2019 06:00:00 8.40833 C 8.15 g/m*3 7.63 C 6.03333 km/h
944 10-05-2019 07:00:00 8.75 C 8.29 g/m*3 8.75 C 2.675 km/h
945 10-05-2019 08:00:00 9.175 C 8.39 g/m*3 8.71 C 5.36667 km/h
946 10-05-2019 09:00:00 10.7 C 8.59 g/m*3 9.13 C 12.225 km/h
947 10-05-2019 10:00:00 12.1 C 8.73 g/m*3 12.1 C 11.03333 km/h
948 10-05-2019 11:00:00 13.23333 C 8.72 g/m*3 13.23 C 11.025 km/h
949 10-05-2019 12:00:00 14.35 C 8.31 g/m*3 14.35 C 12.9 km/h
950 10-05-2019 13:00:00 15.44167 C 7.9 g/m*3 15.44 C 12.23333 km/h
Sensor: Nr:Datum:Temp:Abs-Feuchte:Windchill:Wind:
Aussen-T/F 951 10-05-2019 14:00:00 16.75 C 7.76 g/m*3 16.75 C 13.83333 km/h
952 10-05-2019 15:00:00 17.21667 C 7.7 g/m*3 17.22 C 10.9 km/h
953 10-05-2019 16:00:00 17.93333 C 7.55 g/m*3 17.93 C 8.05 km/h
954 10-05-2019 17:00:00 17.6 C 7.32 g/m*3 17.6 C 9.80833 km/h
955 10-05-2019 18:00:00 17.25 C 7.43 g/m*3 17.25 C 5.36667 km/h
956 10-05-2019 19:00:00 17.18333 C 9.07 g/m*3 17.18 C 0.66667 km/h
957 10-05-2019 20:00:00 14.175 C 8.72 g/m*3 14.18 C 0 km/h
958 10-05-2019 21:00:00 12.35 C 8.43 g/m*3 12.35 C 0 km/h
959 10-05-2019 22:00:00 11.76667 C 8.54 g/m*3 11.77 C 0 km/h
960 10-05-2019 23:00:00 11.53333 C 8.62 g/m*3 11.53 C 0 km/h
961 11-05-2019 00:00:00 11.04167 C 8.69 g/m*3 11.04 C 0.4 km/h
962 11-05-2019 01:00:00 10.36667 C 8.77 g/m*3 10.37 C 0.13333 km/h
963 11-05-2019 02:00:00 10.1 C 8.83 g/m*3 10.1 C 0 km/h
964 11-05-2019 03:00:00 9.925 C 8.81 g/m*3 9.93 C 0.13333 km/h
965 11-05-2019 04:00:00 9.7 C 8.76 g/m*3 9.7 C 0 km/h
966 11-05-2019 05:00:00 9.775 C 8.87 g/m*3 9.78 C 0.26667 km/h
967 11-05-2019 06:00:00 9.7 C 8.85 g/m*3 9.7 C 0.26667 km/h
968 11-05-2019 07:00:00 9.7 C 8.85 g/m*3 9.7 C 0.4 km/h
969 11-05-2019 08:00:00 9.65833 C 8.83 g/m*3 9.66 C 2.80833 km/h
970 11-05-2019 09:00:00 9.70833 C 8.85 g/m*3 9.71 C 4.95 km/h
971 11-05-2019 10:00:00 9.85833 C 8.94 g/m*3 9.49 C 5.35 km/h
972 11-05-2019 11:00:00 10.13333 C 9.1 g/m*3 10.13 C 4.95 km/h
973 11-05-2019 12:00:00 10.36667 C 9.1 g/m*3 9.27 C 8.875 km/h
974 11-05-2019 13:00:00 9.79167 C 8.72 g/m*3 8.61 C 8.73333 km/h
975 11-05-2019 14:00:00 9.76667 C 8.79 g/m*3 9.77 C 1.86667 km/h
Sensor: Nr:Datum:Temp:Abs-Feuchte:Windchill:Wind:
Aussen-T/F 976 11-05-2019 15:00:00 9.91667 C 8.88 g/m*3 9.92 C 3.475 km/h
977 11-05-2019 16:00:00 10.31667 C 9.2 g/m*3 10.32 C 1.6 km/h
978 11-05-2019 17:00:00 10.95833 C 9.53 g/m*3 10.96 C 2.94167 km/h
979 11-05-2019 18:00:00 11.79167 C 9.33 g/m*3 11.79 C 11.96667 km/h
980 11-05-2019 19:00:00 12.1 C 8.75 g/m*3 12.1 C 14.36667 km/h
981 11-05-2019 20:00:00 11.3 C 8.59 g/m*3 11.3 C 3.89167 km/h
982 11-05-2019 21:00:00 9.44167 C 8.27 g/m*3 9.44 C 0 km/h
983 11-05-2019 22:00:00 8.33333 C 7.84 g/m*3 8.33 C 0 km/h
984 11-05-2019 23:00:00 7.65 C 7.62 g/m*3 7.65 C 0 km/h
985 12-05-2019 00:00:00 7.41667 C 7.56 g/m*3 7.42 C 0.4 km/h
986 12-05-2019 01:00:00 6.75 C 7.24 g/m*3 6.75 C 1.46667 km/h
987 12-05-2019 02:00:00 6.43333 C 7 g/m*3 6.43 C 3.86667 km/h
988 12-05-2019 03:00:00 5.66667 C 6.6 g/m*3 5.67 C 1.46667 km/h
989 12-05-2019 04:00:00 4.70833 C 6.25 g/m*3 4.71 C 0.13333 km/h
990 12-05-2019 05:00:00 4.225 C 6.11 g/m*3 4.22 C 0 km/h
991 12-05-2019 06:00:00 4.45833 C 6.23 g/m*3 4.46 C 0.93333 km/h
992 12-05-2019 07:00:00 5.68333 C 6.53 g/m*3 4.77 C 5.225 km/h
993 12-05-2019 08:00:00 6.98333 C 6.62 g/m*3 5.69 C 7.1 km/h
994 12-05-2019 09:00:00 8.125 C 6.56 g/m*3 6.03 C 12.09167 km/h
995 12-05-2019 10:00:00 8.83333 C 6.48 g/m*3 6.89 C 12.1 km/h
996 12-05-2019 11:00:00 9.58333 C 6.35 g/m*3 7.68 C 12.89167 km/h
997 12-05-2019 12:00:00 10.54167 C 6.3 g/m*3 9.07 C 11.3 km/h
998 12-05-2019 13:00:00 11.66667 C 6.28 g/m*3 11.67 C 12.76667 km/h
999 12-05-2019 14:00:00 12.83333 C 6.15 g/m*3 12.83 C 12.1 km/h
1000 12-05-2019 15:00:00 14.13333 C 6.19 g/m*3 14.13 C 12.76667 km/h
Sensor: Nr:Datum:Temp:Abs-Feuchte:Windchill:Wind:
Aussen-T/F 1001 12-05-2019 16:00:00 15.25833 C 5.99 g/m*3 15.26 C 12.23333 km/h
1002 12-05-2019 17:00:00 14.83333 C 5.78 g/m*3 14.83 C 11.43333 km/h
1003 12-05-2019 18:00:00 15.19167 C 5.65 g/m*3 15.19 C 14.1 km/h
1004 12-05-2019 19:00:00 13.96667 C 5.43 g/m*3 13.97 C 12.35833 km/h
1005 12-05-2019 20:00:00 13.09167 C 5.62 g/m*3 13.09 C 5.775 km/h
1006 12-05-2019 21:00:00 9.68333 C 6.57 g/m*3 9.68 C 0.66667 km/h
1007 12-05-2019 22:00:00 8.375 C 6.5 g/m*3 8.38 C 0.26667 km/h
1008 12-05-2019 23:00:00 7.30833 C 6.21 g/m*3 7.31 C 0.53333 km/h
1009 13-05-2019 00:00:00 6.45 C 6.14 g/m*3 6.45 C 0 km/h
1010 13-05-2019 01:00:00 5.11667 C 6 g/m*3 5.12 C 0 km/h
1011 13-05-2019 02:00:00 4.15 C 5.82 g/m*3 4.15 C 0 km/h
1012 13-05-2019 03:00:00 3.60833 C 5.71 g/m*3 3.61 C 0 km/h
1013 13-05-2019 04:00:00 3.075 C 5.57 g/m*3 3.08 C 0.13333 km/h
1014 13-05-2019 05:00:00 2.64167 C 5.46 g/m*3 2.64 C 0.13333 km/h
1015 13-05-2019 06:00:00 2.30833 C 5.36 g/m*3 2.31 C 0 km/h
1016 13-05-2019 07:00:00 2.63333 C 5.52 g/m*3 2.63 C 0 km/h
1017 13-05-2019 08:00:00 4.26667 C 6.21 g/m*3 4.27 C 0 km/h
1018 13-05-2019 09:00:00 6.13333 C 6.62 g/m*3 6.13 C 0.53333 km/h
1019 13-05-2019 10:00:00 9.69167 C 5.33 g/m*3 9.11 C 6.04167 km/h
1020 13-05-2019 11:00:00 11.4 C 5 g/m*3 11.4 C 4.54167 km/h
1021 13-05-2019 12:00:00 13.43333 C 3.8 g/m*3 13.43 C 15.7 km/h
1022 13-05-2019 13:00:00 14.6 C 3.74 g/m*3 14.6 C 12.36667 km/h
1023 13-05-2019 14:00:00 15.575 C 4.12 g/m*3 15.58 C 11.025 km/h
1024 13-05-2019 15:00:00 17.19167 C 4.33 g/m*3 17.19 C 11.025 km/h
1025 13-05-2019 16:00:00 18.43333 C 4.56 g/m*3 18.43 C 15.56667 km/h
Sensor: Nr:Datum:Temp:Abs-Feuchte:Windchill:Wind:
Aussen-T/F 1026 13-05-2019 17:00:00 18.6 C 4.52 g/m*3 18.6 C 16.1 km/h
1027 13-05-2019 18:00:00 18.08333 C 4.45 g/m*3 18.08 C 16.36667 km/h
1028 13-05-2019 19:00:00 16.95833 C 4.74 g/m*3 16.96 C 17.03333 km/h
1029 13-05-2019 20:00:00 15.41667 C 4.57 g/m*3 15.42 C 12.76667 km/h
1030 13-05-2019 21:00:00 12.25 C 5.46 g/m*3 12.25 C 1.74167 km/h
1031 13-05-2019 22:00:00 9.325 C 5.48 g/m*3 9.32 C 0.13333 km/h
1032 13-05-2019 23:00:00 7.875 C 5.69 g/m*3 7.88 C 0 km/h
1033 14-05-2019 00:00:00 6.7 C 5.69 g/m*3 6.7 C 0 km/h
1034 14-05-2019 01:00:00 5.76667 C 5.54 g/m*3 5.77 C 0 km/h
1035 14-05-2019 02:00:00 4.74167 C 5.43 g/m*3 4.74 C 0 km/h
1036 14-05-2019 03:00:00 3.83333 C 5.32 g/m*3 3.83 C 0 km/h
1037 14-05-2019 04:00:00 3.18333 C 5.24 g/m*3 3.18 C 0 km/h
1038 14-05-2019 05:00:00 2.66667 C 5.17 g/m*3 2.67 C 0 km/h
1039 14-05-2019 06:00:00 2.41667 C 5.19 g/m*3 2.42 C 0 km/h
1040 14-05-2019 07:00:00 2.825 C 5.44 g/m*3 2.83 C 0 km/h
1041 14-05-2019 08:00:00 4.2 C 5.97 g/m*3 4.2 C 0 km/h
1042 14-05-2019 09:00:00 6.50833 C 6.44 g/m*3 6.51 C 1.46667 km/h
1043 14-05-2019 10:00:00 9.575 C 6.34 g/m*3 8.9 C 6.30833 km/h
1044 14-05-2019 11:00:00 12.65 C 5.64 g/m*3 12.65 C 15.7 km/h
1045 14-05-2019 12:00:00 13.45833 C 5.35 g/m*3 13.46 C 13.83333 km/h
1046 14-05-2019 13:00:00 14.21667 C 5.35 g/m*3 14.22 C 15.7 km/h
1047 14-05-2019 14:00:00 14.79167 C 5.44 g/m*3 14.79 C 15.83333 km/h
1048 14-05-2019 15:00:00 16.00833 C 5.43 g/m*3 16.01 C 13.96667 km/h
1049 14-05-2019 16:00:00 16.59167 C 5.24 g/m*3 16.59 C 15.69167 km/h
1050 14-05-2019 17:00:00 16.8 C 5.21 g/m*3 16.8 C 14.75833 km/h
Sensor: Nr:Datum:Temp:Abs-Feuchte:Windchill:Wind:
Aussen-T/F 1051 14-05-2019 18:00:00 16.475 C 5.22 g/m*3 16.48 C 9.53333 km/h
1052 14-05-2019 19:00:00 16.075 C 5.22 g/m*3 16.08 C 7.50833 km/h
1053 14-05-2019 20:00:00 13.73333 C 5.8 g/m*3 13.73 C 4.15833 km/h
1054 14-05-2019 21:00:00 10.35 C 5.82 g/m*3 10.35 C 0.53333 km/h
1055 14-05-2019 22:00:00 8.73333 C 5.89 g/m*3 8.73 C 0 km/h
1056 14-05-2019 23:00:00 7.69167 C 5.83 g/m*3 7.69 C 0 km/h
1057 15-05-2019 00:00:00 6.88333 C 5.65 g/m*3 6.88 C 0 km/h
1058 15-05-2019 01:00:00 5.89167 C 5.57 g/m*3 5.89 C 0 km/h
1059 15-05-2019 02:00:00 4.74167 C 5.44 g/m*3 4.74 C 0 km/h
1060 15-05-2019 03:00:00 3.98333 C 5.37 g/m*3 3.98 C 0 km/h
1061 15-05-2019 04:00:00 3.15 C 5.25 g/m*3 3.15 C 0 km/h
1062 15-05-2019 05:00:00 2.60833 C 5.15 g/m*3 2.61 C 0 km/h
1063 15-05-2019 06:00:00 2.325 C 5.17 g/m*3 2.33 C 0 km/h
1064 15-05-2019 07:00:00 2.75833 C 5.41 g/m*3 2.76 C 0 km/h
1065 15-05-2019 08:00:00 3.775 C 5.81 g/m*3 3.78 C 0 km/h
1066 15-05-2019 09:00:00 5.99167 C 6.19 g/m*3 5.99 C 2.81667 km/h
1067 15-05-2019 10:00:00 10.15833 C 5.19 g/m*3 9.15 C 8.19167 km/h
1068 15-05-2019 11:00:00 12.05 C 4.88 g/m*3 12.05 C 10.225 km/h
1069 15-05-2019 12:00:00 12.95 C 4.63 g/m*3 12.95 C 8.85833 km/h
1070 15-05-2019 13:00:00 14.08333 C 4.35 g/m*3 14.08 C 13.56667 km/h
1071 15-05-2019 14:00:00 14.95 C 4.75 g/m*3 14.95 C 15.96667 km/h
1072 15-05-2019 15:00:00 15.975 C 4.64 g/m*3 15.98 C 17.83333 km/h
1073 15-05-2019 16:00:00 17.19167 C 5.03 g/m*3 17.19 C 12.1 km/h
1074 15-05-2019 17:00:00 17.58333 C 4.96 g/m*3 17.58 C 14.1 km/h
1075 15-05-2019 18:00:00 17.38333 C 5.02 g/m*3 17.38 C 13.55833 km/h
Sensor: Nr:Datum:Temp:Abs-Feuchte:Windchill:Wind:
Aussen-T/F 1076 15-05-2019 19:00:00 16.55833 C 4.97 g/m*3 16.56 C 11.55 km/h
1077 15-05-2019 20:00:00 15.10833 C 5.45 g/m*3 15.11 C 4.69167 km/h
1078 15-05-2019 21:00:00 11.45833 C 5.85 g/m*3 11.46 C 1.74167 km/h
1079 15-05-2019 22:00:00 9.525 C 5.5 g/m*3 9.53 C 0.53333 km/h
1080 15-05-2019 23:00:00 8.09167 C 5.32 g/m*3 8.09 C 0.93333 km/h
1081 16-05-2019 00:00:00 7.39167 C 5.29 g/m*3 7.39 C 1.6 km/h
1082 16-05-2019 01:00:00 6.64167 C 5.56 g/m*3 6.64 C 0 km/h
1083 16-05-2019 02:00:00 5.725 C 5.61 g/m*3 5.73 C 0 km/h
1084 16-05-2019 03:00:00 5.58333 C 5.8 g/m*3 5.58 C 0 km/h
1085 16-05-2019 04:00:00 5.71667 C 5.95 g/m*3 5.72 C 0 km/h
1086 16-05-2019 05:00:00 5.83333 C 6.04 g/m*3 5.83 C 0 km/h
1087 16-05-2019 06:00:00 5.95 C 6.18 g/m*3 5.95 C 0.13333 km/h
1088 16-05-2019 07:00:00 6.64167 C 6.45 g/m*3 6.64 C 0 km/h
1089 16-05-2019 08:00:00 7.98333 C 6.84 g/m*3 7.98 C 0.13333 km/h
1090 16-05-2019 09:00:00 9.95 C 6.81 g/m*3 9.95 C 4.15 km/h
1091 16-05-2019 10:00:00 11.65833 C 6.56 g/m*3 11.66 C 8.45833 km/h
1092 16-05-2019 11:00:00 12.20833 C 6.32 g/m*3 12.21 C 8.33333 km/h
1093 16-05-2019 12:00:00 13.13333 C 6.73 g/m*3 13.13 C 8.875 km/h
1094 16-05-2019 13:00:00 14.68333 C 7.13 g/m*3 14.68 C 10.76667 km/h
1095 16-05-2019 14:00:00 15.4 C 7.34 g/m*3 15.4 C 10.48333 km/h
1096 16-05-2019 15:00:00 17.38333 C 7.71 g/m*3 17.38 C 10.08333 km/h
1097 16-05-2019 16:00:00 18.23333 C 7.73 g/m*3 18.23 C 8.45 km/h
1098 16-05-2019 17:00:00 16.90833 C 7.77 g/m*3 16.91 C 9.69167 km/h
1099 16-05-2019 18:00:00 15.44167 C 8.11 g/m*3 15.44 C 11.95 km/h
1100 16-05-2019 19:00:00 14.075 C 8.25 g/m*3 14.08 C 4.41667 km/h
Sensor: Nr:Datum:Temp:Abs-Feuchte:Windchill:Wind:
Aussen-T/F 1101 16-05-2019 20:00:00 12.56667 C 8.08 g/m*3 12.57 C 6.70833 km/h
1102 16-05-2019 21:00:00 11.175 C 7.69 g/m*3 11.18 C 8.21667 km/h
1103 16-05-2019 22:00:00 10.23333 C 7.8 g/m*3 10.23 C 4.29167 km/h
1104 16-05-2019 23:00:00 9.60833 C 7.91 g/m*3 9.61 C 0.66667 km/h
1105 17-05-2019 00:00:00 9.08333 C 8.06 g/m*3 9.08 C 0 km/h
1106 17-05-2019 01:00:00 8.79167 C 8.05 g/m*3 8.79 C 0 km/h
1107 17-05-2019 02:00:00 8.7 C 8.1 g/m*3 8.7 C 0 km/h
1108 17-05-2019 03:00:00 8.63333 C 8.11 g/m*3 8.63 C 0.53333 km/h
1109 17-05-2019 04:00:00 8.475 C 8.09 g/m*3 8.48 C 0.13333 km/h
1110 17-05-2019 05:00:00 8.36667 C 8.04 g/m*3 8.37 C 0 km/h
1111 17-05-2019 06:00:00 8.45 C 8.13 g/m*3 8.45 C 0 km/h
1112 17-05-2019 07:00:00 8.71667 C 8.31 g/m*3 8.72 C 0.4 km/h
1113 17-05-2019 08:00:00 8.96667 C 8.45 g/m*3 8.97 C 1.73333 km/h
1114 17-05-2019 09:00:00 9.29167 C 8.62 g/m*3 9.29 C 1.86667 km/h
1115 17-05-2019 10:00:00 9.625 C 8.81 g/m*3 9.63 C 4.825 km/h
1116 17-05-2019 11:00:00 10.2 C 9.05 g/m*3 10.2 C 3.86667 km/h
1117 17-05-2019 12:00:00 11.175 C 9.49 g/m*3 11.18 C 6.425 km/h
1118 17-05-2019 13:00:00 12.825 C 10 g/m*3 12.83 C 8.625 km/h
1119 17-05-2019 14:00:00 14.44167 C 10.43 g/m*3 14.44 C 6.58333 km/h
1120 17-05-2019 15:00:00 15.54167 C 10.58 g/m*3 15.54 C 7.26667 km/h
1121 17-05-2019 16:00:00 16.35 C 10.47 g/m*3 16.35 C 7.65833 km/h
1122 17-05-2019 17:00:00 17.35 C 10.47 g/m*3 17.35 C 6.70833 km/h
1123 17-05-2019 18:00:00 16.8 C 11.2 g/m*3 16.8 C 2 km/h
1124 17-05-2019 19:00:00 16.625 C 11.34 g/m*3 16.63 C 0.26667 km/h
1125 17-05-2019 20:00:00 13.975 C 10.28 g/m*3 13.98 C 0.26667 km/h
Sensor: Nr:Datum:Temp:Abs-Feuchte:Windchill:Wind:
Aussen-T/F 1126 17-05-2019 21:00:00 12.00833 C 9.56 g/m*3 12.01 C 0.26667 km/h
1127 17-05-2019 22:00:00 11.96667 C 9.78 g/m*3 11.97 C 0 km/h
1128 17-05-2019 23:00:00 12.05833 C 9.99 g/m*3 12.06 C 0.4 km/h
1129 18-05-2019 00:00:00 11.6 C 9.77 g/m*3 11.6 C 0 km/h
1130 18-05-2019 01:00:00 10.44167 C 9.12 g/m*3 10.44 C 0.4 km/h
1131 18-05-2019 02:00:00 10.58333 C 9.34 g/m*3 10.58 C 0 km/h
1132 18-05-2019 03:00:00 10.43333 C 9.26 g/m*3 10.43 C 0 km/h
1133 18-05-2019 04:00:00 9.925 C 8.98 g/m*3 9.93 C 0 km/h
1134 18-05-2019 05:00:00 9.31667 C 8.64 g/m*3 9.32 C 0 km/h
1135 18-05-2019 06:00:00 9.35833 C 8.7 g/m*3 9.36 C 0 km/h
1136 18-05-2019 07:00:00 10.23333 C 9.25 g/m*3 10.23 C 0.13333 km/h
1137 18-05-2019 08:00:00 11.2 C 9.82 g/m*3 11.2 C 1.6 km/h
1138 18-05-2019 09:00:00 12.275 C 10.26 g/m*3 12.28 C 0.66667 km/h
1139 18-05-2019 10:00:00 14.16667 C 11.13 g/m*3 14.17 C 1.2 km/h
1140 18-05-2019 11:00:00 16.9 C 11.11 g/m*3 16.9 C 4.675 km/h
1141 18-05-2019 12:00:00 18.14167 C 11.07 g/m*3 18.14 C 3.86667 km/h
1142 18-05-2019 13:00:00 19.01667 C 11.27 g/m*3 19.02 C 4.15833 km/h
1143 18-05-2019 14:00:00 20.34167 C 11.02 g/m*3 20.34 C 5.50833 km/h
1144 18-05-2019 15:00:00 21.05833 C 10.74 g/m*3 21.06 C 6.30833 km/h
1145 18-05-2019 16:00:00 22.41667 C 11.99 g/m*3 22.42 C 8.05833 km/h
1146 18-05-2019 17:00:00 21.04167 C 12.96 g/m*3 21.04 C 0.26667 km/h
1147 18-05-2019 18:00:00 18.54167 C 12.15 g/m*3 18.54 C 2 km/h
1148 18-05-2019 19:00:00 15.85 C 11.74 g/m*3 15.85 C 1.33333 km/h
1149 18-05-2019 20:00:00 14.79167 C 11.45 g/m*3 14.79 C 0 km/h
1150 18-05-2019 21:00:00 13.71667 C 10.91 g/m*3 13.72 C 0.26667 km/h
Sensor: Nr:Datum:Temp:Abs-Feuchte:Windchill:Wind:
Aussen-T/F 1151 18-05-2019 22:00:00 12.75 C 10.42 g/m*3 12.75 C 0.26667 km/h
1152 18-05-2019 23:00:00 12.53333 C 10.43 g/m*3 12.53 C 0.66667 km/h
1153 19-05-2019 00:00:00 12.79167 C 10.64 g/m*3 12.79 C 0 km/h
1154 19-05-2019 01:00:00 12.73333 C 10.6 g/m*3 12.73 C 0.4 km/h
1155 19-05-2019 02:00:00 12.26667 C 10.29 g/m*3 12.27 C 0 km/h
1156 19-05-2019 03:00:00 11.71667 C 10 g/m*3 11.72 C 0 km/h
1157 19-05-2019 04:00:00 11.625 C 9.99 g/m*3 11.63 C 0 km/h
1158 19-05-2019 05:00:00 11.38333 C 9.84 g/m*3 11.38 C 0 km/h
1159 19-05-2019 06:00:00 11.475 C 9.99 g/m*3 11.48 C 0.13333 km/h
1160 19-05-2019 07:00:00 12.13333 C 10.42 g/m*3 12.13 C 0.93333 km/h
1161 19-05-2019 08:00:00 12.825 C 10.88 g/m*3 12.83 C 2 km/h
1162 19-05-2019 09:00:00 13.73333 C 11.5 g/m*3 13.73 C 2.66667 km/h
1163 19-05-2019 10:00:00 15.11667 C 12.25 g/m*3 15.12 C 0.66667 km/h
1164 19-05-2019 11:00:00 16.26667 C 12.5 g/m*3 16.27 C 2.66667 km/h
1165 19-05-2019 12:00:00 17.99167 C 12.93 g/m*3 17.99 C 7.525 km/h
1166 19-05-2019 13:00:00 18.78333 C 12.47 g/m*3 18.78 C 8.88333 km/h
1167 19-05-2019 14:00:00 20.225 C 11.78 g/m*3 20.23 C 8.89167 km/h
1168 19-05-2019 15:00:00 22.54167 C 12.28 g/m*3 22.54 C 9.55833 km/h
1169 19-05-2019 16:00:00 23.4 C 12.28 g/m*3 23.4 C 11.69167 km/h
1170 19-05-2019 17:00:00 19.25833 C 10.48 g/m*3 19.26 C 9.525 km/h
1171 19-05-2019 18:00:00 19.96667 C 11.24 g/m*3 19.97 C 7.39167 km/h
1172 19-05-2019 19:00:00 20.475 C 11.22 g/m*3 20.48 C 3.73333 km/h
1173 19-05-2019 20:00:00 18.96667 C 11.15 g/m*3 18.97 C 0.4 km/h
1174 19-05-2019 21:00:00 15.7 C 10.82 g/m*3 15.7 C 0.13333 km/h
1175 19-05-2019 22:00:00 14.53333 C 10.74 g/m*3 14.53 C 1.06667 km/h
Sensor: Nr:Datum:Temp:Abs-Feuchte:Windchill:Wind:
Aussen-T/F 1176 19-05-2019 23:00:00 14.65833 C 10.64 g/m*3 14.66 C 2.40833 km/h
1177 20-05-2019 00:00:00 14.48333 C 10.64 g/m*3 14.48 C 4.14167 km/h
1178 20-05-2019 01:00:00 13.40833 C 10.39 g/m*3 13.41 C 1.06667 km/h
1179 20-05-2019 02:00:00 12.46667 C 10.05 g/m*3 12.47 C 0.66667 km/h
1180 20-05-2019 03:00:00 12.23333 C 10.07 g/m*3 12.23 C 1.33333 km/h
1181 20-05-2019 04:00:00 12.7 C 10.46 g/m*3 12.7 C 2.4 km/h
1182 20-05-2019 05:00:00 13.13333 C 10.63 g/m*3 13.13 C 3.73333 km/h
1183 20-05-2019 06:00:00 13.15 C 10.53 g/m*3 13.15 C 7.25 km/h
1184 20-05-2019 07:00:00 13.16667 C 10.54 g/m*3 13.17 C 1.33333 km/h
1185 20-05-2019 08:00:00 13.475 C 10.72 g/m*3 13.48 C 0.53333 km/h
1186 20-05-2019 09:00:00 13.95 C 10.81 g/m*3 13.95 C 4.55833 km/h
1187 20-05-2019 10:00:00 14.25833 C 10.92 g/m*3 14.26 C 5.775 km/h
1188 20-05-2019 11:00:00 14.125 C 11.17 g/m*3 14.13 C 3.61667 km/h
1189 20-05-2019 12:00:00 14.08333 C 11.16 g/m*3 14.08 C 7.93333 km/h
1190 20-05-2019 13:00:00 13.85833 C 11 g/m*3 13.86 C 9.125 km/h
1191 20-05-2019 14:00:00 14.29167 C 11.23 g/m*3 14.29 C 9.01667 km/h
1192 20-05-2019 15:00:00 14.6 C 11.17 g/m*3 14.6 C 7.1 km/h
1193 20-05-2019 16:00:00 14.84167 C 11.14 g/m*3 14.84 C 9.55 km/h
1194 20-05-2019 17:00:00 14.93333 C 11.11 g/m*3 14.93 C 8.08333 km/h
1195 20-05-2019 18:00:00 14.86667 C 10.95 g/m*3 14.87 C 11.95833 km/h
1196 20-05-2019 19:00:00 14.65 C 10.88 g/m*3 14.65 C 7.125 km/h
1197 20-05-2019 20:00:00 14.5 C 10.85 g/m*3 14.5 C 9.15833 km/h
1198 20-05-2019 21:00:00 14.19167 C 10.74 g/m*3 14.19 C 9.81667 km/h
1199 20-05-2019 22:00:00 14.1 C 10.68 g/m*3 14.1 C 7.93333 km/h
1200 20-05-2019 23:00:00 14.21667 C 10.58 g/m*3 14.22 C 6.575 km/h
Sensor: Nr:Datum:Temp:Abs-Feuchte:Windchill:Wind:
Aussen-T/F 1201 21-05-2019 00:00:00 14.23333 C 10.6 g/m*3 14.23 C 9.54167 km/h
1202 21-05-2019 01:00:00 13.8 C 10.66 g/m*3 13.8 C 9.55 km/h
1203 21-05-2019 02:00:00 13.56667 C 10.65 g/m*3 13.57 C 9.14167 km/h
1204 21-05-2019 03:00:00 13.275 C 10.55 g/m*3 13.28 C 7.51667 km/h
1205 21-05-2019 04:00:00 13.11667 C 10.39 g/m*3 13.12 C 7.65 km/h
1206 21-05-2019 05:00:00 12.71667 C 10.21 g/m*3 12.72 C 10.09167 km/h
1207 21-05-2019 06:00:00 12.21667 C 10.13 g/m*3 12.22 C 9.675 km/h
1208 21-05-2019 07:00:00 12.23333 C 10.16 g/m*3 12.23 C 9.25833 km/h
1209 21-05-2019 08:00:00 12.3 C 10.16 g/m*3 12.3 C 11.15833 km/h
1210 21-05-2019 09:00:00 12.3 C 10.16 g/m*3 12.3 C 12.9 km/h
1211 21-05-2019 10:00:00 12.23333 C 10.13 g/m*3 12.23 C 11.83333 km/h
1212 21-05-2019 11:00:00 12.15 C 10.01 g/m*3 12.15 C 15.44167 km/h
1213 21-05-2019 12:00:00 12.11667 C 10.07 g/m*3 12.12 C 11.025 km/h
1214 21-05-2019 13:00:00 12.225 C 10.16 g/m*3 12.23 C 5.75833 km/h
1215 21-05-2019 14:00:00 12.15 C 10.08 g/m*3 12.15 C 6.44167 km/h
1216 21-05-2019 15:00:00 12.15833 C 10.02 g/m*3 12.16 C 9.00833 km/h
1217 21-05-2019 16:00:00 12.09167 C 10.07 g/m*3 12.09 C 9.4 km/h
1218 21-05-2019 17:00:00 12.18333 C 10.14 g/m*3 12.18 C 7.51667 km/h
1219 21-05-2019 18:00:00 12.275 C 10.2 g/m*3 12.28 C 7.125 km/h
1220 21-05-2019 19:00:00 12.375 C 10.22 g/m*3 12.38 C 6.98333 km/h
1221 21-05-2019 20:00:00 12.21667 C 10.24 g/m*3 12.22 C 3.88333 km/h
1222 21-05-2019 21:00:00 12.1 C 10.19 g/m*3 12.1 C 3.46667 km/h
1223 21-05-2019 22:00:00 12.04167 C 10.19 g/m*3 12.04 C 3.875 km/h
1224 21-05-2019 23:00:00 11.85833 C 10.14 g/m*3 11.86 C 0 km/h
1225 22-05-2019 00:00:00 11.8 C 10.1 g/m*3 11.8 C 0 km/h
Sensor: Nr:Datum:Temp:Abs-Feuchte:Windchill:Wind:
Aussen-T/F 1226 22-05-2019 01:00:00 11.75 C 10.07 g/m*3 11.75 C 1.33333 km/h
1227 22-05-2019 02:00:00 11.56667 C 9.96 g/m*3 11.57 C 4.54167 km/h
1228 22-05-2019 03:00:00 11.575 C 9.96 g/m*3 11.58 C 2.66667 km/h
1229 22-05-2019 04:00:00 11.44167 C 9.8 g/m*3 11.44 C 6.43333 km/h
1230 22-05-2019 05:00:00 11.33333 C 9.71 g/m*3 11.33 C 6.025 km/h
1231 22-05-2019 06:00:00 11.05 C 9.44 g/m*3 11.05 C 8.60833 km/h
1232 22-05-2019 07:00:00 10.66667 C 9.15 g/m*3 9.44 C 9.94167 km/h
1233 22-05-2019 08:00:00 10.33333 C 8.82 g/m*3 9.44 C 7.79167 km/h
1234 22-05-2019 09:00:00 10.475 C 8.45 g/m*3 9.52 C 8.2 km/h
1235 22-05-2019 10:00:00 10.88333 C 8.29 g/m*3 9.98 C 8.33333 km/h
1236 22-05-2019 11:00:00 11.51667 C 8.51 g/m*3 11.52 C 8.88333 km/h
1237 22-05-2019 12:00:00 12.85 C 8.61 g/m*3 12.85 C 9.825 km/h
1238 22-05-2019 13:00:00 13.65833 C 8.69 g/m*3 13.66 C 8.2 km/h
1239 22-05-2019 14:00:00 15.01667 C 8.94 g/m*3 15.02 C 9.41667 km/h
1240 22-05-2019 15:00:00 17.08333 C 9.27 g/m*3 17.08 C 9.01667 km/h
1241 22-05-2019 16:00:00 18.625 C 9.4 g/m*3 18.63 C 6.7 km/h
1242 22-05-2019 17:00:00 18.24167 C 9.15 g/m*3 18.24 C 6.3 km/h
1243 22-05-2019 18:00:00 19.46667 C 9.06 g/m*3 19.47 C 7.10833 km/h
1244 22-05-2019 19:00:00 19.025 C 9.15 g/m*3 19.02 C 3.625 km/h
1245 22-05-2019 20:00:00 17.24167 C 10.41 g/m*3 17.24 C 0 km/h
1246 22-05-2019 21:00:00 13.73333 C 9.09 g/m*3 13.73 C 0 km/h
1247 22-05-2019 22:00:00 11.64167 C 8.92 g/m*3 11.64 C 0 km/h
1248 22-05-2019 23:00:00 10.33333 C 8.61 g/m*3 10.33 C 0 km/h
1249 23-05-2019 00:00:00 9.5 C 8.34 g/m*3 9.5 C 0 km/h
1250 23-05-2019 01:00:00 8.975 C 8.18 g/m*3 8.98 C 0 km/h
Sensor: Nr:Datum:Temp:Abs-Feuchte:Windchill:Wind:
Aussen-T/F 1251 23-05-2019 02:00:00 8.54167 C 8.02 g/m*3 8.54 C 0 km/h
1252 23-05-2019 03:00:00 8.35833 C 8.02 g/m*3 8.36 C 0 km/h
1253 23-05-2019 04:00:00 7.93333 C 7.82 g/m*3 7.93 C 0 km/h
1254 23-05-2019 05:00:00 7.71667 C 7.73 g/m*3 7.72 C 0.26667 km/h
1255 23-05-2019 06:00:00 7.9 C 7.89 g/m*3 7.9 C 0.26667 km/h
1256 23-05-2019 07:00:00 8.675 C 8.29 g/m*3 8.68 C 0.93333 km/h
1257 23-05-2019 08:00:00 9.59167 C 8.77 g/m*3 9.59 C 0.26667 km/h
1258 23-05-2019 09:00:00 11.05833 C 9.44 g/m*3 11.06 C 0 km/h
1259 23-05-2019 10:00:00 13.75 C 10.38 g/m*3 13.75 C 1.74167 km/h
1260 23-05-2019 11:00:00 17.49167 C 9.82 g/m*3 17.49 C 6.85 km/h
1261 23-05-2019 12:00:00 18.84167 C 9.34 g/m*3 18.84 C 6.95833 km/h
1262 23-05-2019 13:00:00 19.83333 C 9.66 g/m*3 19.83 C 5.35833 km/h
1263 23-05-2019 14:00:00 21.25833 C 9.08 g/m*3 21.26 C 7.79167 km/h
1264 23-05-2019 15:00:00 22.38333 C 9.14 g/m*3 22.38 C 4.55 km/h
1265 23-05-2019 16:00:00 24.39167 C 8.73 g/m*3 24.39 C 7.25833 km/h
1266 23-05-2019 17:00:00 24.78333 C 8.55 g/m*3 24.78 C 8.74167 km/h
1267 23-05-2019 18:00:00 24.96667 C 8.62 g/m*3 24.97 C 5.34167 km/h
1268 23-05-2019 19:00:00 22.80833 C 10.71 g/m*3 22.81 C 2.00833 km/h
1269 23-05-2019 20:00:00 19.33333 C 10.77 g/m*3 19.33 C 0 km/h
1270 23-05-2019 21:00:00 16.40833 C 10.35 g/m*3 16.41 C 0 km/h
1271 23-05-2019 22:00:00 14.68333 C 10.31 g/m*3 14.68 C 0 km/h
1272 23-05-2019 23:00:00 13.66667 C 9.9 g/m*3 13.67 C 0 km/h
1273 24-05-2019 00:00:00 12.84167 C 9.7 g/m*3 12.84 C 0.93333 km/h
1274 24-05-2019 01:00:00 12.36667 C 9.55 g/m*3 12.37 C 0 km/h
1275 24-05-2019 02:00:00 11.83333 C 9.41 g/m*3 11.83 C 0 km/h
Sensor: Nr:Datum:Temp:Abs-Feuchte:Windchill:Wind:
Aussen-T/F 1276 24-05-2019 03:00:00 11.40833 C 9.35 g/m*3 11.41 C 0 km/h
1277 24-05-2019 04:00:00 11.25 C 9.35 g/m*3 11.25 C 0 km/h
1278 24-05-2019 05:00:00 11.16667 C 9.31 g/m*3 11.17 C 0.13333 km/h
1279 24-05-2019 06:00:00 11 C 9.3 g/m*3 11 C 0 km/h
1280 24-05-2019 07:00:00 11.71667 C 9.71 g/m*3 11.72 C 0.53333 km/h
1281 24-05-2019 08:00:00 13.29167 C 10.19 g/m*3 13.29 C 0.53333 km/h
1282 24-05-2019 09:00:00 15.28333 C 10.47 g/m*3 15.28 C 1.2 km/h
1283 24-05-2019 10:00:00 16.80833 C 10.92 g/m*3 16.81 C 0.93333 km/h
1284 24-05-2019 11:00:00 18.925 C 11.06 g/m*3 18.93 C 3.2 km/h
1285 24-05-2019 12:00:00 20.75833 C 10.36 g/m*3 20.76 C 5.49167 km/h
1286 24-05-2019 13:00:00 22.09167 C 9.14 g/m*3 22.09 C 6.3 km/h
1287 24-05-2019 14:00:00 22.98333 C 8.88 g/m*3 22.98 C 7.125 km/h
1288 24-05-2019 15:00:00 23.45 C 8.54 g/m*3 23.45 C 8.86667 km/h
1289 24-05-2019 16:00:00 23.88333 C 8.79 g/m*3 23.88 C 5.34167 km/h
1290 24-05-2019 17:00:00 24.26667 C 9.37 g/m*3 24.27 C 4.40833 km/h
1291 24-05-2019 18:00:00 24.40833 C 9.15 g/m*3 24.41 C 6.025 km/h
1292 24-05-2019 19:00:00 21.04167 C 10.38 g/m*3 21.04 C 5.91667 km/h
1293 24-05-2019 20:00:00 19.475 C 10.35 g/m*3 19.48 C 2.68333 km/h
1294 24-05-2019 21:00:00 16.96667 C 10.33 g/m*3 16.97 C 0 km/h
1295 24-05-2019 22:00:00 15.14167 C 10.29 g/m*3 15.14 C 0 km/h
1296 24-05-2019 23:00:00 14.06667 C 10.17 g/m*3 14.07 C 0.53333 km/h
1297 25-05-2019 00:00:00 14.75833 C 9.94 g/m*3 14.76 C 1.6 km/h
1298 25-05-2019 01:00:00 13.875 C 9.31 g/m*3 13.88 C 0 km/h
1299 25-05-2019 02:00:00 13.125 C 8.69 g/m*3 13.13 C 0.53333 km/h
1300 25-05-2019 03:00:00 12.16667 C 8.19 g/m*3 12.17 C 0.13333 km/h
Sensor: Nr:Datum:Temp:Abs-Feuchte:Windchill:Wind:
Aussen-T/F 1301 25-05-2019 04:00:00 10.84167 C 7.48 g/m*3 10.84 C 0 km/h
1302 25-05-2019 05:00:00 10.2 C 7.35 g/m*3 10.2 C 0 km/h
1303 25-05-2019 06:00:00 9.525 C 7.62 g/m*3 9.53 C 0.13333 km/h
1304 25-05-2019 07:00:00 10.675 C 7.88 g/m*3 10.68 C 2.54167 km/h
1305 25-05-2019 08:00:00 13.04167 C 8.21 g/m*3 13.04 C 9.15833 km/h
1306 25-05-2019 09:00:00 14.025 C 8.66 g/m*3 14.03 C 5.88333 km/h
1307 25-05-2019 10:00:00 15.3 C 8.91 g/m*3 15.3 C 4.68333 km/h
1308 25-05-2019 11:00:00 16.25 C 8.78 g/m*3 16.25 C 6.96667 km/h
1309 25-05-2019 12:00:00 16.95833 C 9.3 g/m*3 16.96 C 9.68333 km/h
1310 25-05-2019 13:00:00 18.45 C 9.49 g/m*3 18.45 C 9.675 km/h
1311 25-05-2019 14:00:00 19.35833 C 9.17 g/m*3 19.36 C 11.425 km/h
1312 25-05-2019 15:00:00 21.01667 C 9.31 g/m*3 21.02 C 12.76667 km/h
1313 25-05-2019 16:00:00 22.06667 C 9.09 g/m*3 22.07 C 13.16667 km/h
1314 25-05-2019 17:00:00 21.73333 C 8.79 g/m*3 21.73 C 12.76667 km/h
1315 25-05-2019 18:00:00 19.95 C 8.44 g/m*3 19.95 C 7.91667 km/h
1316 25-05-2019 19:00:00 18.875 C 8.83 g/m*3 18.88 C 6.15833 km/h
1317 25-05-2019 20:00:00 17.98333 C 9.85 g/m*3 17.98 C 1.74167 km/h
1318 25-05-2019 21:00:00 16.03333 C 9.75 g/m*3 16.03 C 0.8 km/h
1319 25-05-2019 22:00:00 14.81667 C 9.54 g/m*3 14.82 C 0 km/h
1320 25-05-2019 23:00:00 13.38333 C 9.26 g/m*3 13.38 C 0.13333 km/h
1321 26-05-2019 00:00:00 11.85 C 8.97 g/m*3 11.85 C 0 km/h
1322 26-05-2019 01:00:00 10.775 C 8.77 g/m*3 10.78 C 0.4 km/h
1323 26-05-2019 02:00:00 10.13333 C 8.62 g/m*3 10.13 C 0.4 km/h
1324 26-05-2019 03:00:00 9.44167 C 8.37 g/m*3 9.44 C 0.13333 km/h
1325 26-05-2019 04:00:00 8.95 C 8.19 g/m*3 8.95 C 1.60833 km/h
Sensor: Nr:Datum:Temp:Abs-Feuchte:Windchill:Wind:
Aussen-T/F 1326 26-05-2019 05:00:00 8.825 C 8.23 g/m*3 8.82 C 0.4 km/h
1327 26-05-2019 06:00:00 9.36667 C 8.53 g/m*3 9.37 C 2.00833 km/h
1328 26-05-2019 07:00:00 9.9 C 8.75 g/m*3 9.9 C 4.425 km/h
1329 26-05-2019 08:00:00 11.21667 C 9.45 g/m*3 11.22 C 1.6 km/h
1330 26-05-2019 09:00:00 14.3 C 10.38 g/m*3 14.3 C 8.46667 km/h
1331 26-05-2019 10:00:00 16.83333 C 10.43 g/m*3 16.83 C 7.93333 km/h
1332 26-05-2019 11:00:00 18.16667 C 9.86 g/m*3 18.17 C 9.95 km/h
1333 26-05-2019 12:00:00 18.99167 C 9.91 g/m*3 18.99 C 11.43333 km/h
1334 26-05-2019 13:00:00 20.275 C 10.33 g/m*3 20.27 C 12.35833 km/h
1335 26-05-2019 14:00:00 21.68333 C 10.07 g/m*3 21.68 C 12.76667 km/h
1336 26-05-2019 15:00:00 23.43333 C 10.34 g/m*3 23.43 C 11.56667 km/h
1337 26-05-2019 16:00:00 23.725 C 10.39 g/m*3 23.73 C 11.83333 km/h
1338 26-05-2019 17:00:00 21.91667 C 10.77 g/m*3 21.92 C 9.56667 km/h
1339 26-05-2019 18:00:00 21.45833 C 10.97 g/m*3 21.46 C 6.85 km/h
1340 26-05-2019 19:00:00 19.93333 C 11.28 g/m*3 19.93 C 1.6 km/h
1341 26-05-2019 20:00:00 18.36667 C 11.34 g/m*3 18.37 C 0.13333 km/h
1342 26-05-2019 21:00:00 17.93333 C 10.82 g/m*3 17.93 C 4.55 km/h
1343 26-05-2019 22:00:00 17.68333 C 10.86 g/m*3 17.68 C 1.46667 km/h
1344 26-05-2019 23:00:00 16.925 C 10.84 g/m*3 16.93 C 1.2 km/h
1345 27-05-2019 00:00:00 16.29167 C 10.87 g/m*3 16.29 C 1.2 km/h
1346 27-05-2019 01:00:00 15.75 C 10.85 g/m*3 15.75 C 0.13333 km/h
1347 27-05-2019 02:00:00 14.7 C 10.48 g/m*3 14.7 C 1.475 km/h
1348 27-05-2019 03:00:00 14.1 C 10.25 g/m*3 14.1 C 0.26667 km/h
1349 27-05-2019 04:00:00 13.85 C 10.44 g/m*3 13.85 C 1.86667 km/h
1350 27-05-2019 05:00:00 14.19167 C 10.98 g/m*3 14.19 C 2.00833 km/h
Sensor: Nr:Datum:Temp:Abs-Feuchte:Windchill:Wind:
Aussen-T/F 1351 27-05-2019 06:00:00 13.94167 C 11.16 g/m*3 13.94 C 2.95 km/h
1352 27-05-2019 07:00:00 14.20833 C 11.48 g/m*3 14.21 C 2.66667 km/h
1353 27-05-2019 08:00:00 14.94167 C 11.91 g/m*3 14.94 C 4.00833 km/h
1354 27-05-2019 09:00:00 15.61667 C 12.34 g/m*3 15.62 C 1.875 km/h
1355 27-05-2019 10:00:00 15.925 C 12.4 g/m*3 15.93 C 4.95 km/h
1356 27-05-2019 11:00:00 15.25 C 11.92 g/m*3 15.25 C 4.7 km/h
1357 27-05-2019 12:00:00 15.00833 C 11.95 g/m*3 15.01 C 1.2 km/h
1358 27-05-2019 13:00:00 14.39167 C 11.55 g/m*3 14.39 C 2.80833 km/h
1359 27-05-2019 14:00:00 14.53333 C 11.76 g/m*3 14.53 C 0.53333 km/h
1360 27-05-2019 15:00:00 14.825 C 11.91 g/m*3 14.83 C 0.66667 km/h
1361 27-05-2019 16:00:00 15.475 C 12.4 g/m*3 15.48 C 0.4 km/h
1362 27-05-2019 17:00:00 16.075 C 12.67 g/m*3 16.08 C 0.66667 km/h
1363 27-05-2019 18:00:00 16.275 C 12.89 g/m*3 16.27 C 0 km/h
1364 27-05-2019 19:00:00 16.73333 C 13.23 g/m*3 16.73 C 0 km/h
1365 27-05-2019 20:00:00 15.78333 C 12.32 g/m*3 15.78 C 0 km/h
1366 27-05-2019 21:00:00 14.68333 C 11.71 g/m*3 14.68 C 0 km/h
1367 27-05-2019 22:00:00 13.79167 C 11.22 g/m*3 13.79 C 0 km/h
1368 27-05-2019 23:00:00 13.4 C 11.04 g/m*3 13.4 C 0 km/h
1369 28-05-2019 00:00:00 12.96667 C 10.83 g/m*3 12.97 C 0.26667 km/h
1370 28-05-2019 01:00:00 12.45 C 10.52 g/m*3 12.45 C 0 km/h
1371 28-05-2019 02:00:00 12.55 C 10.66 g/m*3 12.55 C 0 km/h
1372 28-05-2019 03:00:00 12.41667 C 10.56 g/m*3 12.42 C 0 km/h
1373 28-05-2019 04:00:00 11.55 C 9.99 g/m*3 11.55 C 0 km/h
1374 28-05-2019 05:00:00 11.80833 C 10.21 g/m*3 11.81 C 0 km/h
1375 28-05-2019 06:00:00 12.18333 C 10.46 g/m*3 12.18 C 0 km/h
Sensor: Nr:Datum:Temp:Abs-Feuchte:Windchill:Wind:
Aussen-T/F 1376 28-05-2019 07:00:00 12.51667 C 10.68 g/m*3 12.52 C 0 km/h
1377 28-05-2019 08:00:00 12.84167 C 10.89 g/m*3 12.84 C 2 km/h
1378 28-05-2019 09:00:00 13.425 C 11.13 g/m*3 13.43 C 5.20833 km/h
1379 28-05-2019 10:00:00 14.74167 C 11.04 g/m*3 14.74 C 8.875 km/h
1380 28-05-2019 11:00:00 15.65 C 10.78 g/m*3 15.65 C 12.625 km/h
1381 28-05-2019 12:00:00 16.05 C 10.22 g/m*3 16.05 C 13.16667 km/h
1382 28-05-2019 13:00:00 17.49167 C 9.9 g/m*3 17.49 C 12.9 km/h
1383 28-05-2019 14:00:00 16.04167 C 9.61 g/m*3 16.04 C 15.43333 km/h
1384 28-05-2019 15:00:00 13.65833 C 9.96 g/m*3 13.66 C 5.625 km/h
1385 28-05-2019 16:00:00 15.80833 C 10.34 g/m*3 15.81 C 7.925 km/h
1386 28-05-2019 17:00:00 16.80833 C 9.99 g/m*3 16.81 C 9.01667 km/h
1387 28-05-2019 18:00:00 16.78333 C 9.34 g/m*3 16.78 C 12.1 km/h
1388 28-05-2019 19:00:00 16.08333 C 9.31 g/m*3 16.08 C 10.89167 km/h
1389 28-05-2019 20:00:00 14.10833 C 9.2 g/m*3 14.11 C 3.33333 km/h
1390 28-05-2019 21:00:00 13.10833 C 9.32 g/m*3 13.11 C 5.5 km/h
1391 28-05-2019 22:00:00 12.15 C 9.41 g/m*3 12.15 C 0.26667 km/h
1392 28-05-2019 23:00:00 11.78333 C 9.33 g/m*3 11.78 C 2.675 km/h
1393 29-05-2019 00:00:00 11.70833 C 8.98 g/m*3 11.71 C 2.81667 km/h
1394 29-05-2019 01:00:00 11.73333 C 9.07 g/m*3 11.73 C 2.13333 km/h
1395 29-05-2019 02:00:00 11.875 C 9.07 g/m*3 11.88 C 5.1 km/h
1396 29-05-2019 03:00:00 11.675 C 9.09 g/m*3 11.68 C 2.8 km/h
1397 29-05-2019 04:00:00 11.44167 C 8.89 g/m*3 11.44 C 4.55 km/h
1398 29-05-2019 05:00:00 11.08333 C 8.71 g/m*3 11.08 C 3.06667 km/h
1399 29-05-2019 06:00:00 10.875 C 8.6 g/m*3 10.88 C 2.93333 km/h
1400 29-05-2019 07:00:00 10.81667 C 8.52 g/m*3 10.82 C 3.875 km/h
Sensor: Nr:Datum:Temp:Abs-Feuchte:Windchill:Wind:
Aussen-T/F 1401 29-05-2019 08:00:00 11.225 C 8.53 g/m*3 11.23 C 6.14167 km/h
1402 29-05-2019 09:00:00 12.225 C 8.68 g/m*3 12.23 C 4.40833 km/h
1403 29-05-2019 10:00:00 13.83333 C 8.49 g/m*3 13.83 C 4.95 km/h
1404 29-05-2019 11:00:00 15.09167 C 8.22 g/m*3 15.09 C 7.11667 km/h
1405 29-05-2019 12:00:00 15.725 C 8.05 g/m*3 15.73 C 7.11667 km/h
1406 29-05-2019 13:00:00 16.48333 C 7.59 g/m*3 16.48 C 7.38333 km/h
1407 29-05-2019 14:00:00 17.40833 C 7.18 g/m*3 17.41 C 8.05 km/h
1408 29-05-2019 15:00:00 18.99167 C 7.17 g/m*3 18.99 C 7.65 km/h
1409 29-05-2019 16:00:00 20.91667 C 6.91 g/m*3 20.92 C 6.16667 km/h
1410 29-05-2019 17:00:00 22.38333 C 6.94 g/m*3 22.38 C 6.98333 km/h
1411 29-05-2019 18:00:00 22.1 C 7.4 g/m*3 22.1 C 6.71667 km/h
1412 29-05-2019 19:00:00 21.55 C 8.49 g/m*3 21.55 C 3.33333 km/h
1413 29-05-2019 20:00:00 18.66667 C 9.84 g/m*3 18.67 C 0 km/h
1414 29-05-2019 21:00:00 15.49167 C 8.91 g/m*3 15.49 C 0.13333 km/h
1415 29-05-2019 22:00:00 13.29167 C 8.95 g/m*3 13.29 C 0 km/h
1416 29-05-2019 23:00:00 12.91667 C 8.94 g/m*3 12.92 C 0 km/h
1417 30-05-2019 00:00:00 12.05833 C 8.69 g/m*3 12.06 C 0 km/h
1418 30-05-2019 01:00:00 11.44167 C 8.69 g/m*3 11.44 C 0 km/h
1419 30-05-2019 02:00:00 10.88333 C 8.56 g/m*3 10.88 C 0.66667 km/h
1420 30-05-2019 03:00:00 9.95 C 8.3 g/m*3 9.95 C 0 km/h
1421 30-05-2019 04:00:00 9.56667 C 8.28 g/m*3 9.57 C 0 km/h
1422 30-05-2019 05:00:00 9.1 C 8.16 g/m*3 9.1 C 0 km/h
1423 30-05-2019 06:00:00 9.71667 C 8.63 g/m*3 9.72 C 0.13333 km/h
1424 30-05-2019 07:00:00 10.925 C 9.11 g/m*3 10.93 C 1.46667 km/h
1425 30-05-2019 08:00:00 12.375 C 9.37 g/m*3 12.38 C 3.20833 km/h
Sensor: Nr:Datum:Temp:Abs-Feuchte:Windchill:Wind:
Aussen-T/F 1426 30-05-2019 09:00:00 14.10833 C 9.89 g/m*3 14.11 C 2.13333 km/h
1427 30-05-2019 10:00:00 16.09167 C 10.45 g/m*3 16.09 C 4.00833 km/h
1428 30-05-2019 11:00:00 18.18333 C 10.16 g/m*3 18.18 C 10.63333 km/h
1429 30-05-2019 12:00:00 18.2 C 10.18 g/m*3 18.2 C 6.98333 km/h
1430 30-05-2019 13:00:00 18.23333 C 10.91 g/m*3 18.23 C 2.8 km/h
1431 30-05-2019 14:00:00 19.425 C 11.22 g/m*3 19.43 C 10.35 km/h
1432 30-05-2019 15:00:00 21.175 C 11.91 g/m*3 21.18 C 15.83333 km/h
1433 30-05-2019 16:00:00 21.95833 C 12.18 g/m*3 21.96 C 14.23333 km/h
1434 30-05-2019 17:00:00 21.625 C 12.3 g/m*3 21.63 C 13.7 km/h
1435 30-05-2019 18:00:00 20.95833 C 12.4 g/m*3 20.96 C 10.625 km/h
1436 30-05-2019 19:00:00 19.95 C 12.41 g/m*3 19.95 C 6.175 km/h
1437 30-05-2019 20:00:00 18.94167 C 12.53 g/m*3 18.94 C 1.06667 km/h
1438 30-05-2019 21:00:00 17.675 C 12.33 g/m*3 17.68 C 0.13333 km/h
1439 30-05-2019 22:00:00 16.54167 C 12.06 g/m*3 16.54 C 0 km/h
1440 30-05-2019 23:00:00 15.89167 C 11.91 g/m*3 15.89 C 0 km/h
1441 31-05-2019 00:00:00 15.65 C 11.99 g/m*3 15.65 C 0.66667 km/h
1442 31-05-2019 01:00:00 15.61667 C 12.09 g/m*3 15.62 C 1.33333 km/h
1443 31-05-2019 02:00:00 15.46667 C 11.98 g/m*3 15.47 C 1.2 km/h
1444 31-05-2019 03:00:00 14.41667 C 11.39 g/m*3 14.42 C 1.33333 km/h
1445 31-05-2019 04:00:00 13.56667 C 10.95 g/m*3 13.57 C 0 km/h
1446 31-05-2019 05:00:00 12.83333 C 10.61 g/m*3 12.83 C 0 km/h
1447 31-05-2019 06:00:00 12.75 C 10.61 g/m*3 12.75 C 0 km/h
1448 31-05-2019 07:00:00 13.1 C 10.95 g/m*3 13.1 C 0 km/h
1449 31-05-2019 08:00:00 14.175 C 11.67 g/m*3 14.18 C 0 km/h
1450 31-05-2019 09:00:00 16.24167 C 12.15 g/m*3 16.24 C 6.03333 km/h
Sensor: Nr:Datum:Temp:Abs-Feuchte:Windchill:Wind:
Aussen-T/F 1451 31-05-2019 10:00:00 18.69167 C 11.94 g/m*3 18.69 C 6.71667 km/h
1452 31-05-2019 11:00:00 20.225 C 11.95 g/m*3 20.23 C 6.84167 km/h
1453 31-05-2019 12:00:00 21.375 C 12.23 g/m*3 21.38 C 9.025 km/h
1454 31-05-2019 13:00:00 22.725 C 12.22 g/m*3 22.73 C 10.23333 km/h
1455 31-05-2019 14:00:00 23.925 C 12.02 g/m*3 23.93 C 12.1 km/h
1456 31-05-2019 15:00:00 25.28333 C 12.06 g/m*3 25.28 C 11.025 km/h
1457 31-05-2019 16:00:00 27.3 C 11.82 g/m*3 27.3 C 9.81667 km/h
1458 31-05-2019 17:00:00 27.50833 C 11.82 g/m*3 27.51 C 9.54167 km/h
1459 31-05-2019 18:00:00 27.58333 C 11.45 g/m*3 27.58 C 7.51667 km/h
1460 31-05-2019 19:00:00 25.63333 C 12.3 g/m*3 25.63 C 2.54167 km/h
1461 31-05-2019 20:00:00 23.64167 C 12.51 g/m*3 23.64 C 2 km/h
1462 31-05-2019 21:00:00 20.09167 C 12.47 g/m*3 20.09 C 0 km/h
1463 31-05-2019 22:00:00 17.725 C 11.89 g/m*3 17.73 C 0 km/h
1464 31-05-2019 23:00:00 15.91667 C 11.53 g/m*3 15.92 C 0 km/h
1465 01-06-2019 00:00:00 14.65 C 11.15 g/m*3 14.65 C 0 km/h
1466 01-06-2019 01:00:00 13.91667 C 10.99 g/m*3 13.92 C 0 km/h
1467 01-06-2019 02:00:00 13.325 C 10.72 g/m*3 13.33 C 0 km/h
1468 01-06-2019 03:00:00 12.83333 C 10.52 g/m*3 12.83 C 0 km/h
1469 01-06-2019 04:00:00 12.2 C 10.14 g/m*3 12.2 C 0.13333 km/h
1470 01-06-2019 05:00:00 11.75833 C 9.96 g/m*3 11.76 C 0.13333 km/h
1471 01-06-2019 06:00:00 11.825 C 10.05 g/m*3 11.83 C 0.4 km/h
1472 01-06-2019 07:00:00 12.61667 C 10.63 g/m*3 12.62 C 2.26667 km/h
1473 01-06-2019 08:00:00 13.875 C 11.34 g/m*3 13.88 C 1.6 km/h
1474 01-06-2019 09:00:00 15.45 C 12.08 g/m*3 15.45 C 1.06667 km/h
1475 01-06-2019 10:00:00 18.14167 C 13.09 g/m*3 18.14 C 0.4 km/h
Sensor: Nr:Datum:Temp:Abs-Feuchte:Windchill:Wind:
Aussen-T/F 1476 01-06-2019 11:00:00 20.91667 C 13.13 g/m*3 20.92 C 4.95833 km/h
1477 01-06-2019 12:00:00 23.01667 C 13.12 g/m*3 23.02 C 10.1 km/h
1478 01-06-2019 13:00:00 24.31667 C 13.14 g/m*3 24.32 C 9.29167 km/h
1479 01-06-2019 14:00:00 25.51667 C 13.19 g/m*3 25.52 C 9.01667 km/h
1480 01-06-2019 15:00:00 27.83333 C 13.34 g/m*3 27.83 C 9.14167 km/h
1481 01-06-2019 16:00:00 29.975 C 13.22 g/m*3 29.98 C 7.925 km/h
1482 01-06-2019 17:00:00 30.09167 C 12.85 g/m*3 30.09 C 6.98333 km/h
1483 01-06-2019 18:00:00 30.23333 C 13.31 g/m*3 30.23 C 5.225 km/h
1484 01-06-2019 19:00:00 29.675 C 15.12 g/m*3 29.68 C 2.66667 km/h
1485 01-06-2019 20:00:00 26.65833 C 14.88 g/m*3 26.66 C 0.26667 km/h
1486 01-06-2019 21:00:00 22.7 C 13.74 g/m*3 22.7 C 0 km/h
1487 01-06-2019 22:00:00 20.00833 C 13.16 g/m*3 20.01 C 0 km/h
1488 01-06-2019 23:00:00 18.20833 C 12.79 g/m*3 18.21 C 0 km/h
1489 02-06-2019 00:00:00 16.75833 C 12.34 g/m*3 16.76 C 0 km/h
1490 02-06-2019 01:00:00 15.66667 C 11.93 g/m*3 15.67 C 0 km/h
1491 02-06-2019 02:00:00 14.925 C 11.71 g/m*3 14.93 C 0 km/h
1492 02-06-2019 03:00:00 14.325 C 11.44 g/m*3 14.33 C 0 km/h
1493 02-06-2019 04:00:00 13.81667 C 11.2 g/m*3 13.82 C 0 km/h
1494 02-06-2019 05:00:00 13.29167 C 10.92 g/m*3 13.29 C 0 km/h
1495 02-06-2019 06:00:00 13.40833 C 11.09 g/m*3 13.41 C 0 km/h
1496 02-06-2019 07:00:00 13.95833 C 11.54 g/m*3 13.96 C 0.26667 km/h
1497 02-06-2019 08:00:00 15.03333 C 12.33 g/m*3 15.03 C 0.13333 km/h
1498 02-06-2019 09:00:00 16.60833 C 13.56 g/m*3 16.61 C 0 km/h
1499 02-06-2019 10:00:00 19.64167 C 15.01 g/m*3 19.64 C 0 km/h
1500 02-06-2019 11:00:00 23.11667 C 15.97 g/m*3 23.12 C 0.53333 km/h
Sensor: Nr:Datum:Temp:Abs-Feuchte:Windchill:Wind:
Aussen-T/F 1501 02-06-2019 12:00:00 26.66667 C 14.61 g/m*3 26.67 C 1.46667 km/h
1502 02-06-2019 13:00:00 27.96667 C 12.58 g/m*3 27.97 C 10.35 km/h
1503 02-06-2019 14:00:00 29.1 C 13.16 g/m*3 29.1 C 10.75833 km/h
1504 02-06-2019 15:00:00 31.04167 C 13.6 g/m*3 31.04 C 10.35833 km/h
1505 02-06-2019 16:00:00 32.76667 C 13.1 g/m*3 32.77 C 11.01667 km/h
1506 02-06-2019 17:00:00 33.1 C 13.33 g/m*3 33.1 C 8.2 km/h
1507 02-06-2019 18:00:00 33 C 13.5 g/m*3 33 C 6.84167 km/h
1508 02-06-2019 19:00:00 32.23333 C 13.67 g/m*3 32.23 C 2.675 km/h
1509 02-06-2019 20:00:00 28.7 C 13.99 g/m*3 28.7 C 1.2 km/h
1510 02-06-2019 21:00:00 24.375 C 12.96 g/m*3 24.38 C 0.8 km/h
1511 02-06-2019 22:00:00 21.35833 C 12.7 g/m*3 21.36 C 0.4 km/h
1512 02-06-2019 23:00:00 19.30833 C 12.42 g/m*3 19.31 C 0 km/h
1513 03-06-2019 00:00:00 17.75833 C 12.09 g/m*3 17.76 C 0 km/h
1514 03-06-2019 01:00:00 16.825 C 11.79 g/m*3 16.83 C 0 km/h
1515 03-06-2019 02:00:00 16.15 C 11.67 g/m*3 16.15 C 0 km/h
1516 03-06-2019 03:00:00 15.51667 C 11.59 g/m*3 15.52 C 0 km/h
1517 03-06-2019 04:00:00 14.84167 C 11.42 g/m*3 14.84 C 0 km/h
1518 03-06-2019 05:00:00 14.775 C 11.62 g/m*3 14.78 C 0 km/h
1519 03-06-2019 06:00:00 15.23333 C 11.97 g/m*3 15.23 C 0 km/h
1520 03-06-2019 07:00:00 16.11667 C 12.57 g/m*3 16.12 C 0 km/h
1521 03-06-2019 08:00:00 17.63333 C 13.32 g/m*3 17.63 C 0 km/h
1522 03-06-2019 09:00:00 20.30833 C 15 g/m*3 20.31 C 0 km/h
1523 03-06-2019 10:00:00 21.325 C 16.16 g/m*3 21.33 C 0 km/h
1524 03-06-2019 11:00:00 23.475 C 15.75 g/m*3 23.48 C 3.20833 km/h
1525 03-06-2019 12:00:00 26.39167 C 14.87 g/m*3 26.39 C 9.41667 km/h
Sensor: Nr:Datum:Temp:Abs-Feuchte:Windchill:Wind:
Aussen-T/F 1526 03-06-2019 13:00:00 27.69167 C 14.1 g/m*3 27.69 C 12.75833 km/h
1527 03-06-2019 14:00:00 28.44167 C 11.28 g/m*3 28.44 C 16.5 km/h
1528 03-06-2019 15:00:00 29.40833 C 10.28 g/m*3 29.41 C 15.83333 km/h
1529 03-06-2019 16:00:00 26.71667 C 11.68 g/m*3 26.72 C 5.36667 km/h
1530 03-06-2019 17:00:00 25.15833 C 13.45 g/m*3 25.16 C 9.29167 km/h
1531 03-06-2019 18:00:00 23.71667 C 13.68 g/m*3 23.72 C 8.75 km/h
1532 03-06-2019 19:00:00 22.66667 C 13.73 g/m*3 22.67 C 1.73333 km/h
1533 03-06-2019 20:00:00 22.29167 C 13.82 g/m*3 22.29 C 1.46667 km/h
1534 03-06-2019 21:00:00 20.63333 C 13.37 g/m*3 20.63 C 0 km/h
1535 03-06-2019 22:00:00 19.40833 C 12.98 g/m*3 19.41 C 0 km/h
1536 03-06-2019 23:00:00 18.06667 C 12.58 g/m*3 18.07 C 0 km/h
1537 04-06-2019 00:00:00 16.71667 C 12.31 g/m*3 16.72 C 0 km/h
1538 04-06-2019 01:00:00 15.84167 C 12.11 g/m*3 15.84 C 0 km/h
1539 04-06-2019 02:00:00 15.15 C 11.88 g/m*3 15.15 C 0 km/h
1540 04-06-2019 03:00:00 14.41667 C 11.5 g/m*3 14.42 C 0 km/h
1541 04-06-2019 04:00:00 13.65833 C 11.04 g/m*3 13.66 C 0 km/h
1542 04-06-2019 05:00:00 13.2 C 10.82 g/m*3 13.2 C 0.26667 km/h
1543 04-06-2019 06:00:00 13.275 C 10.98 g/m*3 13.28 C 0.13333 km/h
1544 04-06-2019 07:00:00 14.525 C 11.83 g/m*3 14.53 C 0 km/h
1545 04-06-2019 08:00:00 16.05 C 12.56 g/m*3 16.05 C 1.33333 km/h
1546 04-06-2019 09:00:00 17.45 C 13.18 g/m*3 17.45 C 2.13333 km/h
1547 04-06-2019 10:00:00 20.16667 C 13.73 g/m*3 20.17 C 7.65 km/h
1548 04-06-2019 11:00:00 22.35833 C 14.08 g/m*3 22.36 C 10.1 km/h
1549 04-06-2019 12:00:00 23.89167 C 14.74 g/m*3 23.89 C 9.28333 km/h
1550 04-06-2019 13:00:00 25.74167 C 14.5 g/m*3 25.74 C 9.00833 km/h
Sensor: Nr:Datum:Temp:Abs-Feuchte:Windchill:Wind:
Aussen-T/F 1551 04-06-2019 14:00:00 27.4 C 14.36 g/m*3 27.4 C 8.74167 km/h
1552 04-06-2019 15:00:00 28.7 C 14.76 g/m*3 28.7 C 7.36667 km/h
1553 04-06-2019 16:00:00 30.56667 C 15.5 g/m*3 30.57 C 7.93333 km/h
1554 04-06-2019 17:00:00 31.925 C 14.93 g/m*3 31.93 C 7.375 km/h
1555 04-06-2019 18:00:00 31.24167 C 15.37 g/m*3 31.24 C 6.175 km/h
1556 04-06-2019 19:00:00 29.25 C 15.99 g/m*3 29.25 C 2.8 km/h
1557 04-06-2019 20:00:00 26.51667 C 15.68 g/m*3 26.52 C 0.13333 km/h
1558 04-06-2019 21:00:00 23.36667 C 14.2 g/m*3 23.37 C 0 km/h
1559 04-06-2019 22:00:00 22.025 C 13.74 g/m*3 22.03 C 0.26667 km/h
1560 04-06-2019 23:00:00 22.70833 C 13.11 g/m*3 22.71 C 4.275 km/h
1561 05-06-2019 00:00:00 23.28333 C 13.16 g/m*3 23.28 C 3.48333 km/h
1562 05-06-2019 01:00:00 21.33333 C 13.06 g/m*3 21.33 C 0 km/h
1563 05-06-2019 02:00:00 20.575 C 13.25 g/m*3 20.58 C 0 km/h
1564 05-06-2019 03:00:00 19.35 C 12.95 g/m*3 19.35 C 0 km/h
1565 05-06-2019 04:00:00 18.80833 C 12.93 g/m*3 18.81 C 0.13333 km/h
1566 05-06-2019 05:00:00 17.44167 C 12.46 g/m*3 17.44 C 2.15 km/h
1567 05-06-2019 06:00:00 17.69167 C 12.86 g/m*3 17.69 C 3.475 km/h
1568 05-06-2019 07:00:00 17.98333 C 13.29 g/m*3 17.98 C 0 km/h
1569 05-06-2019 08:00:00 18.38333 C 13.83 g/m*3 18.38 C 0.26667 km/h
1570 05-06-2019 09:00:00 21.025 C 14.02 g/m*3 21.03 C 6.575 km/h
1571 05-06-2019 10:00:00 22.73333 C 14.29 g/m*3 22.73 C 3.73333 km/h
1572 05-06-2019 11:00:00 23.64167 C 14.14 g/m*3 23.64 C 3.46667 km/h
1573 05-06-2019 12:00:00 24.34167 C 14.03 g/m*3 24.34 C 4.81667 km/h
1574 05-06-2019 13:00:00 25.925 C 14.59 g/m*3 25.93 C 8.05833 km/h
1575 05-06-2019 14:00:00 27.25833 C 14.64 g/m*3 27.26 C 11.16667 km/h
Sensor: Nr:Datum:Temp:Abs-Feuchte:Windchill:Wind:
Aussen-T/F 1576 05-06-2019 15:00:00 29.5 C 14.63 g/m*3 29.5 C 9.41667 km/h
1577 05-06-2019 16:00:00 31.35 C 13.61 g/m*3 31.35 C 6.575 km/h
1578 05-06-2019 17:00:00 30.43333 C 14.51 g/m*3 30.43 C 3.46667 km/h
1579 05-06-2019 18:00:00 28.60833 C 15.79 g/m*3 28.61 C 0 km/h
1580 05-06-2019 19:00:00 29.73333 C 16.34 g/m*3 29.73 C 0 km/h
1581 05-06-2019 20:00:00 27.55833 C 15.02 g/m*3 27.56 C 0 km/h
1582 05-06-2019 21:00:00 23.44167 C 14.4 g/m*3 23.44 C 0 km/h
1583 05-06-2019 22:00:00 21.625 C 14.37 g/m*3 21.63 C 0 km/h
1584 05-06-2019 23:00:00 20.83333 C 14.01 g/m*3 20.83 C 0 km/h
1585 06-06-2019 00:00:00 21.575 C 13.11 g/m*3 21.58 C 15.69167 km/h
1586 06-06-2019 01:00:00 18.925 C 13.24 g/m*3 18.93 C 8.85 km/h
1587 06-06-2019 02:00:00 17.10833 C 13.39 g/m*3 17.11 C 0.8 km/h
1588 06-06-2019 03:00:00 16.70833 C 13.32 g/m*3 16.71 C 0.8 km/h
1589 06-06-2019 04:00:00 16.48333 C 13.27 g/m*3 16.48 C 0.66667 km/h
1590 06-06-2019 05:00:00 15.51667 C 12.39 g/m*3 15.52 C 12.89167 km/h
1591 06-06-2019 06:00:00 13.94167 C 11.1 g/m*3 13.94 C 14.36667 km/h
1592 06-06-2019 07:00:00 13.19167 C 10.29 g/m*3 13.19 C 11.29167 km/h
1593 06-06-2019 08:00:00 13.325 C 9.79 g/m*3 13.33 C 14.75833 km/h
1594 06-06-2019 09:00:00 13.10833 C 9.27 g/m*3 13.11 C 10.06667 km/h
1595 06-06-2019 10:00:00 13.80833 C 9.54 g/m*3 13.81 C 7.65 km/h
1596 06-06-2019 11:00:00 14.93333 C 9.64 g/m*3 14.93 C 8.6 km/h
1597 06-06-2019 12:00:00 15.40833 C 9.63 g/m*3 15.41 C 11.3 km/h
1598 06-06-2019 13:00:00 16.49167 C 9.73 g/m*3 16.49 C 13.03333 km/h
1599 06-06-2019 14:00:00 17.025 C 9.88 g/m*3 17.02 C 11.29167 km/h
1600 06-06-2019 15:00:00 17.75833 C 10.06 g/m*3 17.76 C 12.76667 km/h
Sensor: Nr:Datum:Temp:Abs-Feuchte:Windchill:Wind:
Aussen-T/F 1601 06-06-2019 16:00:00 18 C 10.06 g/m*3 18 C 11.56667 km/h
1602 06-06-2019 17:00:00 16.73333 C 9.85 g/m*3 16.73 C 9.4 km/h
1603 06-06-2019 18:00:00 16.975 C 10.1 g/m*3 16.98 C 9.55 km/h
1604 06-06-2019 19:00:00 18.26667 C 9.92 g/m*3 18.27 C 9.425 km/h
1605 06-06-2019 20:00:00 17.725 C 9.87 g/m*3 17.73 C 4.41667 km/h
1606 06-06-2019 21:00:00 15.43333 C 9.93 g/m*3 15.43 C 0 km/h
1607 06-06-2019 22:00:00 12.75 C 9.36 g/m*3 12.75 C 0 km/h
1608 06-06-2019 23:00:00 11.43333 C 9 g/m*3 11.43 C 0 km/h
1609 07-06-2019 00:00:00 10.475 C 8.76 g/m*3 10.48 C 0 km/h
1610 07-06-2019 01:00:00 9.875 C 8.59 g/m*3 9.88 C 0 km/h
1611 07-06-2019 02:00:00 9.425 C 8.43 g/m*3 9.43 C 0 km/h
1612 07-06-2019 03:00:00 9.56667 C 8.64 g/m*3 9.57 C 0 km/h
1613 07-06-2019 04:00:00 10.13333 C 8.97 g/m*3 10.13 C 0 km/h
1614 07-06-2019 05:00:00 9.23333 C 8.44 g/m*3 9.23 C 0 km/h
1615 07-06-2019 06:00:00 9.60833 C 8.78 g/m*3 9.61 C 0 km/h
1616 07-06-2019 07:00:00 10.38333 C 9.24 g/m*3 10.38 C 1.06667 km/h
1617 07-06-2019 08:00:00 11.86667 C 9.78 g/m*3 11.87 C 7.64167 km/h
1618 07-06-2019 09:00:00 13.75833 C 10 g/m*3 13.76 C 11.29167 km/h
1619 07-06-2019 10:00:00 16.65 C 10.74 g/m*3 16.65 C 8.85833 km/h
1620 07-06-2019 11:00:00 18.75833 C 10.52 g/m*3 18.76 C 9.81667 km/h
1621 07-06-2019 12:00:00 19.9 C 10.9 g/m*3 19.9 C 9.55833 km/h
1622 07-06-2019 13:00:00 20.89167 C 11.71 g/m*3 20.89 C 6.84167 km/h
1623 07-06-2019 14:00:00 21.09167 C 12.55 g/m*3 21.09 C 4.56667 km/h
1624 07-06-2019 15:00:00 24.175 C 12.56 g/m*3 24.18 C 9.41667 km/h
1625 07-06-2019 16:00:00 25.96667 C 12.29 g/m*3 25.97 C 7.8 km/h
Sensor: Nr:Datum:Temp:Abs-Feuchte:Windchill:Wind:
Aussen-T/F 1626 07-06-2019 17:00:00 25.36667 C 13.61 g/m*3 25.37 C 4.95833 km/h
1627 07-06-2019 18:00:00 21.74167 C 11.2 g/m*3 21.74 C 25.73333 km/h
1628 07-06-2019 19:00:00 17.18333 C 9.17 g/m*3 17.18 C 22.13333 km/h
1629 07-06-2019 20:00:00 15.41667 C 9.43 g/m*3 15.42 C 13.68333 km/h
1630 07-06-2019 21:00:00 14.95 C 9.32 g/m*3 14.95 C 3.86667 km/h
1631 07-06-2019 22:00:00 14.8 C 8.85 g/m*3 14.8 C 2.80833 km/h
1632 07-06-2019 23:00:00 15.125 C 8.59 g/m*3 15.13 C 5.89167 km/h
1633 08-06-2019 00:00:00 15.46667 C 8.76 g/m*3 15.47 C 10.35 km/h
1634 08-06-2019 01:00:00 15.61667 C 8.69 g/m*3 15.62 C 13.3 km/h
1635 08-06-2019 02:00:00 15.34167 C 8.78 g/m*3 15.34 C 8.45 km/h
1636 08-06-2019 03:00:00 15.06667 C 8.63 g/m*3 15.07 C 8.05833 km/h
1637 08-06-2019 04:00:00 14.86667 C 8.14 g/m*3 14.87 C 12.88333 km/h
1638 08-06-2019 05:00:00 14.10833 C 7.69 g/m*3 14.11 C 15.69167 km/h
1639 08-06-2019 06:00:00 13.325 C 7.72 g/m*3 13.33 C 15.825 km/h
1640 08-06-2019 07:00:00 13.69167 C 7.75 g/m*3 13.69 C 19.43333 km/h
1641 08-06-2019 08:00:00 14.29167 C 8.02 g/m*3 14.29 C 17.96667 km/h
1642 08-06-2019 09:00:00 14.575 C 8.26 g/m*3 14.58 C 12.35833 km/h
1643 08-06-2019 10:00:00 14.90833 C 8.49 g/m*3 14.91 C 14.225 km/h
1644 08-06-2019 11:00:00 15.70833 C 8.59 g/m*3 15.71 C 12.89167 km/h
1645 08-06-2019 12:00:00 16.525 C 8.65 g/m*3 16.52 C 14.23333 km/h
1646 08-06-2019 13:00:00 17.38333 C 8.54 g/m*3 17.38 C 17.56667 km/h
1647 08-06-2019 14:00:00 18.325 C 8.73 g/m*3 18.33 C 15.03333 km/h
1648 08-06-2019 15:00:00 19.15 C 8.63 g/m*3 19.15 C 15.16667 km/h
1649 08-06-2019 16:00:00 19.65833 C 8.61 g/m*3 19.66 C 15.03333 km/h
1650 08-06-2019 17:00:00 19.925 C 8.52 g/m*3 19.93 C 14.9 km/h
Sensor: Nr:Datum:Temp:Abs-Feuchte:Windchill:Wind:
Aussen-T/F 1651 08-06-2019 18:00:00 19.95833 C 8.52 g/m*3 19.96 C 12.475 km/h
1652 08-06-2019 19:00:00 18.98333 C 8.87 g/m*3 18.98 C 13.16667 km/h
1653 08-06-2019 20:00:00 17.61667 C 9.35 g/m*3 17.62 C 2.275 km/h
1654 08-06-2019 21:00:00 16.11667 C 9.6 g/m*3 16.12 C 2.675 km/h
1655 08-06-2019 22:00:00 14.39167 C 9.21 g/m*3 14.39 C 0.66667 km/h
1656 08-06-2019 23:00:00 12.65833 C 8.95 g/m*3 12.66 C 0.8 km/h
1657 09-06-2019 00:00:00 11.66667 C 8.84 g/m*3 11.67 C 0.26667 km/h
1658 09-06-2019 01:00:00 11.08333 C 8.75 g/m*3 11.08 C 2.13333 km/h
1659 09-06-2019 02:00:00 10.925 C 8.7 g/m*3 10.93 C 1.46667 km/h
1660 09-06-2019 03:00:00 10.28333 C 8.52 g/m*3 10.28 C 0 km/h
1661 09-06-2019 04:00:00 9.4 C 8.17 g/m*3 9.4 C 0 km/h
1662 09-06-2019 05:00:00 8.675 C 7.97 g/m*3 8.68 C 0 km/h
1663 09-06-2019 06:00:00 8.63333 C 8.04 g/m*3 8.63 C 0 km/h
1664 09-06-2019 07:00:00 9.68333 C 8.7 g/m*3 9.68 C 0.13333 km/h
1665 09-06-2019 08:00:00 11.03333 C 9.45 g/m*3 11.03 C 0 km/h
1666 09-06-2019 09:00:00 12.80833 C 10.18 g/m*3 12.81 C 0 km/h
1667 09-06-2019 10:00:00 16.55 C 10.28 g/m*3 16.55 C 4.43333 km/h
1668 09-06-2019 11:00:00 18.86667 C 9.31 g/m*3 18.87 C 5.75833 km/h
1669 09-06-2019 12:00:00 19.76667 C 9.15 g/m*3 19.77 C 7.925 km/h
1670 09-06-2019 13:00:00 20.71667 C 9.31 g/m*3 20.72 C 10.75 km/h
1671 09-06-2019 14:00:00 21.925 C 9.76 g/m*3 21.93 C 9.13333 km/h
1672 09-06-2019 15:00:00 22.45833 C 10.03 g/m*3 22.46 C 9.425 km/h
1673 09-06-2019 16:00:00 22.79167 C 10.29 g/m*3 22.79 C 9.14167 km/h
1674 09-06-2019 17:00:00 22.7 C 10.42 g/m*3 22.7 C 7.65833 km/h
1675 09-06-2019 18:00:00 23.09167 C 10.42 g/m*3 23.09 C 9.95 km/h
Sensor: Nr:Datum:Temp:Abs-Feuchte:Windchill:Wind:
Aussen-T/F 1676 09-06-2019 19:00:00 21.64167 C 12.07 g/m*3 21.64 C 0 km/h
1677 09-06-2019 20:00:00 19.74167 C 11.76 g/m*3 19.74 C 0 km/h
1678 09-06-2019 21:00:00 18.86667 C 11.67 g/m*3 18.87 C 0 km/h
1679 09-06-2019 22:00:00 18.36667 C 11.71 g/m*3 18.37 C 0 km/h
1680 09-06-2019 23:00:00 17.95 C 11.66 g/m*3 17.95 C 0 km/h
1681 10-06-2019 00:00:00 17.525 C 11.62 g/m*3 17.52 C 0 km/h
1682 10-06-2019 01:00:00 16.95833 C 11.21 g/m*3 16.96 C 0 km/h
1683 10-06-2019 02:00:00 16.08333 C 10.92 g/m*3 16.08 C 0 km/h
1684 10-06-2019 03:00:00 14.94167 C 10.83 g/m*3 14.94 C 0 km/h
1685 10-06-2019 04:00:00 14.625 C 10.84 g/m*3 14.63 C 0.675 km/h
1686 10-06-2019 05:00:00 14.775 C 11.07 g/m*3 14.78 C 0.4 km/h
1687 10-06-2019 06:00:00 14.825 C 11.23 g/m*3 14.83 C 0 km/h
1688 10-06-2019 07:00:00 15.5 C 11.56 g/m*3 15.5 C 2.13333 km/h
1689 10-06-2019 08:00:00 17.725 C 12.13 g/m*3 17.73 C 3.34167 km/h
1690 10-06-2019 09:00:00 18.94167 C 12.32 g/m*3 18.94 C 9.83333 km/h
1691 10-06-2019 10:00:00 19.85 C 12.53 g/m*3 19.85 C 8.34167 km/h
1692 10-06-2019 11:00:00 21.15833 C 12.66 g/m*3 21.16 C 8.45833 km/h
1693 10-06-2019 12:00:00 22.34167 C 12.6 g/m*3 22.34 C 6.45 km/h
1694 10-06-2019 13:00:00 23.06667 C 12.71 g/m*3 23.07 C 5.9 km/h
1695 10-06-2019 14:00:00 23.225 C 13.03 g/m*3 23.23 C 10.625 km/h
1696 10-06-2019 15:00:00 23.225 C 13.1 g/m*3 23.23 C 8.34167 km/h
1697 10-06-2019 16:00:00 24.06667 C 13.07 g/m*3 24.07 C 5.9 km/h
1698 10-06-2019 17:00:00 23.65 C 12.96 g/m*3 23.65 C 3.6 km/h
1699 10-06-2019 18:00:00 23.19167 C 12.87 g/m*3 23.19 C 6.70833 km/h
1700 10-06-2019 19:00:00 21.7 C 12.34 g/m*3 21.7 C 5.09167 km/h
Sensor: Nr:Datum:Temp:Abs-Feuchte:Windchill:Wind:
Aussen-T/F 1701 10-06-2019 20:00:00 20.61667 C 12.53 g/m*3 20.62 C 0.8 km/h
1702 10-06-2019 21:00:00 19.38333 C 12.45 g/m*3 19.38 C 5.775 km/h
1703 10-06-2019 22:00:00 17.975 C 12.19 g/m*3 17.98 C 6.575 km/h
1704 10-06-2019 23:00:00 17.09167 C 12 g/m*3 17.09 C 2.8 km/h
1705 11-06-2019 00:00:00 16.55833 C 12.05 g/m*3 16.56 C 3.075 km/h
1706 11-06-2019 01:00:00 16.38333 C 12.11 g/m*3 16.38 C 4.14167 km/h
1707 11-06-2019 02:00:00 16.15833 C 11.86 g/m*3 16.16 C 0.8 km/h
1708 11-06-2019 03:00:00 15.29167 C 11.83 g/m*3 15.29 C 0.66667 km/h
1709 11-06-2019 04:00:00 14.6 C 11.65 g/m*3 14.6 C 0.4 km/h
1710 11-06-2019 05:00:00 14.21667 C 11.49 g/m*3 14.22 C 0 km/h
1711 11-06-2019 06:00:00 14.15833 C 11.55 g/m*3 14.16 C 0 km/h
1712 11-06-2019 07:00:00 14.5 C 11.86 g/m*3 14.5 C 0 km/h
1713 11-06-2019 08:00:00 15.01667 C 12.27 g/m*3 15.02 C 0.26667 km/h
1714 11-06-2019 09:00:00 15.34167 C 12.28 g/m*3 15.34 C 1.06667 km/h
1715 11-06-2019 10:00:00 16.16667 C 12.49 g/m*3 16.17 C 1.20833 km/h
1716 11-06-2019 11:00:00 16.925 C 12.28 g/m*3 16.93 C 2 km/h
1717 11-06-2019 12:00:00 17.81667 C 11.94 g/m*3 17.82 C 2.26667 km/h
1718 11-06-2019 13:00:00 19.09167 C 11.78 g/m*3 19.09 C 4.93333 km/h
1719 11-06-2019 14:00:00 20.24167 C 11.58 g/m*3 20.24 C 5.09167 km/h
1720 11-06-2019 15:00:00 21.31667 C 11.54 g/m*3 21.32 C 5.48333 km/h
1721 11-06-2019 16:00:00 20.94167 C 12.14 g/m*3 20.94 C 1.6 km/h
1722 11-06-2019 17:00:00 19.28333 C 13.15 g/m*3 19.28 C 0.13333 km/h
1723 11-06-2019 18:00:00 18.75833 C 13.2 g/m*3 18.76 C 0.13333 km/h
1724 11-06-2019 19:00:00 20.35 C 12.52 g/m*3 20.35 C 4.825 km/h
1725 11-06-2019 20:00:00 19.19167 C 13.16 g/m*3 19.19 C 0 km/h
Sensor: Nr:Datum:Temp:Abs-Feuchte:Windchill:Wind:
Aussen-T/F 1726 11-06-2019 21:00:00 17.76667 C 12.6 g/m*3 17.77 C 0 km/h
1727 11-06-2019 22:00:00 16.79167 C 12.11 g/m*3 16.79 C 0 km/h
1728 11-06-2019 23:00:00 15.70833 C 11.58 g/m*3 15.71 C 0.13333 km/h
1729 12-06-2019 00:00:00 15.16667 C 11.27 g/m*3 15.17 C 0 km/h
1730 12-06-2019 01:00:00 14.39167 C 10.98 g/m*3 14.39 C 0.4 km/h
1731 12-06-2019 02:00:00 14.59167 C 11.26 g/m*3 14.59 C 0 km/h
1732 12-06-2019 03:00:00 14.525 C 11.3 g/m*3 14.53 C 0 km/h
1733 12-06-2019 04:00:00 14.39167 C 11.24 g/m*3 14.39 C 0 km/h
1734 12-06-2019 05:00:00 14.125 C 11.15 g/m*3 14.13 C 0.26667 km/h
1735 12-06-2019 06:00:00 13.95833 C 11.12 g/m*3 13.96 C 0.93333 km/h
1736 12-06-2019 07:00:00 14.875 C 11.62 g/m*3 14.88 C 2.53333 km/h
1737 12-06-2019 08:00:00 15.81667 C 11.95 g/m*3 15.82 C 3.075 km/h
1738 12-06-2019 09:00:00 16.53333 C 12.08 g/m*3 16.53 C 5.23333 km/h
1739 12-06-2019 10:00:00 15.15 C 11.89 g/m*3 15.15 C 7.65 km/h
1740 12-06-2019 11:00:00 13.975 C 11.25 g/m*3 13.98 C 9.65833 km/h
1741 12-06-2019 12:00:00 14.40833 C 11.75 g/m*3 14.41 C 1.875 km/h
1742 12-06-2019 13:00:00 15.325 C 12.16 g/m*3 15.33 C 6.3 km/h
1743 12-06-2019 14:00:00 17.175 C 12.27 g/m*3 17.18 C 10.46667 km/h
1744 12-06-2019 15:00:00 18.2 C 12.11 g/m*3 18.2 C 10.21667 km/h
1745 12-06-2019 16:00:00 20.125 C 11.59 g/m*3 20.13 C 10.76667 km/h
1746 12-06-2019 17:00:00 21.81667 C 11.33 g/m*3 21.82 C 12.1 km/h
1747 12-06-2019 18:00:00 22.64167 C 10.86 g/m*3 22.64 C 9.025 km/h
1748 12-06-2019 19:00:00 21.925 C 10.26 g/m*3 21.93 C 10.5 km/h
1749 12-06-2019 20:00:00 21.23333 C 11.67 g/m*3 21.23 C 1.20833 km/h
1750 12-06-2019 21:00:00 17.83333 C 11.33 g/m*3 17.83 C 0 km/h
Sensor: Nr:Datum:Temp:Abs-Feuchte:Windchill:Wind:
Aussen-T/F 1751 12-06-2019 22:00:00 14.38333 C 10.47 g/m*3 14.38 C 0 km/h
1752 12-06-2019 23:00:00 13.15833 C 10.11 g/m*3 13.16 C 0 km/h
1753 13-06-2019 00:00:00 12.55833 C 9.88 g/m*3 12.56 C 0 km/h
1754 13-06-2019 01:00:00 11.68333 C 9.48 g/m*3 11.68 C 0 km/h
1755 13-06-2019 02:00:00 10.9 C 9.19 g/m*3 10.9 C 0 km/h
1756 13-06-2019 03:00:00 10.29167 C 8.96 g/m*3 10.29 C 0 km/h
1757 13-06-2019 04:00:00 9.775 C 8.71 g/m*3 9.78 C 0 km/h
1758 13-06-2019 05:00:00 9.45833 C 8.62 g/m*3 9.46 C 0 km/h
1759 13-06-2019 06:00:00 9.50833 C 8.68 g/m*3 9.51 C 0 km/h
1760 13-06-2019 07:00:00 10.31667 C 9.2 g/m*3 10.32 C 0.26667 km/h
1761 13-06-2019 08:00:00 11.75 C 10.04 g/m*3 11.75 C 1.6 km/h
1762 13-06-2019 09:00:00 15.15833 C 10.24 g/m*3 15.16 C 7.38333 km/h
1763 13-06-2019 10:00:00 17.91667 C 9.95 g/m*3 17.92 C 10.075 km/h
1764 13-06-2019 11:00:00 19.15 C 10 g/m*3 19.15 C 13.16667 km/h
1765 13-06-2019 12:00:00 19.41667 C 9.52 g/m*3 19.42 C 11.825 km/h
1766 13-06-2019 13:00:00 20.875 C 9.7 g/m*3 20.88 C 12.1 km/h
1767 13-06-2019 14:00:00 21.26667 C 9.52 g/m*3 21.27 C 10.625 km/h
1768 13-06-2019 15:00:00 22.13333 C 9.52 g/m*3 22.13 C 12.63333 km/h
1769 13-06-2019 16:00:00 23.85833 C 9.12 g/m*3 23.86 C 16.23333 km/h
1770 13-06-2019 17:00:00 24.41667 C 9.26 g/m*3 24.42 C 14.23333 km/h
1771 13-06-2019 18:00:00 24.325 C 9.55 g/m*3 24.33 C 10.075 km/h
1772 13-06-2019 19:00:00 20.40833 C 11.56 g/m*3 20.41 C 6.43333 km/h
1773 13-06-2019 20:00:00 15.975 C 12.18 g/m*3 15.98 C 1.86667 km/h
1774 13-06-2019 21:00:00 15.11667 C 11.49 g/m*3 15.12 C 0.13333 km/h
1775 13-06-2019 22:00:00 13.21667 C 10.54 g/m*3 13.22 C 0 km/h
Sensor: Nr:Datum:Temp:Abs-Feuchte:Windchill:Wind:
Aussen-T/F 1776 13-06-2019 23:00:00 12.78333 C 10.5 g/m*3 12.78 C 0 km/h
1777 14-06-2019 00:00:00 12.06667 C 10.08 g/m*3 12.07 C 0 km/h
1778 14-06-2019 01:00:00 11.73333 C 9.97 g/m*3 11.73 C 0 km/h
1779 14-06-2019 02:00:00 12.16667 C 10.34 g/m*3 12.17 C 0.26667 km/h
1780 14-06-2019 03:00:00 12.00833 C 10.24 g/m*3 12.01 C 0.93333 km/h
1781 14-06-2019 04:00:00 11.59167 C 9.97 g/m*3 11.59 C 0.4 km/h
1782 14-06-2019 05:00:00 11.41667 C 9.91 g/m*3 11.42 C 1.2 km/h
1783 14-06-2019 06:00:00 11.33333 C 9.89 g/m*3 11.33 C 1.33333 km/h
1784 14-06-2019 07:00:00 11.43333 C 9.98 g/m*3 11.43 C 0.66667 km/h
1785 14-06-2019 08:00:00 12.15 C 10.43 g/m*3 12.15 C 0 km/h
1786 14-06-2019 09:00:00 14.29167 C 12.01 g/m*3 14.29 C 0 km/h
1787 14-06-2019 10:00:00 17.16667 C 14.32 g/m*3 17.17 C 0 km/h
1788 14-06-2019 11:00:00 18.61667 C 15.29 g/m*3 18.62 C 0.53333 km/h
1789 14-06-2019 12:00:00 21.65833 C 13.57 g/m*3 21.66 C 5.23333 km/h
1790 14-06-2019 13:00:00 24.26667 C 12.72 g/m*3 24.27 C 7.525 km/h
1791 14-06-2019 14:00:00 26 C 12.23 g/m*3 26 C 9.4 km/h
1792 14-06-2019 15:00:00 26.35 C 12.58 g/m*3 26.35 C 5.625 km/h
1793 14-06-2019 16:00:00 25.95 C 13.96 g/m*3 25.95 C 2.66667 km/h
1794 14-06-2019 17:00:00 25.23333 C 15.34 g/m*3 25.23 C 2.00833 km/h
1795 14-06-2019 18:00:00 24.49167 C 15.38 g/m*3 24.49 C 1.2 km/h
1796 14-06-2019 19:00:00 22.55 C 14.87 g/m*3 22.55 C 0.4 km/h
1797 14-06-2019 20:00:00 20.29167 C 13.77 g/m*3 20.29 C 1.06667 km/h
1798 14-06-2019 21:00:00 19.08333 C 13.67 g/m*3 19.08 C 0.13333 km/h
1799 14-06-2019 22:00:00 18.79167 C 13.48 g/m*3 18.79 C 0.53333 km/h
1800 14-06-2019 23:00:00 18.6 C 13.77 g/m*3 18.6 C 0.8 km/h
Sensor: Nr:Datum:Temp:Abs-Feuchte:Windchill:Wind:
Aussen-T/F 1801 15-06-2019 00:00:00 17.59167 C 13.73 g/m*3 17.59 C 0.66667 km/h
1802 15-06-2019 01:00:00 16.49167 C 13.08 g/m*3 16.49 C 0 km/h
1803 15-06-2019 02:00:00 15.68333 C 12.59 g/m*3 15.68 C 0 km/h
1804 15-06-2019 03:00:00 15.16667 C 12.32 g/m*3 15.17 C 0 km/h
1805 15-06-2019 04:00:00 15.14167 C 12.37 g/m*3 15.14 C 1.075 km/h
1806 15-06-2019 05:00:00 15.01667 C 12.33 g/m*3 15.02 C 4.96667 km/h
1807 15-06-2019 06:00:00 15.54167 C 12.78 g/m*3 15.54 C 2.54167 km/h
1808 15-06-2019 07:00:00 16.175 C 13.36 g/m*3 16.18 C 0 km/h
1809 15-06-2019 08:00:00 16.94167 C 13.9 g/m*3 16.94 C 6.575 km/h
1810 15-06-2019 09:00:00 18.45833 C 14.19 g/m*3 18.46 C 12.76667 km/h
1811 15-06-2019 10:00:00 19.93333 C 14.09 g/m*3 19.93 C 13.83333 km/h
1812 15-06-2019 11:00:00 20.8 C 13.11 g/m*3 20.8 C 13.43333 km/h
1813 15-06-2019 12:00:00 21.60833 C 13.2 g/m*3 21.61 C 10.75833 km/h
1814 15-06-2019 13:00:00 21.28333 C 13.76 g/m*3 21.28 C 5.90833 km/h
1815 15-06-2019 14:00:00 21.65833 C 13.99 g/m*3 21.66 C 6.71667 km/h
1816 15-06-2019 15:00:00 22.11667 C 13.61 g/m*3 22.12 C 8.88333 km/h
1817 15-06-2019 16:00:00 23.775 C 13.68 g/m*3 23.78 C 4.40833 km/h
1818 15-06-2019 17:00:00 25.35833 C 12.86 g/m*3 25.36 C 7.78333 km/h
1819 15-06-2019 18:00:00 26.24167 C 12.05 g/m*3 26.24 C 8.19167 km/h
1820 15-06-2019 19:00:00 25.35833 C 12.7 g/m*3 25.36 C 4.29167 km/h
1821 15-06-2019 20:00:00 23.43333 C 13.8 g/m*3 23.43 C 0.13333 km/h
1822 15-06-2019 21:00:00 21.01667 C 13.03 g/m*3 21.02 C 0.13333 km/h
1823 15-06-2019 22:00:00 18.48333 C 12.43 g/m*3 18.48 C 0.53333 km/h
1824 15-06-2019 23:00:00 17.625 C 12.28 g/m*3 17.63 C 0.26667 km/h
1825 16-06-2019 00:00:00 17.3 C 12.26 g/m*3 17.3 C 1.2 km/h
Sensor: Nr:Datum:Temp:Abs-Feuchte:Windchill:Wind:
Aussen-T/F 1826 16-06-2019 01:00:00 17.4 C 12.31 g/m*3 17.4 C 1.06667 km/h
1827 16-06-2019 02:00:00 17.19167 C 12.28 g/m*3 17.19 C 0.13333 km/h
1828 16-06-2019 03:00:00 16.9 C 12.15 g/m*3 16.9 C 2 km/h
1829 16-06-2019 04:00:00 17.08333 C 11.99 g/m*3 17.08 C 1.88333 km/h
1830 16-06-2019 05:00:00 16.3 C 11.82 g/m*3 16.3 C 0.53333 km/h
1831 16-06-2019 06:00:00 15.46667 C 11.8 g/m*3 15.47 C 0.66667 km/h
1832 16-06-2019 07:00:00 15.55 C 12.11 g/m*3 15.55 C 0 km/h
1833 16-06-2019 08:00:00 16.04167 C 12.26 g/m*3 16.04 C 0.8 km/h
1834 16-06-2019 09:00:00 17.04167 C 11.79 g/m*3 17.04 C 3.46667 km/h
1835 16-06-2019 10:00:00 19.3 C 11.57 g/m*3 19.3 C 5.08333 km/h
1836 16-06-2019 11:00:00 20.84167 C 11.01 g/m*3 20.84 C 7.65833 km/h
1837 16-06-2019 12:00:00 21.34167 C 11.06 g/m*3 21.34 C 10.225 km/h
1838 16-06-2019 13:00:00 22.35 C 10.84 g/m*3 22.35 C 9.95833 km/h
1839 16-06-2019 14:00:00 22.56667 C 11.21 g/m*3 22.57 C 10.36667 km/h
1840 16-06-2019 15:00:00 23.03333 C 11.31 g/m*3 23.03 C 11.69167 km/h
1841 16-06-2019 16:00:00 23.225 C 11.47 g/m*3 23.23 C 9.69167 km/h
1842 16-06-2019 17:00:00 22.275 C 11.55 g/m*3 22.28 C 7.24167 km/h
1843 16-06-2019 18:00:00 24.04167 C 11.29 g/m*3 24.04 C 6.725 km/h
1844 16-06-2019 19:00:00 23.55 C 11.59 g/m*3 23.55 C 4.975 km/h
1845 16-06-2019 20:00:00 22.61667 C 11.63 g/m*3 22.62 C 3.89167 km/h
1846 16-06-2019 21:00:00 20.29167 C 11.91 g/m*3 20.29 C 0 km/h
1847 16-06-2019 22:00:00 17.21667 C 11.23 g/m*3 17.22 C 0 km/h
1848 16-06-2019 23:00:00 15.35 C 10.84 g/m*3 15.35 C 0 km/h
1849 17-06-2019 00:00:00 14.14167 C 10.42 g/m*3 14.14 C 0 km/h
1850 17-06-2019 01:00:00 13.31667 C 10.21 g/m*3 13.32 C 0 km/h
Sensor: Nr:Datum:Temp:Abs-Feuchte:Windchill:Wind:
Aussen-T/F 1851 17-06-2019 02:00:00 12.625 C 10.02 g/m*3 12.63 C 0 km/h
1852 17-06-2019 03:00:00 11.95833 C 9.76 g/m*3 11.96 C 0 km/h
1853 17-06-2019 04:00:00 11.43333 C 9.57 g/m*3 11.43 C 0 km/h
1854 17-06-2019 05:00:00 11.075 C 9.45 g/m*3 11.08 C 0 km/h
1855 17-06-2019 06:00:00 11.08333 C 9.56 g/m*3 11.08 C 0 km/h
1856 17-06-2019 07:00:00 11.575 C 9.88 g/m*3 11.58 C 0 km/h
1857 17-06-2019 08:00:00 12.66667 C 10.66 g/m*3 12.67 C 0 km/h
1858 17-06-2019 09:00:00 14.46667 C 11.77 g/m*3 14.47 C 0 km/h
1859 17-06-2019 10:00:00 18.59167 C 13.06 g/m*3 18.59 C 1.875 km/h
1860 17-06-2019 11:00:00 22.31667 C 12.45 g/m*3 22.32 C 6.15 km/h
1861 17-06-2019 12:00:00 23.475 C 12.28 g/m*3 23.48 C 7.65 km/h
1862 17-06-2019 13:00:00 24.45833 C 12.22 g/m*3 24.46 C 9.68333 km/h
1863 17-06-2019 14:00:00 25.15833 C 11.79 g/m*3 25.16 C 7.94167 km/h
1864 17-06-2019 15:00:00 25.26667 C 11.84 g/m*3 25.27 C 5.5 km/h
1865 17-06-2019 16:00:00 26.71667 C 12.58 g/m*3 26.72 C 4.00833 km/h
1866 17-06-2019 17:00:00 28.43333 C 11.74 g/m*3 28.43 C 6.15833 km/h
1867 17-06-2019 18:00:00 27.90833 C 12.54 g/m*3 27.91 C 2.8 km/h
1868 17-06-2019 19:00:00 27.64167 C 12.69 g/m*3 27.64 C 3.225 km/h
1869 17-06-2019 20:00:00 23.58333 C 13 g/m*3 23.58 C 0 km/h
1870 17-06-2019 21:00:00 20.78333 C 12.32 g/m*3 20.78 C 0 km/h
1871 17-06-2019 22:00:00 18.73333 C 12.07 g/m*3 18.73 C 0 km/h
1872 17-06-2019 23:00:00 17.06667 C 11.74 g/m*3 17.07 C 0 km/h
1873 18-06-2019 00:00:00 15.86667 C 11.42 g/m*3 15.87 C 0 km/h
1874 18-06-2019 01:00:00 15.09167 C 11.25 g/m*3 15.09 C 0 km/h
1875 18-06-2019 02:00:00 14.43333 C 11.04 g/m*3 14.43 C 0 km/h
Sensor: Nr:Datum:Temp:Abs-Feuchte:Windchill:Wind:
Aussen-T/F 1876 18-06-2019 03:00:00 13.8 C 10.88 g/m*3 13.8 C 0 km/h
1877 18-06-2019 04:00:00 13.8 C 10.99 g/m*3 13.8 C 0 km/h
1878 18-06-2019 05:00:00 13.625 C 10.89 g/m*3 13.63 C 0 km/h
1879 18-06-2019 06:00:00 13.65 C 11.07 g/m*3 13.65 C 0.26667 km/h
1880 18-06-2019 07:00:00 14.75 C 11.64 g/m*3 14.75 C 0.66667 km/h
1881 18-06-2019 08:00:00 16.01667 C 12.27 g/m*3 16.02 C 0 km/h
1882 18-06-2019 09:00:00 17.65 C 13.28 g/m*3 17.65 C 0.13333 km/h
1883 18-06-2019 10:00:00 20.80833 C 14.92 g/m*3 20.81 C 0 km/h
1884 18-06-2019 11:00:00 24.26667 C 14.98 g/m*3 24.27 C 3.35 km/h
1885 18-06-2019 12:00:00 26.78333 C 13.71 g/m*3 26.78 C 4.825 km/h
1886 18-06-2019 13:00:00 28.125 C 12.87 g/m*3 28.13 C 7.51667 km/h
1887 18-06-2019 14:00:00 28.825 C 12.9 g/m*3 28.83 C 8.45833 km/h
1888 18-06-2019 15:00:00 29.825 C 13.07 g/m*3 29.83 C 7.925 km/h
1889 18-06-2019 16:00:00 29.575 C 13.66 g/m*3 29.58 C 3.34167 km/h
1890 18-06-2019 17:00:00 29.48333 C 16.64 g/m*3 29.48 C 0.8 km/h
1891 18-06-2019 18:00:00 29.725 C 16.48 g/m*3 29.73 C 0.4 km/h
1892 18-06-2019 19:00:00 27.95 C 16.43 g/m*3 27.95 C 0 km/h
1893 18-06-2019 20:00:00 26.03333 C 15.55 g/m*3 26.03 C 0 km/h
1894 18-06-2019 21:00:00 23.73333 C 14.59 g/m*3 23.73 C 0 km/h
1895 18-06-2019 22:00:00 21.45 C 14.02 g/m*3 21.45 C 0 km/h
1896 18-06-2019 23:00:00 19.83333 C 13.62 g/m*3 19.83 C 0 km/h
1897 19-06-2019 00:00:00 18.48333 C 13.21 g/m*3 18.48 C 0 km/h
1898 19-06-2019 01:00:00 17.61667 C 13 g/m*3 17.62 C 0 km/h
1899 19-06-2019 02:00:00 17.39167 C 13.08 g/m*3 17.39 C 0 km/h
1900 19-06-2019 03:00:00 16.53333 C 12.64 g/m*3 16.53 C 0 km/h
Sensor: Nr:Datum:Temp:Abs-Feuchte:Windchill:Wind:
Aussen-T/F 1901 19-06-2019 04:00:00 15.775 C 12.23 g/m*3 15.78 C 0 km/h
1902 19-06-2019 05:00:00 15.19167 C 12.04 g/m*3 15.19 C 0 km/h
1903 19-06-2019 06:00:00 14.99167 C 12 g/m*3 14.99 C 0 km/h
1904 19-06-2019 07:00:00 15.425 C 12.48 g/m*3 15.43 C 0 km/h
1905 19-06-2019 08:00:00 16.54167 C 13.37 g/m*3 16.54 C 0 km/h
1906 19-06-2019 09:00:00 18.46667 C 14.82 g/m*3 18.47 C 0 km/h
1907 19-06-2019 10:00:00 23.44167 C 15.47 g/m*3 23.44 C 6.04167 km/h
1908 19-06-2019 11:00:00 26.775 C 13.75 g/m*3 26.78 C 12.08333 km/h
1909 19-06-2019 12:00:00 26.475 C 14.89 g/m*3 26.48 C 4.3 km/h
1910 19-06-2019 13:00:00 26 C 15.34 g/m*3 26 C 4.69167 km/h
1911 19-06-2019 14:00:00 27.00833 C 13.78 g/m*3 27.01 C 9.39167 km/h
1912 19-06-2019 15:00:00 27.25 C 14.83 g/m*3 27.25 C 11.68333 km/h
1913 19-06-2019 16:00:00 29.925 C 14.7 g/m*3 29.93 C 8.2 km/h
1914 19-06-2019 17:00:00 31.25833 C 13.39 g/m*3 31.26 C 7.39167 km/h
1915 19-06-2019 18:00:00 28.4 C 15.73 g/m*3 28.4 C 0.26667 km/h
1916 19-06-2019 19:00:00 28.94167 C 15.2 g/m*3 28.94 C 3.34167 km/h
1917 19-06-2019 20:00:00 25.31667 C 15.31 g/m*3 25.32 C 0.53333 km/h
1918 19-06-2019 21:00:00 23.275 C 14.79 g/m*3 23.28 C 0 km/h
1919 19-06-2019 22:00:00 21.68333 C 14.1 g/m*3 21.68 C 0.8 km/h
1920 19-06-2019 23:00:00 19.925 C 13.74 g/m*3 19.93 C 0 km/h
1921 20-06-2019 00:00:00 18.75 C 13.38 g/m*3 18.75 C 0 km/h
1922 20-06-2019 01:00:00 17.98333 C 13.23 g/m*3 17.98 C 0 km/h
1923 20-06-2019 02:00:00 17.45833 C 13.2 g/m*3 17.46 C 0.13333 km/h
1924 20-06-2019 03:00:00 17.7 C 13.5 g/m*3 17.7 C 1.73333 km/h
1925 20-06-2019 04:00:00 17.31667 C 13.21 g/m*3 17.32 C 1.33333 km/h
Sensor: Nr:Datum:Temp:Abs-Feuchte:Windchill:Wind:
Aussen-T/F 1926 20-06-2019 05:00:00 16.68333 C 12.97 g/m*3 16.68 C 0.26667 km/h
1927 20-06-2019 06:00:00 16.85833 C 13.25 g/m*3 16.86 C 0.8 km/h
1928 20-06-2019 07:00:00 17.73333 C 13.49 g/m*3 17.73 C 3.60833 km/h
1929 20-06-2019 08:00:00 19.45 C 13.62 g/m*3 19.45 C 8.75 km/h
1930 20-06-2019 09:00:00 20.2 C 13.27 g/m*3 20.2 C 11.7 km/h
1931 20-06-2019 10:00:00 21.30833 C 13.19 g/m*3 21.31 C 13.3 km/h
1932 20-06-2019 11:00:00 21.89167 C 13.49 g/m*3 21.89 C 12.23333 km/h
1933 20-06-2019 12:00:00 22.65 C 13.4 g/m*3 22.65 C 13.3 km/h
1934 20-06-2019 13:00:00 23.24167 C 13.49 g/m*3 23.24 C 9.41667 km/h
1935 20-06-2019 14:00:00 24.61667 C 13.24 g/m*3 24.62 C 11.025 km/h
1936 20-06-2019 15:00:00 21.45833 C 14.12 g/m*3 21.46 C 11.41667 km/h
1937 20-06-2019 16:00:00 22.75 C 14.57 g/m*3 22.75 C 8.875 km/h
1938 20-06-2019 17:00:00 21.25833 C 14.23 g/m*3 21.26 C 7.51667 km/h
1939 20-06-2019 18:00:00 20 C 14.01 g/m*3 20 C 8.86667 km/h
1940 20-06-2019 19:00:00 18.75833 C 13.15 g/m*3 18.76 C 3.75 km/h
1941 20-06-2019 20:00:00 18.66667 C 13.16 g/m*3 18.67 C 0.53333 km/h
1942 20-06-2019 21:00:00 18.21667 C 13.08 g/m*3 18.22 C 0 km/h
1943 20-06-2019 22:00:00 16.9 C 12.51 g/m*3 16.9 C 0 km/h
1944 20-06-2019 23:00:00 15.725 C 12.15 g/m*3 15.73 C 0 km/h
1945 21-06-2019 00:00:00 15.5 C 12.36 g/m*3 15.5 C 0.4 km/h
1946 21-06-2019 01:00:00 14.89167 C 11.85 g/m*3 14.89 C 0 km/h
1947 21-06-2019 02:00:00 14.78333 C 11.94 g/m*3 14.78 C 0 km/h
1948 21-06-2019 03:00:00 15.06667 C 12.13 g/m*3 15.07 C 0 km/h
1949 21-06-2019 04:00:00 14.91667 C 12.01 g/m*3 14.92 C 0 km/h
1950 21-06-2019 05:00:00 14.325 C 11.56 g/m*3 14.33 C 0 km/h
Sensor: Nr:Datum:Temp:Abs-Feuchte:Windchill:Wind:
Aussen-T/F 1951 21-06-2019 06:00:00 14.175 C 11.39 g/m*3 14.18 C 0 km/h
1952 21-06-2019 07:00:00 14.63333 C 11.62 g/m*3 14.63 C 0 km/h
1953 21-06-2019 08:00:00 15.88333 C 10.74 g/m*3 15.88 C 5.225 km/h
1954 21-06-2019 09:00:00 16.7 C 10.41 g/m*3 16.7 C 4.94167 km/h
1955 21-06-2019 10:00:00 18.28333 C 10.39 g/m*3 18.28 C 6.44167 km/h
1956 21-06-2019 11:00:00 19.45 C 10.21 g/m*3 19.45 C 4.26667 km/h
1957 21-06-2019 12:00:00 20.10833 C 10.13 g/m*3 20.11 C 7.65833 km/h
1958 21-06-2019 13:00:00 21.3 C 9.82 g/m*3 21.3 C 8.875 km/h
1959 21-06-2019 14:00:00 22.03333 C 9.22 g/m*3 22.03 C 8.725 km/h
1960 21-06-2019 15:00:00 22.6 C 9.29 g/m*3 22.6 C 6.975 km/h
1961 21-06-2019 16:00:00 23.64167 C 9.22 g/m*3 23.64 C 6.85 km/h
1962 21-06-2019 17:00:00 25.125 C 9.16 g/m*3 25.13 C 9.15833 km/h
1963 21-06-2019 18:00:00 24.95833 C 9.07 g/m*3 24.96 C 12.48333 km/h
1964 21-06-2019 19:00:00 23.63333 C 9.13 g/m*3 23.63 C 11.43333 km/h
1965 21-06-2019 20:00:00 22.15 C 9.23 g/m*3 22.15 C 10.21667 km/h
1966 21-06-2019 21:00:00 19.375 C 9.52 g/m*3 19.38 C 2.68333 km/h
1967 21-06-2019 22:00:00 16.6 C 9.38 g/m*3 16.6 C 0 km/h
1968 21-06-2019 23:00:00 15.23333 C 9.43 g/m*3 15.23 C 0 km/h
1969 22-06-2019 00:00:00 13.71667 C 9.36 g/m*3 13.72 C 0 km/h
1970 22-06-2019 01:00:00 13.01667 C 9.34 g/m*3 13.02 C 0 km/h
1971 22-06-2019 02:00:00 12.10833 C 9.19 g/m*3 12.11 C 0 km/h
1972 22-06-2019 03:00:00 11.5 C 9.14 g/m*3 11.5 C 0 km/h
1973 22-06-2019 04:00:00 11.05833 C 9.08 g/m*3 11.06 C 0 km/h
1974 22-06-2019 05:00:00 10.675 C 9 g/m*3 10.68 C 0 km/h
1975 22-06-2019 06:00:00 10.70833 C 9.14 g/m*3 10.71 C 0 km/h
Sensor: Nr:Datum:Temp:Abs-Feuchte:Windchill:Wind:
Aussen-T/F 1976 22-06-2019 07:00:00 11.80833 C 9.93 g/m*3 11.81 C 0 km/h
1977 22-06-2019 08:00:00 13.84167 C 10.82 g/m*3 13.84 C 0.4 km/h
1978 22-06-2019 09:00:00 16.275 C 11.06 g/m*3 16.27 C 1.06667 km/h
1979 22-06-2019 10:00:00 19.475 C 11.26 g/m*3 19.48 C 6.29167 km/h
1980 22-06-2019 11:00:00 21.21667 C 11.53 g/m*3 21.22 C 10.09167 km/h
1981 22-06-2019 12:00:00 22.66667 C 12.02 g/m*3 22.67 C 9.55 km/h
1982 22-06-2019 13:00:00 24.175 C 12.23 g/m*3 24.18 C 10.89167 km/h
1983 22-06-2019 14:00:00 25.025 C 12.43 g/m*3 25.03 C 10.75 km/h
1984 22-06-2019 15:00:00 25.59167 C 11.88 g/m*3 25.59 C 9.14167 km/h
1985 22-06-2019 16:00:00 26.50833 C 11.81 g/m*3 26.51 C 6.70833 km/h
1986 22-06-2019 17:00:00 26.26667 C 12.03 g/m*3 26.27 C 5.61667 km/h
1987 22-06-2019 18:00:00 27.45 C 11.48 g/m*3 27.45 C 10.1 km/h
1988 22-06-2019 19:00:00 27.53333 C 11.6 g/m*3 27.53 C 10.09167 km/h
1989 22-06-2019 20:00:00 26.95 C 12.36 g/m*3 26.95 C 9.95833 km/h
1990 22-06-2019 21:00:00 23.525 C 13.2 g/m*3 23.53 C 2.54167 km/h
1991 22-06-2019 22:00:00 20.3 C 12.85 g/m*3 20.3 C 0.13333 km/h
1992 22-06-2019 23:00:00 18.63333 C 12.65 g/m*3 18.63 C 0 km/h
1993 23-06-2019 00:00:00 17.4 C 12.37 g/m*3 17.4 C 0 km/h
1994 23-06-2019 01:00:00 16.33333 C 12.08 g/m*3 16.33 C 0 km/h
1995 23-06-2019 02:00:00 15.64167 C 11.9 g/m*3 15.64 C 0 km/h
1996 23-06-2019 03:00:00 14.98333 C 11.66 g/m*3 14.98 C 0 km/h
1997 23-06-2019 04:00:00 14.53333 C 11.5 g/m*3 14.53 C 0 km/h
1998 23-06-2019 05:00:00 14.075 C 11.31 g/m*3 14.08 C 0 km/h
1999 23-06-2019 06:00:00 14.20833 C 11.5 g/m*3 14.21 C 0 km/h
2000 23-06-2019 07:00:00 14.74167 C 11.98 g/m*3 14.74 C 0 km/h
Sensor: Nr:Datum:Temp:Abs-Feuchte:Windchill:Wind:
Aussen-T/F 2001 23-06-2019 08:00:00 16.09167 C 12.96 g/m*3 16.09 C 0.26667 km/h
2002 23-06-2019 09:00:00 18.65833 C 13.81 g/m*3 18.66 C 3.75833 km/h
2003 23-06-2019 10:00:00 22.525 C 13.8 g/m*3 22.53 C 10.75833 km/h
2004 23-06-2019 11:00:00 24.14167 C 14.11 g/m*3 24.14 C 11.29167 km/h
2005 23-06-2019 12:00:00 25.21667 C 14.33 g/m*3 25.22 C 10.75833 km/h
2006 23-06-2019 13:00:00 26.58333 C 14.08 g/m*3 26.58 C 10.48333 km/h
2007 23-06-2019 14:00:00 27.84167 C 13.77 g/m*3 27.84 C 14.09167 km/h
2008 23-06-2019 15:00:00 28.575 C 13.54 g/m*3 28.58 C 8.35833 km/h
2009 23-06-2019 16:00:00 30.24167 C 13.26 g/m*3 30.24 C 10.20833 km/h
2010 23-06-2019 17:00:00 30.6 C 13.52 g/m*3 30.6 C 9.94167 km/h
2011 23-06-2019 18:00:00 30.3 C 13.61 g/m*3 30.3 C 7.375 km/h
2012 23-06-2019 19:00:00 29.025 C 14.48 g/m*3 29.03 C 4.00833 km/h
2013 23-06-2019 20:00:00 25.85833 C 14.98 g/m*3 25.86 C 0 km/h
2014 23-06-2019 21:00:00 23.39167 C 14.22 g/m*3 23.39 C 0 km/h
2015 23-06-2019 22:00:00 21.70833 C 13.8 g/m*3 21.71 C 0 km/h
2016 23-06-2019 23:00:00 20.25 C 13.65 g/m*3 20.25 C 0 km/h
2017 24-06-2019 00:00:00 19.11667 C 13.48 g/m*3 19.12 C 0 km/h
2018 24-06-2019 01:00:00 18.43333 C 13.29 g/m*3 18.43 C 0 km/h
2019 24-06-2019 02:00:00 17.54167 C 13.02 g/m*3 17.54 C 0 km/h
2020 24-06-2019 03:00:00 16.95833 C 12.86 g/m*3 16.96 C 0 km/h
2021 24-06-2019 04:00:00 16.55 C 12.77 g/m*3 16.55 C 0 km/h
2022 24-06-2019 05:00:00 16.40833 C 12.86 g/m*3 16.41 C 0 km/h
2023 24-06-2019 06:00:00 16.70833 C 13.21 g/m*3 16.71 C 0 km/h
2024 24-06-2019 07:00:00 17.45 C 13.81 g/m*3 17.45 C 0 km/h
2025 24-06-2019 08:00:00 18.55 C 14.56 g/m*3 18.55 C 0 km/h
Sensor: Nr:Datum:Temp:Abs-Feuchte:Windchill:Wind:
Aussen-T/F 2026 24-06-2019 09:00:00 21.25833 C 15.74 g/m*3 21.26 C 3.74167 km/h
2027 24-06-2019 10:00:00 25.475 C 15.86 g/m*3 25.48 C 8.33333 km/h
2028 24-06-2019 11:00:00 26.95833 C 15.32 g/m*3 26.96 C 8.325 km/h
2029 24-06-2019 12:00:00 27.88333 C 15 g/m*3 27.88 C 12.63333 km/h
2030 24-06-2019 13:00:00 29.05833 C 14.98 g/m*3 29.06 C 15.03333 km/h
2031 24-06-2019 14:00:00 30.1 C 15.19 g/m*3 30.1 C 10.9 km/h
2032 24-06-2019 15:00:00 31.38333 C 15.3 g/m*3 31.38 C 12.1 km/h
2033 24-06-2019 16:00:00 32.73333 C 15.44 g/m*3 32.73 C 9.68333 km/h
2034 24-06-2019 17:00:00 32.96667 C 15.84 g/m*3 32.97 C 9.55 km/h
2035 24-06-2019 18:00:00 33.1 C 15.75 g/m*3 33.1 C 9.40833 km/h
2036 24-06-2019 19:00:00 32.375 C 15.67 g/m*3 32.38 C 8.06667 km/h
2037 24-06-2019 20:00:00 30.64167 C 15.85 g/m*3 30.64 C 6.425 km/h
2038 24-06-2019 21:00:00 26.81667 C 16.24 g/m*3 26.82 C 0.13333 km/h
2039 24-06-2019 22:00:00 23.99167 C 15.44 g/m*3 23.99 C 0 km/h
2040 24-06-2019 23:00:00 22.68333 C 14.94 g/m*3 22.68 C 0 km/h
2041 25-06-2019 00:00:00 21.4 C 14.53 g/m*3 21.4 C 0 km/h
2042 25-06-2019 01:00:00 20.425 C 14.32 g/m*3 20.43 C 0 km/h
2043 25-06-2019 02:00:00 19.35833 C 13.91 g/m*3 19.36 C 0 km/h
2044 25-06-2019 03:00:00 18.46667 C 13.51 g/m*3 18.47 C 0 km/h
2045 25-06-2019 04:00:00 17.825 C 13.39 g/m*3 17.83 C 0 km/h
2046 25-06-2019 05:00:00 17.51667 C 13.34 g/m*3 17.52 C 0 km/h
2047 25-06-2019 06:00:00 17.76667 C 13.76 g/m*3 17.77 C 0 km/h
2048 25-06-2019 07:00:00 18.44167 C 14.3 g/m*3 18.44 C 0 km/h
2049 25-06-2019 08:00:00 20.1 C 15.38 g/m*3 20.1 C 0 km/h
2050 25-06-2019 09:00:00 22.56667 C 16.39 g/m*3 22.57 C 2.40833 km/h
Sensor: Nr:Datum:Temp:Abs-Feuchte:Windchill:Wind:
Aussen-T/F 2051 25-06-2019 10:00:00 26.46667 C 16.43 g/m*3 26.47 C 6.15833 km/h
2052 25-06-2019 11:00:00 28.05833 C 16.16 g/m*3 28.06 C 5.9 km/h
2053 25-06-2019 12:00:00 29.51667 C 16.49 g/m*3 29.52 C 6.03333 km/h
2054 25-06-2019 13:00:00 31.1 C 16.73 g/m*3 31.1 C 7.375 km/h
2055 25-06-2019 14:00:00 32.75833 C 16.49 g/m*3 32.76 C 8.725 km/h
2056 25-06-2019 15:00:00 34.91667 C 16.43 g/m*3 34.92 C 10.23333 km/h
2057 25-06-2019 16:00:00 36.45833 C 16.24 g/m*3 36.46 C 8.06667 km/h
2058 25-06-2019 17:00:00 37.69167 C 14.95 g/m*3 37.69 C 8.06667 km/h
2059 25-06-2019 18:00:00 36.71667 C 15.88 g/m*3 36.72 C 7.25833 km/h
2060 25-06-2019 19:00:00 34.225 C 18.41 g/m*3 34.23 C 1.33333 km/h
2061 25-06-2019 20:00:00 31.78333 C 17.41 g/m*3 31.78 C 0.26667 km/h
2062 25-06-2019 21:00:00 28.025 C 16.04 g/m*3 28.03 C 0.26667 km/h
2063 25-06-2019 22:00:00 25.60833 C 15.24 g/m*3 25.61 C 0.4 km/h
2064 25-06-2019 23:00:00 24.15833 C 14.47 g/m*3 24.16 C 0 km/h
2065 26-06-2019 00:00:00 23.41667 C 14.63 g/m*3 23.42 C 0.13333 km/h
2066 26-06-2019 01:00:00 22.38333 C 14.72 g/m*3 22.38 C 1.06667 km/h
2067 26-06-2019 02:00:00 21.20833 C 14.65 g/m*3 21.21 C 0.4 km/h
2068 26-06-2019 03:00:00 20.575 C 14.64 g/m*3 20.58 C 0.4 km/h
2069 26-06-2019 04:00:00 19.825 C 14.44 g/m*3 19.83 C 0 km/h
2070 26-06-2019 05:00:00 19.475 C 14.5 g/m*3 19.48 C 0.66667 km/h
2071 26-06-2019 06:00:00 19.575 C 14.81 g/m*3 19.58 C 0.26667 km/h
2072 26-06-2019 07:00:00 20.03333 C 15.24 g/m*3 20.03 C 0.53333 km/h
2073 26-06-2019 08:00:00 22.7 C 17.68 g/m*3 22.7 C 0 km/h
2074 26-06-2019 09:00:00 24.64167 C 18.72 g/m*3 24.64 C 4.15 km/h
2075 26-06-2019 10:00:00 27.25 C 19.33 g/m*3 27.25 C 4.275 km/h
Sensor: Nr:Datum:Temp:Abs-Feuchte:Windchill:Wind:
Aussen-T/F 2076 26-06-2019 11:00:00 28.95 C 19.53 g/m*3 28.95 C 7.24167 km/h
2077 26-06-2019 12:00:00 30.24167 C 19.3 g/m*3 30.24 C 6.575 km/h
2078 26-06-2019 13:00:00 31.63333 C 17.57 g/m*3 31.63 C 8.08333 km/h
2079 26-06-2019 14:00:00 32.64167 C 17.64 g/m*3 32.64 C 9.15 km/h
2080 26-06-2019 15:00:00 33.9 C 18.51 g/m*3 33.9 C 9.825 km/h
2081 26-06-2019 16:00:00 34.76667 C 17.9 g/m*3 34.77 C 11.3 km/h
2082 26-06-2019 17:00:00 34.76667 C 17.18 g/m*3 34.77 C 11.16667 km/h
2083 26-06-2019 18:00:00 34.36667 C 16 g/m*3 34.37 C 11.96667 km/h
2084 26-06-2019 19:00:00 33.36667 C 15.82 g/m*3 33.37 C 10.76667 km/h
2085 26-06-2019 20:00:00 30.94167 C 16.03 g/m*3 30.94 C 8.34167 km/h
2086 26-06-2019 21:00:00 28.8 C 16.05 g/m*3 28.8 C 2.93333 km/h
2087 26-06-2019 22:00:00 26.4 C 16.24 g/m*3 26.4 C 2.68333 km/h
2088 26-06-2019 23:00:00 26.03333 C 16.91 g/m*3 26.03 C 5.63333 km/h
2089 27-06-2019 00:00:00 25.24167 C 17.03 g/m*3 25.24 C 5.89167 km/h
2090 27-06-2019 01:00:00 24.11667 C 16.75 g/m*3 24.12 C 4.675 km/h
2091 27-06-2019 02:00:00 23.25833 C 16.37 g/m*3 23.26 C 2.66667 km/h
2092 27-06-2019 03:00:00 22.41667 C 15.51 g/m*3 22.42 C 4.40833 km/h
2093 27-06-2019 04:00:00 21.66667 C 14.66 g/m*3 21.67 C 6.025 km/h
2094 27-06-2019 05:00:00 20.54167 C 14.17 g/m*3 20.54 C 3.20833 km/h
2095 27-06-2019 06:00:00 20.01667 C 13.97 g/m*3 20.02 C 1.86667 km/h
2096 27-06-2019 07:00:00 20.03333 C 13.81 g/m*3 20.03 C 6.41667 km/h
2097 27-06-2019 08:00:00 20.6 C 13.87 g/m*3 20.6 C 6.01667 km/h
2098 27-06-2019 09:00:00 21.45833 C 13.92 g/m*3 21.46 C 8.35 km/h
2099 27-06-2019 10:00:00 22.83333 C 13.84 g/m*3 22.83 C 10.09167 km/h
2100 27-06-2019 11:00:00 24.03333 C 13.53 g/m*3 24.03 C 9.14167 km/h
Sensor: Nr:Datum:Temp:Abs-Feuchte:Windchill:Wind:
Aussen-T/F 2101 27-06-2019 12:00:00 24.84167 C 13.44 g/m*3 24.84 C 12.1 km/h
2102 27-06-2019 13:00:00 25.875 C 12.87 g/m*3 25.88 C 10.63333 km/h
2103 27-06-2019 14:00:00 26.98333 C 12.43 g/m*3 26.98 C 11.43333 km/h
2104 27-06-2019 15:00:00 28.6 C 11.55 g/m*3 28.6 C 12.9 km/h
2105 27-06-2019 16:00:00 30.18333 C 9.93 g/m*3 30.18 C 13.56667 km/h
2106 27-06-2019 17:00:00 30.54167 C 8.74 g/m*3 30.54 C 13.83333 km/h
2107 27-06-2019 18:00:00 30.225 C 8.08 g/m*3 30.23 C 12.1 km/h
2108 27-06-2019 19:00:00 29.59167 C 7.64 g/m*3 29.59 C 11.3 km/h
2109 27-06-2019 20:00:00 27.43333 C 8.57 g/m*3 27.43 C 8.475 km/h
2110 27-06-2019 21:00:00 24.48333 C 9.32 g/m*3 24.48 C 3.46667 km/h
2111 27-06-2019 22:00:00 21.28333 C 10.24 g/m*3 21.28 C 1.46667 km/h
2112 27-06-2019 23:00:00 19.9 C 10.45 g/m*3 19.9 C 1.33333 km/h
2113 28-06-2019 00:00:00 18.53333 C 10.48 g/m*3 18.53 C 0 km/h
2114 28-06-2019 01:00:00 17.18333 C 10.48 g/m*3 17.18 C 0 km/h
2115 28-06-2019 02:00:00 16.26667 C 10.59 g/m*3 16.27 C 0 km/h
2116 28-06-2019 03:00:00 15.48333 C 10.6 g/m*3 15.48 C 0 km/h
2117 28-06-2019 04:00:00 14.35 C 10.38 g/m*3 14.35 C 0 km/h
2118 28-06-2019 05:00:00 13.51667 C 10.24 g/m*3 13.52 C 0 km/h
2119 28-06-2019 06:00:00 13.35833 C 10.41 g/m*3 13.36 C 0 km/h
2120 28-06-2019 07:00:00 13.86667 C 10.87 g/m*3 13.87 C 0 km/h
2121 28-06-2019 08:00:00 15.39167 C 11.23 g/m*3 15.39 C 2.4 km/h
2122 28-06-2019 09:00:00 17.7 C 11.3 g/m*3 17.7 C 3.73333 km/h
2123 28-06-2019 10:00:00 19.81667 C 11.53 g/m*3 19.82 C 5.20833 km/h
2124 28-06-2019 11:00:00 21.475 C 11.36 g/m*3 21.48 C 6.3 km/h
2125 28-06-2019 12:00:00 22.84167 C 11.34 g/m*3 22.84 C 8.05833 km/h
Sensor: Nr:Datum:Temp:Abs-Feuchte:Windchill:Wind:
Aussen-T/F 2126 28-06-2019 13:00:00 24.66667 C 10.67 g/m*3 24.67 C 9.81667 km/h
2127 28-06-2019 14:00:00 26.31667 C 10.49 g/m*3 26.32 C 8.89167 km/h
2128 28-06-2019 15:00:00 28.225 C 10.62 g/m*3 28.23 C 8.05 km/h
2129 28-06-2019 16:00:00 30.25 C 10.32 g/m*3 30.25 C 8.86667 km/h
2130 28-06-2019 17:00:00 31.13333 C 9.59 g/m*3 31.13 C 8.58333 km/h
2131 28-06-2019 18:00:00 31.66667 C 9.29 g/m*3 31.67 C 7.65 km/h
2132 28-06-2019 19:00:00 31.2 C 9.73 g/m*3 31.2 C 6.56667 km/h
2133 28-06-2019 20:00:00 29.49167 C 10.87 g/m*3 29.49 C 4.3 km/h
2134 28-06-2019 21:00:00 25.61667 C 11.48 g/m*3 25.62 C 0.8 km/h
2135 28-06-2019 22:00:00 21.58333 C 10.36 g/m*3 21.58 C 0.4 km/h
2136 28-06-2019 23:00:00 19.275 C 10.54 g/m*3 19.27 C 0 km/h
2137 29-06-2019 00:00:00 18.40833 C 10.37 g/m*3 18.41 C 0.4 km/h
2138 29-06-2019 01:00:00 17.83333 C 10.35 g/m*3 17.83 C 0.53333 km/h
2139 29-06-2019 02:00:00 17.09167 C 10.32 g/m*3 17.09 C 0.13333 km/h
2140 29-06-2019 03:00:00 16.39167 C 10.37 g/m*3 16.39 C 0 km/h
2141 29-06-2019 04:00:00 15.175 C 10.18 g/m*3 15.18 C 0 km/h
2142 29-06-2019 05:00:00 14.09167 C 10.04 g/m*3 14.09 C 0 km/h
2143 29-06-2019 06:00:00 13.70833 C 10.13 g/m*3 13.71 C 0 km/h
2144 29-06-2019 07:00:00 14.075 C 10.62 g/m*3 14.08 C 0 km/h
2145 29-06-2019 08:00:00 15.26667 C 11.33 g/m*3 15.27 C 0 km/h
2146 29-06-2019 09:00:00 19.2 C 11.79 g/m*3 19.2 C 6.16667 km/h
2147 29-06-2019 10:00:00 23.49167 C 11.64 g/m*3 23.49 C 9 km/h
2148 29-06-2019 11:00:00 25.775 C 11.54 g/m*3 25.78 C 7.925 km/h
2149 29-06-2019 12:00:00 27.41667 C 11.74 g/m*3 27.42 C 10.89167 km/h
2150 29-06-2019 13:00:00 29.11667 C 10.24 g/m*3 29.12 C 11.69167 km/h
Sensor: Nr:Datum:Temp:Abs-Feuchte:Windchill:Wind:
Aussen-T/F 2151 29-06-2019 14:00:00 30.58333 C 9.54 g/m*3 30.58 C 11.13333 km/h
2152 29-06-2019 15:00:00 32.63333 C 9.25 g/m*3 32.63 C 10.75 km/h
2153 29-06-2019 16:00:00 34.24167 C 8.93 g/m*3 34.24 C 12.09167 km/h
2154 29-06-2019 17:00:00 35.325 C 8.95 g/m*3 35.33 C 7.78333 km/h
2155 29-06-2019 18:00:00 35.64167 C 9.23 g/m*3 35.64 C 7.38333 km/h
2156 29-06-2019 19:00:00 35.26667 C 9.39 g/m*3 35.27 C 4.66667 km/h
2157 29-06-2019 20:00:00 32.425 C 11.77 g/m*3 32.42 C 1.06667 km/h
2158 29-06-2019 21:00:00 27.60833 C 10.67 g/m*3 27.61 C 1.6 km/h
2159 29-06-2019 22:00:00 24.225 C 10.01 g/m*3 24.23 C 1.2 km/h
2160 29-06-2019 23:00:00 21.23333 C 10.66 g/m*3 21.23 C 0 km/h
2161 30-06-2019 00:00:00 18.93333 C 10.69 g/m*3 18.93 C 0 km/h
2162 30-06-2019 01:00:00 17.525 C 10.78 g/m*3 17.52 C 0 km/h
2163 30-06-2019 02:00:00 16.75 C 10.77 g/m*3 16.75 C 0 km/h
2164 30-06-2019 03:00:00 16.10833 C 10.8 g/m*3 16.11 C 0 km/h
2165 30-06-2019 04:00:00 15.58333 C 10.81 g/m*3 15.58 C 0.26667 km/h
2166 30-06-2019 05:00:00 15.05 C 10.75 g/m*3 15.05 C 0 km/h
2167 30-06-2019 06:00:00 14.85 C 10.99 g/m*3 14.85 C 0 km/h
2168 30-06-2019 07:00:00 15.44167 C 11.57 g/m*3 15.44 C 0.13333 km/h
2169 30-06-2019 08:00:00 17.025 C 12.52 g/m*3 17.02 C 0 km/h
2170 30-06-2019 09:00:00 19.65833 C 13.82 g/m*3 19.66 C 0 km/h
2171 30-06-2019 10:00:00 25.225 C 15.09 g/m*3 25.23 C 5.64167 km/h
2172 30-06-2019 11:00:00 30.59167 C 14.17 g/m*3 30.59 C 12.76667 km/h
2173 30-06-2019 12:00:00 32.48333 C 13.85 g/m*3 32.48 C 8.61667 km/h
2174 30-06-2019 13:00:00 34.6 C 13.55 g/m*3 34.6 C 11.7 km/h
2175 30-06-2019 14:00:00 36.00833 C 14.3 g/m*3 36.01 C 15.03333 km/h
Sensor: Nr:Datum:Temp:Abs-Feuchte:Windchill:Wind:
Aussen-T/F 2176 30-06-2019 15:00:00 35.5 C 16.53 g/m*3 35.5 C 14.9 km/h
2177 30-06-2019 16:00:00 35.49167 C 18.25 g/m*3 35.49 C 10.75 km/h
2178 30-06-2019 17:00:00 35.875 C 18.86 g/m*3 35.88 C 8.34167 km/h
2179 30-06-2019 18:00:00 34.975 C 18.29 g/m*3 34.98 C 10.23333 km/h
2180 30-06-2019 19:00:00 32.65833 C 17.71 g/m*3 32.66 C 11.01667 km/h
2181 30-06-2019 20:00:00 29.35 C 17.22 g/m*3 29.35 C 13.43333 km/h
2182 30-06-2019 21:00:00 27.18333 C 16.25 g/m*3 27.18 C 8.6 km/h
2183 30-06-2019 22:00:00 26.25833 C 15.72 g/m*3 26.26 C 7.10833 km/h
2184 30-06-2019 23:00:00 24.55833 C 15.04 g/m*3 24.56 C 2.66667 km/h

Maximal/Minimal-Werte vom 01.04.2019 - 30.06.2019

Sensor Min Max Avg
Temp
(Aussen-T/F)
0.3 °C
14-04-2019  00:50:00
37.9 °C
25-06-2019  17:45:00
14.51 °C
Abs-Feuchte
(Aussen-T/F)
3.64 g/m*3
12-04-2019  17:00:00
19.53 g/m*3
26-06-2019  11:00:00
9.31 g/m*3
Windchill
(Aussen-T/F)
0.45 C
14-04-2019  01:00:00
37.69 C
25-06-2019  17:00:00
14.42 C

Die Daten stammen von einer Davis Vantage Pro 2 Wetter-Station und werden unter Linux mit der Software wview2wettercgi und aufbereitet. Alle Angaben erfolgen ohne Gewähr für ihre Vollständigkeit oder Richtigkeit.
Kontakt: Rainer Krienke krienke@uni-koblenz.de . Meine Webseiten an der Uni Koblenz oder privat.
Version: $Revision: 0.78 $